Provisional Data: Wappasening Creek near Windham Center, PA


Please select a monitoring station.
Please select start date.
Please select start date.
Historical Station - Data Range: 06/02/2010 - 01/30/2017

Toggle Unit: C/F Toggle Unit: C/F
Sample Time Temperature (C) Temperature (F) Specific Conductivity (mS/cm) pH   Turbidity (NTU+) DO (mg/L)
12/30/2016 12:00:00 AM 1.71 35.078 0.082 6.38 3.2 13.11
12/30/2016 12:15:00 AM 1.71 35.078 0.082 6.37 3.1 13.1
12/30/2016 12:30:00 AM 1.71 35.078 0.082 6.38 3.1 13.11
12/30/2016 12:45:00 AM 1.68 35.024 0.082 6.35 2.9 13.1
12/30/2016 1:00:00 AM 1.69 35.042 0.082 6.25 5 13.09
12/30/2016 1:15:00 AM 1.69 35.042 0.082 6.32 3.1 13.11
12/30/2016 1:30:00 AM 1.69 35.042 0.082 6.35 3.1 13.12
12/30/2016 1:45:00 AM 1.69 35.042 0.082 6.36 2.6 13.1
12/30/2016 2:00:00 AM 1.69 35.042 0.082 6.37 3.5 13.1
12/30/2016 2:15:00 AM 1.69 35.042 0.082 6.36 3 13.1
12/30/2016 2:30:00 AM 1.69 35.042 0.082 6.35 3.5 13.12
12/30/2016 2:45:00 AM 1.69 35.042 0.082 6.36 3.4 13.11
12/30/2016 3:00:00 AM 1.66 34.988 0.082 6.37 3.3 13.12
12/30/2016 3:15:00 AM 1.65 34.97 0.082 6.37 3 13.12
12/30/2016 3:30:00 AM 1.63 34.934 0.082 6.37 3.4 13.12
12/30/2016 3:45:00 AM 1.61 34.898 0.082 6.38 2.6 13.12
12/30/2016 4:00:00 AM 1.58 34.844 0.082 6.36 3 13.13
12/30/2016 4:15:00 AM 1.57 34.826 0.082 6.35 3.1 13.12
12/30/2016 4:30:00 AM 1.56 34.808 0.082 6.31 3 13.14
12/30/2016 4:45:00 AM 1.56 34.808 0.082 6.35 2.8 13.15
12/30/2016 5:00:00 AM 1.56 34.808 0.082 6.37 3.2 13.14
12/30/2016 5:15:00 AM 1.55 34.79 0.082 6.36 2.6 13.17
12/30/2016 5:30:00 AM 1.55 34.79 0.082 6.36 2.5 13.17
12/30/2016 5:45:00 AM 1.52 34.736 0.082 6.38 2.9 13.15
12/30/2016 6:00:00 AM 1.49 34.682 0.082 6.38 2.7 13.17
12/30/2016 6:15:00 AM 1.48 34.664 0.082 6.36 2.6 13.16
12/30/2016 6:30:00 AM 1.47 34.646 0.082 6.36 2.5 13.17
12/30/2016 6:45:00 AM 1.47 34.646 0.082 6.37 2.6 13.18
12/30/2016 7:00:00 AM 1.48 34.664 0.082 6.36 2.6 13.18
12/30/2016 7:15:00 AM 1.47 34.646 0.082 6.36 2.8 13.18
12/30/2016 7:30:00 AM 1.46 34.628 0.082 6.38 2.8 13.19
12/30/2016 7:45:00 AM 1.46 34.628 0.082 6.38 2.5 13.21
12/30/2016 8:00:00 AM 1.46 34.628 0.082 6.36 2.4 13.22
12/30/2016 8:15:00 AM 1.46 34.628 0.082 6.25 2.8 13.23
12/30/2016 8:30:00 AM 1.47 34.646 0.082 6.35 2.7 13.27
12/30/2016 8:45:00 AM 1.48 34.664 0.082 6.39 2.7 13.3
12/30/2016 9:00:00 AM 1.5 34.7 0.082 6.38 2.4 13.34
12/30/2016 9:15:00 AM 1.54 34.772 0.082 6.38 2.5 13.39
12/30/2016 9:30:00 AM 1.57 34.826 0.082 6.4 2.4 13.43
12/30/2016 9:45:00 AM 1.61 34.898 0.082 6.43 2.6 13.48
12/30/2016 10:00:00 AM 1.69 35.042 0.082 6.44 2.5 13.5
12/30/2016 10:15:00 AM 1.77 35.186 0.082 6.43 2.6 13.54
12/30/2016 10:30:00 AM 1.82 35.276 0.082 6.46 2.8 13.53
12/30/2016 10:45:00 AM 1.91 35.438 0.082 6.44 2.5 13.55
12/30/2016 11:00:00 AM 1.92 35.456 0.082 6.45 2.6 13.52
12/30/2016 11:15:00 AM 1.98 35.564 0.082 6.46 2.2 13.53
12/30/2016 11:30:00 AM 1.98 35.564 0.082 6.48 2.4 13.52
12/30/2016 11:45:00 AM 2.03 35.654 0.082 6.49 2.6 13.53
12/30/2016 12:00:00 PM 2.12 35.816 0.082 6.36 2.6 13.5
12/30/2016 12:15:00 PM 2.16 35.888 0.082 6.44 2.8 13.51
12/30/2016 12:30:00 PM 2.21 35.978 0.081 6.46 3 13.49
12/30/2016 12:45:00 PM 2.27 36.086 0.081 6.47 2.8 13.48
12/30/2016 1:00:00 PM 2.28 36.104 0.081 6.48 3.5 13.47
12/30/2016 1:15:00 PM 2.33 36.194 0.081 6.51 2.4 13.49
12/30/2016 1:30:00 PM 2.34 36.212 0.081 6.52 2.9 13.45
12/30/2016 1:45:00 PM 2.35 36.23 0.081 6.49 2.8 13.43
12/30/2016 2:00:00 PM 2.39 36.302 0.081 6.49 2.7 13.43
12/30/2016 2:15:00 PM 2.39 36.302 0.081 6.49 2.8 13.43
12/30/2016 2:30:00 PM 2.35 36.23 0.081 6.51 2.3 13.41
12/30/2016 2:45:00 PM 2.32 36.176 0.081 6.51 2.7 13.41
12/30/2016 3:00:00 PM 2.3 36.14 0.081 6.5 2.4 13.41
12/30/2016 3:15:00 PM 2.27 36.086 0.081 6.49 2.8 13.4
12/30/2016 3:30:00 PM 2.17 35.906 0.081 6.51 2.9 13.33
12/30/2016 3:45:00 PM 2.18 35.924 0.082 6.38 2.5 13.33
12/30/2016 4:00:00 PM 1.97 35.546 0.082 6.45 2.6 13.27
12/30/2016 4:15:00 PM 1.95 35.51 0.082 6.45 2.5 13.26
12/30/2016 4:30:00 PM 1.75 35.15 0.081 6.46 2.8 13.23
12/30/2016 4:45:00 PM 1.72 35.096 0.081 6.43 2.8 13.25
12/30/2016 5:00:00 PM 1.68 35.024 0.082 6.44 2.6 13.22
12/30/2016 5:15:00 PM 1.68 35.024 0.082 6.41 2.3 13.22
12/30/2016 5:30:00 PM 1.65 34.97 0.082 6.4 2.9 13.22
12/30/2016 5:45:00 PM 1.65 34.97 0.082 6.42 2.3 13.22
12/30/2016 6:00:00 PM 1.63 34.934 0.082 6.39 2.7 13.22
12/30/2016 6:15:00 PM 1.6 34.88 0.082 6.41 2.4 13.23
12/30/2016 6:30:00 PM 1.57 34.826 0.082 6.4 2.7 13.24
12/30/2016 6:45:00 PM 1.54 34.772 0.082 6.38 2.4 13.26
12/30/2016 7:00:00 PM 1.5 34.7 0.082 6.39 2.8 13.27
12/30/2016 7:15:00 PM 1.43 34.574 0.082 6.37 2.5 13.3
12/30/2016 7:30:00 PM 1.39 34.502 0.082 6.26 2.7 13.31
12/30/2016 7:45:00 PM 1.33 34.394 0.082 6.32 2.7 13.32
12/30/2016 8:00:00 PM 1.31 34.358 0.082 6.35 2.2 13.34
12/30/2016 8:15:00 PM 1.29 34.322 0.082 6.37 2.2 13.35
12/30/2016 8:30:00 PM 1.28 34.304 0.082 6.35 2.5 13.36
12/30/2016 8:45:00 PM 1.27 34.286 0.082 6.36 2.6 13.37
12/30/2016 9:00:00 PM 1.23 34.214 0.082 6.35 2.8 13.37
12/30/2016 9:15:00 PM 1.2 34.16 0.082 6.38 2.5 13.39
12/30/2016 9:30:00 PM 1.18 34.124 0.082 6.38 2.1 13.4
12/30/2016 9:45:00 PM 1.15 34.07 0.082 6.38 2.5 13.41
12/30/2016 10:00:00 PM 1.14 34.052 0.082 6.38 2.5 13.42
12/30/2016 10:15:00 PM 1.12 34.016 0.082 6.38 2.3 13.44
12/30/2016 10:30:00 PM 1.12 34.016 0.082 6.36 2.4 13.44
12/30/2016 10:45:00 PM 1.13 34.034 0.082 6.38 2.6 13.45
12/30/2016 11:00:00 PM 1.13 34.034 0.082 6.38 2.6 13.46
12/30/2016 11:15:00 PM 1.12 34.016 0.082 6.24 2.3 13.46
12/30/2016 11:30:00 PM 1.12 34.016 0.082 6.33 2.7 13.47
12/30/2016 11:45:00 PM 1.12 34.016 0.083 6.36 2.2 13.49
12/31/2016 12:00:00 AM 1.11 33.998 0.083 6.37 2.3 13.49
12/31/2016 12:15:00 AM 1.09 33.962 0.083 6.36 2.5 13.48
12/31/2016 12:30:00 AM 1.08 33.944 0.083 6.36 2.3 13.49
12/31/2016 12:45:00 AM 1.07 33.926 0.083 6.36 2.3 13.49
12/31/2016 1:00:00 AM 1.06 33.908 0.083 6.39 2.7 13.49
12/31/2016 1:15:00 AM 1.06 33.908 0.083 6.39 2.2 13.51
12/31/2016 1:30:00 AM 1.06 33.908 0.083 6.38 2.7 13.5
12/31/2016 1:45:00 AM 1.06 33.908 0.083 6.37 2.3 13.51
12/31/2016 2:00:00 AM 1.06 33.908 0.083 6.37 2.4 13.51
12/31/2016 2:15:00 AM 1.06 33.908 0.083 6.38 2.2 13.53
12/31/2016 2:30:00 AM 1.06 33.908 0.083 6.37 2.4 13.52
12/31/2016 2:45:00 AM 1.06 33.908 0.083 6.38 2.3 13.52
12/31/2016 3:00:00 AM 1.07 33.926 0.083 6.25 2.4 13.53
12/31/2016 3:15:00 AM 1.07 33.926 0.083 6.34 2 13.52
12/31/2016 3:30:00 AM 1.06 33.908 0.083 6.35 2.4 13.53
12/31/2016 3:45:00 AM 1.06 33.908 0.083 6.35 1.9 13.53
12/31/2016 4:00:00 AM 1.06 33.908 0.083 6.36 2.2 13.51
12/31/2016 4:15:00 AM 1.06 33.908 0.083 6.36 2.3 13.52
12/31/2016 4:30:00 AM 1.05 33.89 0.083 6.38 2.2 13.52
12/31/2016 4:45:00 AM 1.04 33.872 0.083 6.38 2.2 13.54
12/31/2016 5:00:00 AM 1 33.8 0.083 6.36 2.1 13.53
12/31/2016 5:15:00 AM 0.97 33.746 0.083 6.39 2.1 13.54
12/31/2016 5:30:00 AM 0.95 33.71 0.083 6.36 2.3 13.53
12/31/2016 5:45:00 AM 0.94 33.692 0.083 6.38 1.9 13.54
12/31/2016 6:00:00 AM 0.92 33.656 0.083 6.36 2 13.55
12/31/2016 6:15:00 AM 0.93 33.674 0.083 6.38 2.3 13.55
12/31/2016 6:30:00 AM 0.93 33.674 0.083 6.38 2.3 13.55
12/31/2016 6:45:00 AM 0.94 33.692 0.083 6.25 2.3 13.55
12/31/2016 7:00:00 AM 0.93 33.674 0.083 6.33 2.3 13.56
12/31/2016 7:15:00 AM 0.93 33.674 0.083 6.37 2.7 13.56
12/31/2016 7:30:00 AM 0.92 33.656 0.083 6.36 2.1 13.58
12/31/2016 7:45:00 AM 0.92 33.656 0.083 6.36 2.1 13.58
12/31/2016 8:00:00 AM 0.91 33.638 0.083 6.37 2 13.61
12/31/2016 8:15:00 AM 0.91 33.638 0.083 6.39 1.9 13.64
12/31/2016 8:30:00 AM 0.91 33.638 0.083 6.37 2 13.7
12/31/2016 8:45:00 AM 0.93 33.674 0.083 6.4 2.6 13.74
12/31/2016 9:00:00 AM 0.94 33.692 0.083 6.38 2.1 13.8
12/31/2016 9:15:00 AM 0.96 33.728 0.083 6.4 2.1 13.84
12/31/2016 9:30:00 AM 1.01 33.818 0.083 6.44 1.8 13.89
12/31/2016 9:45:00 AM 1.05 33.89 0.083 6.44 1.9 13.91
12/31/2016 10:00:00 AM 1.09 33.962 0.083 6.43 2.3 13.92
12/31/2016 10:15:00 AM 1.14 34.052 0.083 6.46 2.1 13.92
12/31/2016 10:30:00 AM 1.16 34.088 0.083 6.34 2 13.92
12/31/2016 10:45:00 AM 1.18 34.124 0.083 6.45 2.3 13.93
12/31/2016 11:00:00 AM 1.26 34.268 0.083 6.45 2.3 13.93
12/31/2016 11:15:00 AM 1.37 34.466 0.083 6.47 2.5 13.92
12/31/2016 11:30:00 AM 1.52 34.736 0.083 6.5 1.8 13.89
12/31/2016 11:45:00 AM 1.6 34.88 0.083 6.48 2.4 13.87
12/31/2016 12:00:00 PM 1.7 35.06 0.083 6.51 2.2 13.85
12/31/2016 12:15:00 PM 1.75 35.15 0.083 6.51 2.1 13.82
12/31/2016 12:30:00 PM 1.79 35.222 0.083 6.49 2.2 13.78
12/31/2016 12:45:00 PM 1.87 35.366 0.083 6.51 2.2 13.77
12/31/2016 1:00:00 PM 1.92 35.456 0.083 6.51 2.1 13.74
12/31/2016 1:15:00 PM 1.95 35.51 0.083 6.5 1.9 13.71
12/31/2016 1:30:00 PM 1.96 35.528 0.083 6.52 2.3 13.68
12/31/2016 1:45:00 PM 1.97 35.546 0.083 6.5 2 13.65
12/31/2016 2:00:00 PM 1.97 35.546 0.083 6.5 2.1 13.63
12/31/2016 2:15:00 PM 1.97 35.546 0.083 6.39 2.1 13.6
12/31/2016 2:30:00 PM 1.98 35.564 0.083 6.5 2 13.58
12/31/2016 2:45:00 PM 1.97 35.546 0.083 6.5 2 13.56
12/31/2016 3:00:00 PM 1.99 35.582 0.083 6.52 2 13.57
12/31/2016 3:15:00 PM 2 35.6 0.083 6.48 4.3 13.53
12/31/2016 3:30:00 PM 1.99 35.582 0.083 6.51 1.9 13.51
12/31/2016 3:45:00 PM 1.98 35.564 0.083 6.48 1.9 13.45
12/31/2016 4:00:00 PM 1.99 35.582 0.083 6.48 1.9 13.46
12/31/2016 4:15:00 PM 1.98 35.564 0.083 6.49 1.9 13.44
12/31/2016 4:30:00 PM 1.97 35.546 0.083 6.49 1.9 13.39
12/31/2016 4:45:00 PM 1.96 35.528 0.084 6.46 2.1 13.34
12/31/2016 5:00:00 PM 1.96 35.528 0.084 6.46 1.9 13.3
12/31/2016 5:15:00 PM 1.95 35.51 0.084 6.46 2.1 13.25
12/31/2016 5:30:00 PM 1.95 35.51 0.084 6.46 1.9 13.22
12/31/2016 5:45:00 PM 1.94 35.492 0.084 6.44 2.1 13.2
12/31/2016 6:00:00 PM 1.93 35.474 0.084 6.37 2 13.18
12/31/2016 6:15:00 PM 1.92 35.456 0.084 6.4 1.9 13.16
12/31/2016 6:30:00 PM 1.92 35.456 0.084 6.4 2.1 13.15
12/31/2016 6:45:00 PM 1.91 35.438 0.084 6.4 2 13.15
12/31/2016 7:00:00 PM 1.91 35.438 0.084 6.42 1.9 13.14
12/31/2016 7:15:00 PM 1.9 35.42 0.084 6.42 1.8 13.14
12/31/2016 7:30:00 PM 1.9 35.42 0.084 6.42 2.2 13.13
12/31/2016 7:45:00 PM 1.9 35.42 0.085 6.39 2 13.13
12/31/2016 8:00:00 PM 1.9 35.42 0.085 6.39 2.3 13.14
12/31/2016 8:15:00 PM 1.89 35.402 0.085 6.38 2 13.13
12/31/2016 8:30:00 PM 1.9 35.42 0.086 6.38 2.2 13.14
12/31/2016 8:45:00 PM 1.9 35.42 0.086 6.4 2.3 13.13
12/31/2016 9:00:00 PM 1.91 35.438 0.086 6.41 2.1 13.14
12/31/2016 9:15:00 PM 1.91 35.438 0.086 6.39 1.9 13.12
12/31/2016 9:30:00 PM 1.91 35.438 0.086 6.41 2.2 13.12
12/31/2016 9:45:00 PM 1.92 35.456 0.086 6.31 1.9 13.12
12/31/2016 10:00:00 PM 1.93 35.474 0.086 6.39 2.4 13.1
12/31/2016 10:15:00 PM 1.94 35.492 0.086 6.42 1.8 13.12
12/31/2016 10:30:00 PM 1.95 35.51 0.086 6.4 1.9 13.1
12/31/2016 10:45:00 PM 1.97 35.546 0.086 6.42 1.8 13.11
12/31/2016 11:00:00 PM 1.98 35.564 0.086 6.42 2 13.11
12/31/2016 11:15:00 PM 1.99 35.582 0.086 6.4 2 13.09
12/31/2016 11:30:00 PM 2 35.6 0.086 6.43 2.1 13.09
12/31/2016 11:45:00 PM 2.01 35.618 0.086 6.43 2.1 13.09
1/1/2017 12:00:00 AM 2.02 35.636 0.086 6.43 2.1 13.09
1/1/2017 12:15:00 AM 2.03 35.654 0.086 6.43 2.1 13.07
1/1/2017 12:30:00 AM 2.04 35.672 0.086 6.41 1.7 13.08
1/1/2017 12:45:00 AM 2.05 35.69 0.086 6.43 2.2 13.08
1/1/2017 1:00:00 AM 2.05 35.69 0.086 6.44 2.2 13.09
1/1/2017 1:15:00 AM 2.06 35.708 0.086 6.42 2 13.07
1/1/2017 1:30:00 AM 2.06 35.708 0.086 6.29 2.2 13.06
1/1/2017 1:45:00 AM 2.04 35.672 0.086 6.41 2.1 13.06
1/1/2017 2:00:00 AM 2.02 35.636 0.086 6.41 2.5 13.08
1/1/2017 2:15:00 AM 2.01 35.618 0.086 6.4 2.3 13.06
1/1/2017 2:30:00 AM 2.01 35.618 0.086 6.38 1.7 13.09
1/1/2017 2:45:00 AM 2 35.6 0.086 6.39 2 13.07
1/1/2017 3:00:00 AM 2.02 35.636 0.086 6.39 2.1 13.08
1/1/2017 3:15:00 AM 2.02 35.636 0.086 6.39 2 13.08
1/1/2017 3:30:00 AM 2.02 35.636 0.086 6.4 2.1 13.08
1/1/2017 3:45:00 AM 2.03 35.654 0.086 6.4 1.8 13.09
1/1/2017 4:00:00 AM 2.04 35.672 0.086 6.4 1.9 13.09
1/1/2017 4:15:00 AM 2.03 35.654 0.086 6.4 1.9 13.09
1/1/2017 4:30:00 AM 1.99 35.582 0.086 6.4 1.9 13.11
1/1/2017 4:45:00 AM 1.99 35.582 0.086 6.38 2.1 13.11
1/1/2017 5:00:00 AM 1.98 35.564 0.086 6.4 2.2 13.11
1/1/2017 5:15:00 AM 1.97 35.546 0.086 6.3 2.4 13.12
1/1/2017 5:30:00 AM 1.96 35.528 0.086 6.38 2 13.08
1/1/2017 5:45:00 AM 1.94 35.492 0.086 6.41 2.1 13.09
1/1/2017 6:00:00 AM 1.94 35.492 0.086 6.4 2.2 13.11
1/1/2017 6:15:00 AM 1.93 35.474 0.086 6.42 2.1 13.11
1/1/2017 6:30:00 AM 1.93 35.474 0.086 6.41 2 13.12
1/1/2017 6:45:00 AM 1.9 35.42 0.086 6.42 1.9 13.14
1/1/2017 7:00:00 AM 1.85 35.33 0.086 6.42 2.1 13.16
1/1/2017 7:15:00 AM 1.8 35.24 0.086 6.43 2.5 13.16
1/1/2017 7:30:00 AM 1.76 35.168 0.086 6.45 2.2 13.18
1/1/2017 7:45:00 AM 1.72 35.096 0.086 6.44 2.1 13.22
1/1/2017 8:00:00 AM 1.69 35.042 0.086 6.43 1.9 13.25
1/1/2017 8:15:00 AM 1.67 35.006 0.086 6.45 1.9 13.31
1/1/2017 8:30:00 AM 1.65 34.97 0.086 6.47 2 13.35
1/1/2017 8:45:00 AM 1.66 34.988 0.086 6.48 1.9 13.4
1/1/2017 9:00:00 AM 1.68 35.024 0.086 6.32 2.4 13.49
1/1/2017 9:15:00 AM 1.7 35.06 0.086 6.42 1.9 13.61
1/1/2017 9:30:00 AM 1.74 35.132 0.085 6.46 1.8 13.67
1/1/2017 9:45:00 AM 1.82 35.276 0.085 6.48 1.7 13.7
1/1/2017 10:00:00 AM 1.88 35.384 0.085 6.48 1.8 13.72
1/1/2017 10:15:00 AM 1.94 35.492 0.085 6.48 2.2 13.75
1/1/2017 10:30:00 AM 1.98 35.564 0.085 6.51 2.1 13.74
1/1/2017 10:45:00 AM 2.03 35.654 0.085 6.52 2 13.77
1/1/2017 11:00:00 AM 2.11 35.798 0.085 6.52 2.3 13.76
1/1/2017 11:15:00 AM 2.21 35.978 0.085 6.53 2.9 13.74
1/1/2017 11:30:00 AM 2.29 36.122 0.085 6.53 2.8 13.73
1/1/2017 11:45:00 AM 2.38 36.284 0.085 6.5 3.1 13.74
1/1/2017 12:00:00 PM 2.46 36.428 0.085 6.52 3.3 13.69
1/1/2017 12:15:00 PM 2.53 36.554 0.085 6.5 3.7 13.67
1/1/2017 12:30:00 PM 2.59 36.662 0.085 6.52 3.8 13.66
1/1/2017 12:45:00 PM 2.65 36.77 0.085 6.43 4.2 13.68
1/1/2017 1:00:00 PM 2.69 36.842 0.085 6.54 4.9 13.55
1/1/2017 1:15:00 PM 2.72 36.896 0.085 6.56 5.5 13.52
1/1/2017 1:30:00 PM 2.74 36.932 0.085 6.58 4.7 13.51
1/1/2017 1:45:00 PM 2.75 36.95 0.085 6.58 4.3 13.54
1/1/2017 2:00:00 PM 2.75 36.95 0.085 6.58 3.8 13.51
1/1/2017 2:15:00 PM 2.74 36.932 0.085 6.6 3.1 13.5
1/1/2017 2:30:00 PM 2.72 36.896 0.085 6.58 3.2 13.5
1/1/2017 2:45:00 PM 2.7 36.86 0.085 6.57 2.6 13.5
1/1/2017 3:00:00 PM 2.67 36.806 0.085 6.57 2.9 13.52
1/1/2017 3:15:00 PM 2.63 36.734 0.085 6.58 3 13.52
1/1/2017 3:30:00 PM 2.59 36.662 0.085 6.57 3.2 13.49
1/1/2017 3:45:00 PM 2.54 36.572 0.085 6.57 2.5 13.51
1/1/2017 4:00:00 PM 2.5 36.5 0.085 6.56 2.5 13.5
1/1/2017 4:15:00 PM 2.45 36.41 0.085 6.54 2.8 13.49
1/1/2017 4:30:00 PM 2.4 36.32 0.085 6.38 2.4 13.4
1/1/2017 4:45:00 PM 2.35 36.23 0.085 6.45 2.7 13.36
1/1/2017 5:00:00 PM 2.3 36.14 0.085 6.45 2.4 13.32
1/1/2017 5:15:00 PM 2.24 36.032 0.086 6.45 2.2 13.29
1/1/2017 5:30:00 PM 2.19 35.942 0.086 6.45 2.5 13.28
1/1/2017 5:45:00 PM 2.14 35.852 0.086 6.44 2.5 13.25
1/1/2017 6:00:00 PM 2.08 35.744 0.086 6.45 2.3 13.25
1/1/2017 6:15:00 PM 2.03 35.654 0.086 6.45 2.9 13.26
1/1/2017 6:30:00 PM 1.97 35.546 0.086 6.44 3.2 13.25
1/1/2017 6:45:00 PM 1.91 35.438 0.086 6.44 3.1 13.27
1/1/2017 7:00:00 PM 1.86 35.348 0.086 6.38 3.1 13.28
1/1/2017 7:15:00 PM 1.81 35.258 0.086 6.4 3.6 13.29
1/1/2017 7:30:00 PM 1.76 35.168 0.086 6.37 2.5 13.32
1/1/2017 7:45:00 PM 1.7 35.06 0.086 6.39 2.6 13.34
1/1/2017 8:00:00 PM 1.65 34.97 0.086 6.3 4 13.48
1/1/2017 8:15:00 PM 1.6 34.88 0.086 6.42 2.4 13.44
1/1/2017 8:30:00 PM 1.54 34.772 0.087 6.38 2.1 13.47
1/1/2017 8:45:00 PM 1.49 34.682 0.087 6.4 3.7 13.46
1/1/2017 9:00:00 PM 1.45 34.61 0.087 6.38 2.4 13.46
1/1/2017 9:15:00 PM 1.4 34.52 0.087 6.43 2.1 13.49
1/1/2017 9:30:00 PM 1.35 34.43 0.087 6.4 2.2 13.49
1/1/2017 9:45:00 PM 1.3 34.34 0.087 6.42 2.4 13.5
1/1/2017 10:00:00 PM 1.27 34.286 0.087 6.43 2.4 13.51
1/1/2017 10:15:00 PM 1.22 34.196 0.087 6.43 2 13.55
1/1/2017 10:30:00 PM 1.19 34.142 0.087 6.43 2.4 13.54
1/1/2017 10:45:00 PM 1.15 34.07 0.087 6.43 1.8 13.56
1/1/2017 11:00:00 PM 1.12 34.016 0.087 6.43 3 13.57
1/1/2017 11:15:00 PM 1.09 33.962 0.087 6.44 3.2 13.59
1/1/2017 11:30:00 PM 1.06 33.908 0.087 6.26 1.9 13.54
1/1/2017 11:45:00 PM 1.04 33.872 0.087 6.32 2.2 13.63
1/2/2017 12:00:00 AM 1.01 33.818 0.087 6.39 2.1 13.66
1/2/2017 12:15:00 AM 0.98 33.764 0.087 6.39 2 13.66
1/2/2017 12:30:00 AM 0.94 33.692 0.087 6.35 1.9 13.67
1/2/2017 12:45:00 AM 0.91 33.638 0.087 6.39 2.8 13.68
1/2/2017 1:00:00 AM 0.88 33.584 0.087 6.38 1.7 13.69
1/2/2017 1:15:00 AM 0.85 33.53 0.087 6.39 2.6 13.7
1/2/2017 1:30:00 AM 0.82 33.476 0.087 6.4 1.9 13.71
1/2/2017 1:45:00 AM 0.78 33.404 0.087 6.37 2.1 13.72
1/2/2017 2:00:00 AM 0.75 33.35 0.087 6.4 1.8 13.73
1/2/2017 2:15:00 AM 0.72 33.296 0.087 6.37 2.1 13.75
1/2/2017 2:30:00 AM 0.69 33.242 0.087 6.34 2 13.76
1/2/2017 2:45:00 AM 0.66 33.188 0.087 6.35 2 13.76
1/2/2017 3:00:00 AM 0.64 33.152 0.087 6.34 1.7 13.78
1/2/2017 3:15:00 AM 0.63 33.134 0.087 6.29 1.9 13.79
1/2/2017 3:30:00 AM 0.63 33.134 0.087 6.35 1.9 13.8
1/2/2017 3:45:00 AM 0.61 33.098 0.087 6.38 2 13.8
1/2/2017 4:00:00 AM 0.59 33.062 0.087 6.36 2.6 13.81
1/2/2017 4:15:00 AM 0.56 33.008 0.087 6.34 2.8 13.82
1/2/2017 4:30:00 AM 0.55 32.99 0.087 6.36 1.8 13.83
1/2/2017 4:45:00 AM 0.54 32.972 0.087 6.34 1.7 13.83
1/2/2017 5:00:00 AM 0.52 32.936 0.087 6.37 2.4 13.84
1/2/2017 5:15:00 AM 0.53 32.954 0.087 6.36 1.5 13.84
1/2/2017 5:30:00 AM 0.51 32.918 0.087 6.34 1.7 13.85
1/2/2017 5:45:00 AM 0.52 32.936 0.088 6.36 1.5 13.85
1/2/2017 6:00:00 AM 0.53 32.954 0.088 6.36 1.8 13.86
1/2/2017 6:15:00 AM 0.53 32.954 0.088 6.34 1.8 13.86
1/2/2017 6:30:00 AM 0.55 32.99 0.088 6.34 1.8 13.85
1/2/2017 6:45:00 AM 0.57 33.026 0.088 6.34 1.8 13.86
1/2/2017 7:00:00 AM 0.6 33.08 0.088 6.26 2.3 13.89
1/2/2017 7:15:00 AM 0.63 33.134 0.088 6.34 2.2 13.86
1/2/2017 7:30:00 AM 0.67 33.206 0.088 6.36 2.2 13.85
1/2/2017 7:45:00 AM 0.71 33.278 0.088 6.37 1.9 13.84
1/2/2017 8:00:00 AM 0.76 33.368 0.088 6.37 1.7 13.84
1/2/2017 8:15:00 AM 0.81 33.458 0.088 6.4 1.5 13.84
1/2/2017 8:30:00 AM 0.86 33.548 0.088 6.39 1.7 13.85
1/2/2017 8:45:00 AM 0.93 33.674 0.088 6.41 2.2 13.87
1/2/2017 9:00:00 AM 0.99 33.782 0.088 6.41 1.7 13.88
1/2/2017 9:15:00 AM 1.06 33.908 0.088 6.41 1.7 13.9
1/2/2017 9:30:00 AM 1.12 34.016 0.088 6.45 1.6 13.93
1/2/2017 9:45:00 AM 1.17 34.106 0.087 6.45 1.7 13.96
1/2/2017 10:00:00 AM 1.22 34.196 0.087 6.44 1.7 13.96
1/2/2017 10:15:00 AM 1.29 34.322 0.087 6.45 1.4 14
1/2/2017 10:30:00 AM 1.36 34.448 0.087 6.48 1.9 14
1/2/2017 10:45:00 AM 1.45 34.61 0.087 6.44 1.6 14.03
1/2/2017 11:00:00 AM 1.52 34.736 0.087 6.48 1.8 14.04
1/2/2017 11:15:00 AM 1.62 34.916 0.087 6.51 1.6 14.03
1/2/2017 11:30:00 AM 1.71 35.078 0.087 6.53 1.5 14.03
1/2/2017 11:45:00 AM 1.77 35.186 0.087 6.54 1.5 14.01
1/2/2017 12:00:00 PM 1.84 35.312 0.087 6.54 1.5 13.99
1/2/2017 12:15:00 PM 1.9 35.42 0.087 6.54 1.5 13.97
1/2/2017 12:30:00 PM 1.97 35.546 0.087 6.53 1.7 13.98
1/2/2017 12:45:00 PM 2.05 35.69 0.087 6.53 1.7 13.94
1/2/2017 1:00:00 PM 2.12 35.816 0.087 6.56 1.9 13.93
1/2/2017 1:15:00 PM 2.16 35.888 0.087 6.55 1.8 13.9
1/2/2017 1:30:00 PM 2.2 35.96 0.087 6.55 1.7 13.88
1/2/2017 1:45:00 PM 2.23 36.014 0.087 6.54 1.8 13.83
1/2/2017 2:00:00 PM 2.25 36.05 0.087 6.56 1.6 13.81
1/2/2017 2:15:00 PM 2.27 36.086 0.087 6.55 1.5 13.78
1/2/2017 2:30:00 PM 2.29 36.122 0.087 6.5 1.6 13.75
1/2/2017 2:45:00 PM 2.3 36.14 0.087 6.54 1.9 13.73
1/2/2017 3:00:00 PM 2.31 36.158 0.087 6.53 1.6 13.68
1/2/2017 3:15:00 PM 2.32 36.176 0.087 6.52 1.6 13.63
1/2/2017 3:30:00 PM 2.32 36.176 0.087 6.54 1.6 13.58
1/2/2017 3:45:00 PM 2.33 36.194 0.087 6.53 1.8 13.54
1/2/2017 4:00:00 PM 2.34 36.212 0.087 6.5 1.6 13.51
1/2/2017 4:15:00 PM 2.35 36.23 0.087 6.49 1.8 13.47
1/2/2017 4:30:00 PM 2.35 36.23 0.087 6.48 1.7 13.43
1/2/2017 4:45:00 PM 2.36 36.248 0.087 6.5 1.8 13.39
1/2/2017 5:00:00 PM 2.36 36.248 0.087 6.49 1.7 13.35
1/2/2017 5:15:00 PM 2.37 36.266 0.087 6.49 1.5 13.32
1/2/2017 5:30:00 PM 2.37 36.266 0.087 6.46 1.7 13.3
1/2/2017 5:45:00 PM 2.37 36.266 0.087 6.44 1.8 13.28
1/2/2017 6:00:00 PM 2.37 36.266 0.087 6.39 1.7 13.26
1/2/2017 6:15:00 PM 2.37 36.266 0.087 6.43 1.9 13.24
1/2/2017 6:30:00 PM 2.37 36.266 0.087 6.44 1.8 13.22
1/2/2017 6:45:00 PM 2.37 36.266 0.087 6.45 1.6 13.23
1/2/2017 7:00:00 PM 2.37 36.266 0.087 6.43 2 13.2
1/2/2017 7:15:00 PM 2.37 36.266 0.087 6.43 1.9 13.2
1/2/2017 7:30:00 PM 2.37 36.266 0.087 6.43 1.6 13.19
1/2/2017 7:45:00 PM 2.37 36.266 0.087 6.45 1.7 13.21
1/2/2017 8:00:00 PM 2.37 36.266 0.087 6.45 1.9 13.19
1/2/2017 8:15:00 PM 2.37 36.266 0.087 6.43 2 13.19
1/2/2017 8:30:00 PM 2.37 36.266 0.087 6.44 1.6 13.18
1/2/2017 8:45:00 PM 2.37 36.266 0.087 6.45 1.8 13.19
1/2/2017 9:00:00 PM 2.36 36.248 0.088 6.45 1.7 13.16
1/2/2017 9:15:00 PM 2.36 36.248 0.088 6.43 1.8 13.18
1/2/2017 9:30:00 PM 2.36 36.248 0.088 6.43 1.8 13.17
1/2/2017 9:45:00 PM 2.36 36.248 0.088 6.29 1.7 13.15
1/2/2017 10:00:00 PM 2.36 36.248 0.088 6.39 1.5 13.14
1/2/2017 10:15:00 PM 2.36 36.248 0.088 6.41 1.8 13.15
1/2/2017 10:30:00 PM 2.36 36.248 0.088 6.41 2 13.12
1/2/2017 10:45:00 PM 2.36 36.248 0.088 6.4 1.5 13.13
1/2/2017 11:00:00 PM 2.36 36.248 0.088 6.39 1.8 13.13
1/2/2017 11:15:00 PM 2.36 36.248 0.088 6.39 1.8 13.13
1/2/2017 11:30:00 PM 2.35 36.23 0.088 6.39 1.7 13.13
1/2/2017 11:45:00 PM 2.36 36.248 0.088 6.39 1.5 13.12
1/3/2017 12:00:00 AM 2.36 36.248 0.088 6.39 1.6 13.12
1/3/2017 12:15:00 AM 2.36 36.248 0.088 6.39 1.7 13.12
1/3/2017 12:30:00 AM 2.36 36.248 0.088 6.39 2 13.12
1/3/2017 12:45:00 AM 2.36 36.248 0.088 6.39 2.4 13.11
1/3/2017 1:00:00 AM 2.36 36.248 0.088 6.42 1.8 13.11
1/3/2017 1:15:00 AM 2.36 36.248 0.088 6.4 2.5 13.11
1/3/2017 1:30:00 AM 2.37 36.266 0.088 6.32 2 13.11
1/3/2017 1:45:00 AM 2.37 36.266 0.088 6.39 1.7 13.1
1/3/2017 2:00:00 AM 2.37 36.266 0.088 6.43 2 13.12
1/3/2017 2:15:00 AM 2.37 36.266 0.088 6.45 1.8 13.13
1/3/2017 2:30:00 AM 2.38 36.284 0.088 6.42 1.7 13.09
1/3/2017 2:45:00 AM 2.38 36.284 0.088 6.45 2.1 13.1
1/3/2017 3:00:00 AM 2.38 36.284 0.088 6.42 1.8 13.09
1/3/2017 3:15:00 AM 2.39 36.302 0.088 6.42 2.1 13.1
1/3/2017 3:30:00 AM 2.39 36.302 0.088 6.44 2 13.1
1/3/2017 3:45:00 AM 2.4 36.32 0.088 6.43 1.7 13.09
1/3/2017 4:00:00 AM 2.4 36.32 0.088 6.43 2.2 13.08
1/3/2017 4:15:00 AM 2.41 36.338 0.088 6.42 1.9 13.06
1/3/2017 4:30:00 AM 2.41 36.338 0.088 6.42 1.9 13.07
1/3/2017 4:45:00 AM 2.42 36.356 0.088 6.42 1.8 13.06
1/3/2017 5:00:00 AM 2.42 36.356 0.088 6.45 1.8 13.07
1/3/2017 5:15:00 AM 2.43 36.374 0.088 6.28 1.8 13.05
1/3/2017 5:30:00 AM 2.43 36.374 0.088 6.39 1.9 13.03
1/3/2017 5:45:00 AM 2.44 36.392 0.088 6.4 1.7 13.04
1/3/2017 6:00:00 AM 2.44 36.392 0.088 6.42 1.9 13.04
1/3/2017 6:15:00 AM 2.45 36.41 0.088 6.41 2 13.02
1/3/2017 6:30:00 AM 2.45 36.41 0.088 6.42 1.9 13.01
1/3/2017 6:45:00 AM 2.46 36.428 0.088 6.42 2.3 13.03
1/3/2017 7:00:00 AM 2.46 36.428 0.088 6.43 1.7 13.03
1/3/2017 7:15:00 AM 2.47 36.446 0.088 6.39 2 13.01
1/3/2017 7:30:00 AM 2.48 36.464 0.088 6.42 1.8 13
1/3/2017 7:45:00 AM 2.48 36.464 0.088 6.41 2.2 12.99
1/3/2017 8:00:00 AM 2.49 36.482 0.088 6.43 2 13
1/3/2017 8:15:00 AM 2.51 36.518 0.088 6.42 2.6 13.01
1/3/2017 8:30:00 AM 2.52 36.536 0.088 6.41 2.4 13.05
1/3/2017 8:45:00 AM 2.54 36.572 0.088 6.42 2.2 13.06
1/3/2017 9:00:00 AM 2.56 36.608 0.088 6.31 2.2 13.11
1/3/2017 9:15:00 AM 2.58 36.644 0.088 6.43 2.1 13.13
1/3/2017 9:30:00 AM 2.61 36.698 0.088 6.44 2.2 13.16
1/3/2017 9:45:00 AM 2.64 36.752 0.088 6.45 2 13.21
1/3/2017 10:00:00 AM 2.67 36.806 0.088 6.46 2.1 13.24
1/3/2017 10:15:00 AM 2.71 36.878 0.088 6.49 2.5 13.27
1/3/2017 10:30:00 AM 2.74 36.932 0.088 6.49 2.3 13.3
1/3/2017 10:45:00 AM 2.78 37.004 0.088 6.5 2 13.31
1/3/2017 11:00:00 AM 2.81 37.058 0.088 6.52 2.3 13.33
1/3/2017 11:15:00 AM 2.85 37.13 0.088 6.51 2.3 13.32
1/3/2017 11:30:00 AM 2.89 37.202 0.088 6.54 2.4 13.34
1/3/2017 11:45:00 AM 2.92 37.256 0.088 6.54 2.8 13.32
1/3/2017 12:00:00 PM 2.95 37.31 0.088 6.52 2.4 13.32
1/3/2017 12:15:00 PM 2.97 37.346 0.087 6.56 2.6 13.3
1/3/2017 12:30:00 PM 3 37.4 0.087 6.55 3 13.29
1/3/2017 12:45:00 PM 3.02 37.436 0.087 6.41 3 13.28
1/3/2017 1:00:00 PM 3.03 37.454 0.087 6.5 3.1 13.27
1/3/2017 1:15:00 PM 3.04 37.472 0.087 6.51 3.4 13.24
1/3/2017 1:30:00 PM 3.05 37.49 0.087 6.54 5.3 13.23
1/3/2017 1:45:00 PM 3.06 37.508 0.087 6.55 6.2 13.19
1/3/2017 2:00:00 PM 3.07 37.526 0.087 6.55 7.6 13.18
1/3/2017 2:15:00 PM 3.08 37.544 0.087 6.54 10.1 13.13
1/3/2017 2:30:00 PM 3.08 37.544 0.086 6.54 12.5 13.11
1/3/2017 2:45:00 PM 3.09 37.562 0.086 6.53 16.3 13.08
1/3/2017 3:00:00 PM 3.09 37.562 0.087 6.54 22.5 13.05
1/3/2017 3:15:00 PM 3.08 37.544 0.087 6.52 27.6 13
1/3/2017 3:30:00 PM 3.07 37.526 0.087 6.53 28.3 12.99
1/3/2017 3:45:00 PM 3.07 37.526 0.087 6.51 34.2 12.95
1/3/2017 4:00:00 PM 3.06 37.508 0.088 6.52 54.2 12.92
1/3/2017 4:15:00 PM 3.04 37.472 0.09 6.54 68.6 12.88
1/3/2017 4:30:00 PM 3.02 37.436 0.092 6.48 86 12.83
1/3/2017 4:45:00 PM 2.97 37.346 0.094 6.55 88.1 12.82
1/3/2017 5:00:00 PM 2.9 37.22 0.094 6.54 92.5 12.84
1/3/2017 5:15:00 PM 2.8 37.04 0.092 6.56 102 12.87
1/3/2017 5:30:00 PM 2.7 36.86 0.09 6.53 109.6 12.89
1/3/2017 5:45:00 PM 2.55 36.59 0.089 6.54 121.1 12.96
1/3/2017 6:00:00 PM 2.41 36.338 0.089 6.52 165.3 13.03
1/3/2017 6:15:00 PM 2.33 36.194 0.089 6.55 128.2 13.07
1/3/2017 6:30:00 PM 2.31 36.158 0.091 6.52 120.5 13.08
1/3/2017 6:45:00 PM 2.32 36.176 0.092 6.53 177.5 13.08
1/3/2017 7:00:00 PM 2.33 36.194 0.094 6.51 135.4 13.06
1/3/2017 7:15:00 PM 2.34 36.212 0.095 6.51 98.1 13.05
1/3/2017 7:30:00 PM 2.33 36.194 0.094 6.51 93.5 13.05
1/3/2017 7:45:00 PM 2.33 36.194 0.093 6.5 99.4 13.04
1/3/2017 8:00:00 PM 2.32 36.176 0.092 6.5 98.1 13.03
1/3/2017 8:15:00 PM 2.32 36.176 0.091 6.37 88.2 13.03
1/3/2017 8:30:00 PM 2.32 36.176 0.09 6.47 75.3 13.03
1/3/2017 8:45:00 PM 2.32 36.176 0.089 6.49 69.2 13.04
1/3/2017 9:00:00 PM 2.33 36.194 0.089 6.46 66 13.02
1/3/2017 9:15:00 PM 2.34 36.212 0.088 6.49 51.9 13.03
1/3/2017 9:30:00 PM 2.34 36.212 0.087 6.48 59.1 13
1/3/2017 9:45:00 PM 2.35 36.23 0.086 6.47 50.3 12.99
1/3/2017 10:00:00 PM 2.36 36.248 0.086 6.46 61.4 12.98
1/3/2017 10:15:00 PM 2.37 36.266 0.085 6.45 50.4 12.98
1/3/2017 10:30:00 PM 2.38 36.284 0.084 6.46 42.2 12.97
1/3/2017 10:45:00 PM 2.39 36.302 0.084 6.47 48.2 12.95
1/3/2017 11:00:00 PM 2.4 36.32 0.084 6.46 43 12.95
1/3/2017 11:15:00 PM 2.41 36.338 0.084 6.46 37.2 12.95
1/3/2017 11:30:00 PM 2.42 36.356 0.083 6.44 35.6 12.94
1/3/2017 11:45:00 PM 2.43 36.374 0.083 6.46 37.6 12.95
1/4/2017 12:00:00 AM 2.44 36.392 0.082 6.33 32.4 12.93
1/4/2017 12:15:00 AM 2.44 36.392 0.082 6.41 37.7 12.95
1/4/2017 12:30:00 AM 2.45 36.41 0.082 6.43 40.2 12.94
1/4/2017 12:45:00 AM 2.46 36.428 0.082 6.43 40.4 12.93
1/4/2017 1:00:00 AM 2.48 36.464 0.082 6.43 38 12.92
1/4/2017 1:15:00 AM 2.49 36.482 0.082 6.43 35.6 12.92
1/4/2017 1:30:00 AM 2.5 36.5 0.082 6.42 33.7 12.9
1/4/2017 1:45:00 AM 2.51 36.518 0.082 6.42 32.6 12.92
1/4/2017 2:00:00 AM 2.52 36.536 0.082 6.44 31.6 12.89
1/4/2017 2:15:00 AM 2.53 36.554 0.082 6.44 29.4 12.88
1/4/2017 2:30:00 AM 2.55 36.59 0.082 6.45 25.5 12.89
1/4/2017 2:45:00 AM 2.56 36.608 0.082 6.45 25.6 12.88
1/4/2017 3:00:00 AM 2.57 36.626 0.081 6.44 23.5 12.88
1/4/2017 3:15:00 AM 2.58 36.644 0.081 6.43 25.9 12.86
1/4/2017 3:30:00 AM 2.59 36.662 0.081 6.43 29.4 12.86
1/4/2017 3:45:00 AM 2.6 36.68 0.081 6.31 26.6 12.85
1/4/2017 4:00:00 AM 2.61 36.698 0.081 6.37 24.9 12.85
1/4/2017 4:15:00 AM 2.62 36.716 0.08 6.42 25.7 12.85
1/4/2017 4:30:00 AM 2.63 36.734 0.08 6.42 26.5 12.83
1/4/2017 4:45:00 AM 2.64 36.752 0.08 6.41 21.9 12.83
1/4/2017 5:00:00 AM 2.65 36.77 0.08 6.4 24.6 12.82
1/4/2017 5:15:00 AM 2.66 36.788 0.08 6.4 19.9 12.81
1/4/2017 5:30:00 AM 2.67 36.806 0.08 6.43 19.9 12.81
1/4/2017 5:45:00 AM 2.68 36.824 0.08 6.42 23.3 12.8
1/4/2017 6:00:00 AM 2.69 36.842 0.08 6.42 21.4 12.81
1/4/2017 6:15:00 AM 2.7 36.86 0.08 6.4 28 12.8
1/4/2017 6:30:00 AM 2.71 36.878 0.08 6.41 21.8 12.81
1/4/2017 6:45:00 AM 2.72 36.896 0.08 6.4 19.6 12.79
1/4/2017 7:00:00 AM 2.73 36.914 0.079 6.4 20.2 12.78
1/4/2017 7:15:00 AM 2.74 36.932 0.079 6.39 19.2 12.79
1/4/2017 7:30:00 AM 2.75 36.95 0.079 6.35 19.6 12.79
1/4/2017 7:45:00 AM 2.76 36.968 0.079 6.38 18 12.8
1/4/2017 8:00:00 AM 2.78 37.004 0.079 6.41 17.8 12.78
1/4/2017 8:15:00 AM 2.79 37.022 0.079 6.41 20.1 12.79
1/4/2017 8:30:00 AM 2.81 37.058 0.079 6.39 18.6 12.8
1/4/2017 8:45:00 AM 2.83 37.094 0.079 6.39 16.5 12.8
1/4/2017 9:00:00 AM 2.85 37.13 0.079 6.39 16.2 12.8
1/4/2017 9:15:00 AM 2.87 37.166 0.079 6.42 16.9 12.81
1/4/2017 9:30:00 AM 2.89 37.202 0.079 6.42 15.9 12.8
1/4/2017 9:45:00 AM 2.9 37.22 0.079 6.42 14.1 12.81
1/4/2017 10:00:00 AM 2.92 37.256 0.079 6.44 15.1 12.83
1/4/2017 10:15:00 AM 2.96 37.328 0.079 6.43 13.3 12.85
1/4/2017 10:30:00 AM 3 37.4 0.079 6.42 15.3 12.87
1/4/2017 10:45:00 AM 3.04 37.472 0.079 6.44 13.1 12.87
1/4/2017 11:00:00 AM 3.07 37.526 0.079 6.45 15.1 12.9
1/4/2017 11:15:00 AM 3.12 37.616 0.079 6.32 16.2 12.89
1/4/2017 11:30:00 AM 3.18 37.724 0.079 6.4 14.3 12.9
1/4/2017 11:45:00 AM 3.25 37.85 0.079 6.43 13.9 12.91
1/4/2017 12:00:00 PM 3.36 38.048 0.079 6.47 13.4 12.92
1/4/2017 12:15:00 PM 3.36 38.048 0.079 6.48 13.6 12.9
1/4/2017 12:30:00 PM 3.35 38.03 0.079 6.48 15.8 12.9
1/4/2017 12:45:00 PM 3.38 38.084 0.079 6.49 14.8 12.9
1/4/2017 1:00:00 PM 3.39 38.102 0.079 6.47 15 12.9
1/4/2017 1:15:00 PM 3.44 38.192 0.079 6.48 22.9 12.89
1/4/2017 1:30:00 PM 3.46 38.228 0.079 6.48 18.3 12.91
1/4/2017 1:45:00 PM 3.45 38.21 0.079 6.5 21.3 12.89
1/4/2017 2:00:00 PM 3.47 38.246 0.079 6.49 15 12.89
1/4/2017 2:15:00 PM 3.5 38.3 0.079 6.5 14.4 12.86
1/4/2017 2:30:00 PM 3.51 38.318 0.079 6.5 14.8 12.85
1/4/2017 2:45:00 PM 3.48 38.264 0.079 6.5 15.3 12.86
1/4/2017 3:00:00 PM 3.45 38.21 0.079 6.37 16.9 12.83
1/4/2017 3:15:00 PM 3.41 38.138 0.079 6.47 17.3 12.81
1/4/2017 3:30:00 PM 3.35 38.03 0.079 6.5 15.1 12.81
1/4/2017 3:45:00 PM 3.29 37.922 0.079 6.48 17.1 12.82
1/4/2017 4:00:00 PM 3.22 37.796 0.079 6.5 12.9 12.83
1/4/2017 4:15:00 PM 3.14 37.652 0.079 6.49 11.4 12.85
1/4/2017 4:30:00 PM 3.05 37.49 0.079 6.47 14.9 12.84
1/4/2017 4:45:00 PM 2.97 37.346 0.079 6.48 13.3 12.84
1/4/2017 5:00:00 PM 2.89 37.202 0.079 6.45 12.9 12.82
1/4/2017 5:15:00 PM 2.79 37.022 0.079 6.45 12.5 12.82
1/4/2017 5:30:00 PM 2.7 36.86 0.079 6.42 13 12.83
1/4/2017 5:45:00 PM 2.61 36.698 0.079 6.43 12.2 12.84
1/4/2017 6:00:00 PM 2.53 36.554 0.079 6.41 11.2 12.86
1/4/2017 6:15:00 PM 2.44 36.392 0.079 6.4 10.8 12.89
1/4/2017 6:30:00 PM 2.35 36.23 0.079 6.39 9.3 12.91
1/4/2017 6:45:00 PM 2.24 36.032 0.079 6.27 10.7 12.93
1/4/2017 7:00:00 PM 2.16 35.888 0.079 6.33 9.1 12.96
1/4/2017 7:15:00 PM 2.06 35.708 0.079 6.34 11.1 12.99
1/4/2017 7:30:00 PM 1.98 35.564 0.079 6.35 9.5 13.03
1/4/2017 7:45:00 PM 1.93 35.474 0.079 6.36 8.6 13.06
1/4/2017 8:00:00 PM 1.86 35.348 0.079 6.34 10 13.09
1/4/2017 8:15:00 PM 1.8 35.24 0.079 6.33 9.3 13.1
1/4/2017 8:30:00 PM 1.73 35.114 0.079 6.35 9.2 13.13
1/4/2017 8:45:00 PM 1.67 35.006 0.079 6.34 8.1 13.17
1/4/2017 9:00:00 PM 1.6 34.88 0.079 6.33 9.7 13.18
1/4/2017 9:15:00 PM 1.54 34.772 0.079 6.34 8.8 13.22
1/4/2017 9:30:00 PM 1.48 34.664 0.079 6.33 7.9 13.23
1/4/2017 9:45:00 PM 1.42 34.556 0.079 6.35 8.8 13.27
1/4/2017 10:00:00 PM 1.37 34.466 0.079 6.34 8.8 13.27
1/4/2017 10:15:00 PM 1.32 34.376 0.079 6.34 8.1 13.31
1/4/2017 10:30:00 PM 1.26 34.268 0.079 6.23 8.2 13.33
1/4/2017 10:45:00 PM 1.21 34.178 0.079 6.3 7.6 13.35
1/4/2017 11:00:00 PM 1.16 34.088 0.079 6.31 7.2 13.4
1/4/2017 11:15:00 PM 1.14 34.052 0.079 6.32 7.8 13.39
1/4/2017 11:30:00 PM 1.1 33.98 0.079 6.33 7.4 13.39
1/4/2017 11:45:00 PM 1.07 33.926 0.079 6.32 7.2 13.42
1/5/2017 12:00:00 AM 1.04 33.872 0.079 6.32 7.9 13.43
1/5/2017 12:15:00 AM 1 33.8 0.079 6.35 6.7 13.44
1/5/2017 12:30:00 AM 0.98 33.764 0.079 6.32 7.1 13.45
1/5/2017 12:45:00 AM 0.95 33.71 0.079 6.34 7.9 13.46
1/5/2017 1:00:00 AM 0.92 33.656 0.079 6.32 6.9 13.48
1/5/2017 1:15:00 AM 0.88 33.584 0.079 6.34 6.2 13.51
1/5/2017 1:30:00 AM 0.84 33.512 0.079 6.34 6.7 13.49
1/5/2017 1:45:00 AM 0.8 33.44 0.079 6.35 6.4 13.51
1/5/2017 2:00:00 AM 0.78 33.404 0.079 6.31 6.9 13.52
1/5/2017 2:15:00 AM 0.76 33.368 0.079 6.2 6.5 13.52
1/5/2017 2:30:00 AM 0.71 33.278 0.079 6.27 6.7 13.54
1/5/2017 2:45:00 AM 0.66 33.188 0.079 6.3 7 13.56
1/5/2017 3:00:00 AM 0.62 33.116 0.079 6.32 6.6 13.58
1/5/2017 3:15:00 AM 0.57 33.026 0.079 6.31 6.1 13.59
1/5/2017 3:30:00 AM 0.53 32.954 0.079 6.31 5.2 13.61
1/5/2017 3:45:00 AM 0.49 32.882 0.079 6.32 5.7 13.63
1/5/2017 4:00:00 AM 0.46 32.828 0.079 6.31 6.1 13.65
1/5/2017 4:15:00 AM 0.43 32.774 0.079 6.29 6.3 13.65
1/5/2017 4:30:00 AM 0.42 32.756 0.079 6.31 5.2 13.67
1/5/2017 4:45:00 AM 0.41 32.738 0.079 6.31 5.8 13.68
1/5/2017 5:00:00 AM 0.4 32.72 0.079 6.33 6 13.69
1/5/2017 5:15:00 AM 0.38 32.684 0.079 6.31 5.6 13.7
1/5/2017 5:30:00 AM 0.39 32.702 0.079 6.33 6.2 13.7
1/5/2017 5:45:00 AM 0.39 32.702 0.079 6.34 5.4 13.71
1/5/2017 6:00:00 AM 0.38 32.684 0.079 6.22 5.3 13.72
1/5/2017 6:15:00 AM 0.35 32.63 0.079 6.29 5.5 13.72
1/5/2017 6:30:00 AM 0.31 32.558 0.079 6.31 5.5 13.74
1/5/2017 6:45:00 AM 0.27 32.486 0.079 6.34 5.1 13.75
1/5/2017 7:00:00 AM 0.24 32.432 0.079 6.32 5.6 13.76
1/5/2017 7:15:00 AM 0.21 32.378 0.079 6.33 4.4 13.79
1/5/2017 7:30:00 AM 0.21 32.378 0.079 6.32 5.4 13.78
1/5/2017 7:45:00 AM 0.21 32.378 0.079 6.32 5.4 13.8
1/5/2017 8:00:00 AM 0.22 32.396 0.079 6.33 5.6 13.82
1/5/2017 8:15:00 AM 0.22 32.396 0.079 6.32 4.6 13.84
1/5/2017 8:30:00 AM 0.23 32.414 0.079 6.35 4.3 13.88
1/5/2017 8:45:00 AM 0.24 32.432 0.079 6.33 4.2 13.92
1/5/2017 9:00:00 AM 0.26 32.468 0.079 6.35 4.3 13.96
1/5/2017 9:15:00 AM 0.28 32.504 0.079 6.35 5.1 13.99
1/5/2017 9:30:00 AM 0.34 32.612 0.079 6.35 4.6 14.02
1/5/2017 9:45:00 AM 0.39 32.702 0.079 6.26 4.7 14.03
1/5/2017 10:00:00 AM 0.44 32.792 0.079 6.33 4.6 14.06
1/5/2017 10:15:00 AM 0.51 32.918 0.079 6.37 4.3 14.08
1/5/2017 10:30:00 AM 0.57 33.026 0.079 6.38 3.8 14.08
1/5/2017 10:45:00 AM 0.63 33.134 0.079 6.41 4.7 14.07
1/5/2017 11:00:00 AM 0.67 33.206 0.079 6.43 4 14.08
1/5/2017 11:15:00 AM 0.73 33.314 0.079 6.42 3.6 14.07
1/5/2017 11:30:00 AM 0.8 33.44 0.079 6.45 4.1 14.06
1/5/2017 11:45:00 AM 0.84 33.512 0.079 6.42 4.1 14.05
1/5/2017 12:00:00 PM 0.88 33.584 0.079 6.43 4 14.05
1/5/2017 12:15:00 PM 0.94 33.692 0.079 6.43 4 14.02
1/5/2017 12:30:00 PM 1 33.8 0.079 6.46 4.2 14.01
1/5/2017 12:45:00 PM 1.01 33.818 0.079 6.44 3.9 13.98
1/5/2017 1:00:00 PM 1.05 33.89 0.079 6.44 5 13.97
1/5/2017 1:15:00 PM 1.05 33.89 0.079 6.46 4.1 13.97
1/5/2017 1:30:00 PM 1.05 33.89 0.079 6.35 4.4 13.94
1/5/2017 1:45:00 PM 1.04 33.872 0.079 6.42 4.1 13.95
1/5/2017 2:00:00 PM 1.07 33.926 0.079 6.46 3.6 13.94
1/5/2017 2:15:00 PM 1.11 33.998 0.079 6.47 3.9 13.92
1/5/2017 2:30:00 PM 1.12 34.016 0.079 6.48 4.6 13.91
1/5/2017 2:45:00 PM 1.1 33.98 0.079 6.45 4.8 13.91
1/5/2017 3:00:00 PM 1.09 33.962 0.079 6.46 4 13.89
1/5/2017 3:15:00 PM 1.1 33.98 0.079 6.47 4.1 13.89
1/5/2017 3:30:00 PM 1.1 33.98 0.079 6.45 3.7 13.88
1/5/2017 3:45:00 PM 1.1 33.98 0.079 6.46 3.6 13.86
1/5/2017 4:00:00 PM 1.09 33.962 0.079 6.47 5.3 13.85
1/5/2017 4:15:00 PM 1.07 33.926 0.079 6.45 3.6 13.81
1/5/2017 4:30:00 PM 1.04 33.872 0.079 6.44 3.5 13.78
1/5/2017 4:45:00 PM 1.03 33.854 0.08 6.46 3.7 13.72
1/5/2017 5:00:00 PM 1.01 33.818 0.08 6.44 6 13.67
1/5/2017 5:15:00 PM 0.99 33.782 0.08 6.31 4.2 13.64
1/5/2017 5:30:00 PM 0.97 33.746 0.08 6.36 3.4 13.62
1/5/2017 5:45:00 PM 0.95 33.71 0.08 6.39 3.4 13.61
1/5/2017 6:00:00 PM 0.92 33.656 0.08 6.4 3.8 13.59
1/5/2017 6:15:00 PM 0.9 33.62 0.08 6.38 3.7 13.58
1/5/2017 6:30:00 PM 0.88 33.584 0.08 6.39 3.4 13.58
1/5/2017 6:45:00 PM 0.85 33.53 0.08 6.39 3.7 13.58
1/5/2017 7:00:00 PM 0.83 33.494 0.08 6.39 3.5 13.59
1/5/2017 7:15:00 PM 0.81 33.458 0.08 6.37 3.7 13.59
1/5/2017 7:30:00 PM 0.79 33.422 0.08 6.38 3.3 13.61
1/5/2017 7:45:00 PM 0.77 33.386 0.08 6.38 4.2 13.6
1/5/2017 8:00:00 PM 0.75 33.35 0.08 6.37 3.7 13.61
1/5/2017 8:15:00 PM 0.73 33.314 0.08 6.36 3.7 13.62
1/5/2017 8:30:00 PM 0.72 33.296 0.08 6.38 3.4 13.62
1/5/2017 8:45:00 PM 0.71 33.278 0.08 6.35 4.2 13.63
1/5/2017 9:00:00 PM 0.7 33.26 0.08 6.25 3.8 13.62
1/5/2017 9:15:00 PM 0.68 33.224 0.08 6.34 3.6 13.64
1/5/2017 9:30:00 PM 0.66 33.188 0.08 6.36 4.2 13.65
1/5/2017 9:45:00 PM 0.64 33.152 0.08 6.36 3.7 13.65
1/5/2017 10:00:00 PM 0.63 33.134 0.08 6.34 3.2 13.66
1/5/2017 10:15:00 PM 0.62 33.116 0.08 6.34 3.4 13.67
1/5/2017 10:30:00 PM 0.6 33.08 0.08 6.34 3.6 13.67
1/5/2017 10:45:00 PM 0.58 33.044 0.08 6.34 3.2 13.67
1/5/2017 11:00:00 PM 0.57 33.026 0.08 6.34 3.3 13.69
1/5/2017 11:15:00 PM 0.56 33.008 0.08 6.34 3.5 13.68
1/5/2017 11:30:00 PM 0.55 32.99 0.08 6.35 2.9 13.69
1/5/2017 11:45:00 PM 0.54 32.972 0.08 6.34 3.5 13.7
1/6/2017 12:00:00 AM 0.53 32.954 0.08 6.33 3.3 13.7
1/6/2017 12:15:00 AM 0.51 32.918 0.08 6.35 3 13.7
1/6/2017 12:30:00 AM 0.5 32.9 0.08 6.36 3 13.7
1/6/2017 12:45:00 AM 0.49 32.882 0.08 6.23 3.3 13.7
1/6/2017 1:00:00 AM 0.47 32.846 0.08 6.3 3.2 13.71
1/6/2017 1:15:00 AM 0.45 32.81 0.08 6.34 3.4 13.73
1/6/2017 1:30:00 AM 0.43 32.774 0.08 6.35 3.3 13.73
1/6/2017 1:45:00 AM 0.4 32.72 0.08 6.35 2.9 13.73
1/6/2017 2:00:00 AM 0.39 32.702 0.08 6.34 3.1 13.74
1/6/2017 2:15:00 AM 0.37 32.666 0.08 6.34 3 13.75
1/6/2017 2:30:00 AM 0.36 32.648 0.08 6.35 3.4 13.75
1/6/2017 2:45:00 AM 0.35 32.63 0.08 6.34 3.3 13.76
1/6/2017 3:00:00 AM 0.34 32.612 0.08 6.33 3.1 13.78
1/6/2017 3:15:00 AM 0.31 32.558 0.08 6.33 4.3 13.78
1/6/2017 3:30:00 AM 0.28 32.504 0.08 6.33 2.7 13.79
1/6/2017 3:45:00 AM 0.25 32.45 0.08 6.34 2.6 13.79
1/6/2017 4:00:00 AM 0.24 32.432 0.08 6.33 2.6 13.81
1/6/2017 4:15:00 AM 0.23 32.414 0.08 6.35 2.7 13.8
1/6/2017 4:30:00 AM 0.2 32.36 0.08 6.24 2.9 13.79
1/6/2017 4:45:00 AM 0.19 32.342 0.081 6.3 3.3 13.83
1/6/2017 5:00:00 AM 0.16 32.288 0.081 6.32 2.6 13.83
1/6/2017 5:15:00 AM 0.14 32.252 0.081 6.32 3.1 13.85
1/6/2017 5:30:00 AM 0.1 32.18 0.081 6.35 2.9 13.85
1/6/2017 5:45:00 AM 0.08 32.144 0.081 6.33 3 13.86
1/6/2017 6:00:00 AM 0.05 32.09 0.081 6.33 3.1 13.87
1/6/2017 6:15:00 AM 0.01 32.018 0.081 6.33 2.9 13.88
1/6/2017 6:30:00 AM -0.02 31.964 0.081 6.36 3.1 13.9
1/6/2017 6:45:00 AM -0.05 31.91 0.081 6.35 2.8 13.91
1/6/2017 7:00:00 AM -0.08 31.856 0.081 6.33 3.6 13.99
1/6/2017 7:15:00 AM -0.06 31.892 0.08 6.33 2.8 13.99
1/6/2017 7:30:00 AM -0.04 31.928 0.08 6.35 3 13.98
1/6/2017 7:45:00 AM -0.04 31.928 0.08 6.35 3.1 13.97
1/6/2017 8:00:00 AM -0.03 31.946 0.08 6.36 3 13.98
1/6/2017 8:15:00 AM -0.03 31.946 0.08 6.23 3.1 13.98
1/6/2017 8:30:00 AM -0.02 31.964 0.08 6.32 2.6 14.02
1/6/2017 8:45:00 AM 0 32 0.081 6.35 3.5 14.01
1/6/2017 9:00:00 AM 0.03 32.054 0.081 6.38 2.7 14.11
1/6/2017 9:15:00 AM 0.06 32.108 0.081 6.37 2.8 14.17
1/6/2017 9:30:00 AM 0.08 32.144 0.081 6.4 3.4 14.15
1/6/2017 9:45:00 AM 0.07 32.126 0.081 6.38 2.7 14.22
1/6/2017 10:00:00 AM 0.16 32.288 0.081 6.41 2.8 14.22
1/6/2017 10:15:00 AM 0.12 32.216 0.081 6.42 2.8 14.25
1/6/2017 10:30:00 AM 0.14 32.252 0.081 6.41 2.4 14.28
1/6/2017 10:45:00 AM 0.17 32.306 0.081 6.4 2.5 14.29
1/6/2017 11:00:00 AM 0.15 32.27 0.081 6.4 2.4 14.29
1/6/2017 11:15:00 AM 0.21 32.378 0.081 6.41 2.6 14.3
1/6/2017 11:30:00 AM 0.27 32.486 0.081 6.43 2.6 14.3
1/6/2017 11:45:00 AM 0.39 32.702 0.081 6.44 2.7 14.3
1/6/2017 12:00:00 PM 0.47 32.846 0.081 6.32 2.9 14.3
1/6/2017 12:15:00 PM 0.47 32.846 0.081 6.42 2.6 14.26
1/6/2017 12:30:00 PM 0.55 32.99 0.081 6.43 2.4 14.24
1/6/2017 12:45:00 PM 0.55 32.99 0.081 6.43 2.5 14.23
1/6/2017 1:00:00 PM 0.63 33.134 0.081 6.44 2.5 14.21
1/6/2017 1:15:00 PM 0.68 33.224 0.081 6.46 2.7 14.19
1/6/2017 1:30:00 PM 0.72 33.296 0.081 6.47 3.3 14.18
1/6/2017 1:45:00 PM 0.73 33.314 0.081 6.45 3 14.17
1/6/2017 2:00:00 PM 0.74 33.332 0.081 6.48 3.6 14.15
1/6/2017 2:15:00 PM 0.76 33.368 0.081 6.47 2.9 14.15
1/6/2017 2:30:00 PM 0.76 33.368 0.081 6.48 2.5 14.13
1/6/2017 2:45:00 PM 0.74 33.332 0.081 6.48 2.8 14.11
1/6/2017 3:00:00 PM 0.72 33.296 0.081 6.46 2.4 14.12
1/6/2017 3:15:00 PM 0.69 33.242 0.081 6.48 2.6 14.1
1/6/2017 3:30:00 PM 0.66 33.188 0.081 6.46 2.3 14.09
1/6/2017 3:45:00 PM 0.64 33.152 0.081 6.37 2.7 14.11
1/6/2017 4:00:00 PM 0.61 33.098 0.081 6.45 2.8 14.04
1/6/2017 4:15:00 PM 0.57 33.026 0.081 6.49 3.4 14.07
1/6/2017 4:30:00 PM 0.52 32.936 0.081 6.47 4.1 14.08
1/6/2017 4:45:00 PM 0.46 32.828 0.081 6.49 2.8 14.09
1/6/2017 5:00:00 PM 0.39 32.702 0.081 6.48 2.7 14.08
1/6/2017 5:15:00 PM 0.34 32.612 0.081 6.47 3.3 14.09
1/6/2017 5:30:00 PM 0.28 32.504 0.081 6.44 2.4 14.08
1/6/2017 5:45:00 PM 0.23 32.414 0.081 6.46 2.9 14.08
1/6/2017 6:00:00 PM 0.2 32.36 0.082 6.42 2.5 14.08
1/6/2017 6:15:00 PM 0.17 32.306 0.082 6.43 3.3 14.09
1/6/2017 6:30:00 PM 0.15 32.27 0.082 6.4 2.7 14.07
1/6/2017 6:45:00 PM 0.13 32.234 0.082 6.4 2.6 14.06
1/6/2017 7:00:00 PM 0.11 32.198 0.082 6.39 2.4 14.05
1/6/2017 7:15:00 PM 0.08 32.144 0.082 6.41 3 14.06
1/6/2017 7:30:00 PM 0.06 32.108 0.082 6.25 2.5 14
1/6/2017 7:45:00 PM 0.04 32.072 0.082 6.31 2.4 14
1/6/2017 8:00:00 PM 0 32 0.082 6.34 2.6 14.01
1/6/2017 8:15:00 PM -0.03 31.946 0.082 6.37 2.4 14.03
1/6/2017 8:30:00 PM -0.05 31.91 0.082 6.35 3 14.04
1/6/2017 8:45:00 PM -0.07 31.874 0.082 6.35 2.3 14.11
1/6/2017 9:00:00 PM -0.07 31.874 0.081 6.33 8.1 14.1
1/6/2017 9:15:00 PM -0.06 31.892 0.08 6.35 17.9 14.11
1/6/2017 9:30:00 PM -0.06 31.892 0.08 6.36 7.3 14.11
1/6/2017 9:45:00 PM -0.04 31.928 0.08 6.39 8.5 14.1
1/6/2017 10:00:00 PM -0.04 31.928 0.081 6.37 9.8 14.1
1/6/2017 10:15:00 PM -0.04 31.928 0.081 6.36 14.5 14.1
1/6/2017 10:30:00 PM -0.04 31.928 0.081 6.36 11.6 14.09
1/6/2017 10:45:00 PM -0.04 31.928 0.082 6.36 14.4 14.1
1/6/2017 11:00:00 PM -0.04 31.928 0.082 6.35 15.2 14.11
1/6/2017 11:15:00 PM -0.04 31.928 0.082 6.29 2.9 14.1
1/6/2017 11:30:00 PM -0.04 31.928 0.081 6.36 2.2 14.1
1/6/2017 11:45:00 PM -0.04 31.928 0.081 6.37 2.5 14.1
1/7/2017 12:00:00 AM -0.04 31.928 0.081 6.33 2.2 14.1
1/7/2017 12:15:00 AM -0.04 31.928 0.08 6.37 2.6 14.12
1/7/2017 12:30:00 AM -0.04 31.928 0.079 6.37 2.4 14.1
1/7/2017 12:45:00 AM -0.04 31.928 0.079 6.41 2.4 14.1
1/7/2017 1:00:00 AM -0.04 31.928 0.078 6.4 2.5 14.11
1/7/2017 1:15:00 AM -0.04 31.928 0.077 6.38 2.5 14.1
1/7/2017 1:30:00 AM -0.04 31.928 0.077 6.4 2.7 14.1
1/7/2017 1:45:00 AM -0.04 31.928 0.076 6.39 2.7 14.09
1/7/2017 2:00:00 AM -0.04 31.928 0.075 6.41 2.7 14.09
1/7/2017 2:15:00 AM -0.04 31.928 0.075 6.39 2.3 14.07
1/7/2017 2:30:00 AM -0.04 31.928 0.074 6.37 2.5 14.07
1/7/2017 2:45:00 AM -0.04 31.928 0.073 6.39 2.2 14.08
1/7/2017 3:00:00 AM -0.04 31.928 0.073 6.31 2.7 13.94
1/7/2017 3:15:00 AM -0.04 31.928 0.072 6.37 2.4 14.35
1/7/2017 3:30:00 AM -0.04 31.928 0.072 6.38 2.8 14.23
1/7/2017 3:45:00 AM -0.04 31.928 0.071 6.38 2.6 14.14
1/7/2017 4:00:00 AM -0.04 31.928 0.071 6.4 2.9 14.05
1/7/2017 4:15:00 AM -0.04 31.928 0.07 6.38 2.8 13.97
1/7/2017 4:30:00 AM -0.04 31.928 0.07 6.37 2.7 13.92
1/7/2017 4:45:00 AM -0.04 31.928 0.069 6.37 2.5 13.86
1/7/2017 5:00:00 AM -0.03 31.946 0.068 6.39 2.1 13.81
1/7/2017 5:15:00 AM -0.03 31.946 0.067 6.37 2.5 13.78
1/7/2017 5:30:00 AM -0.04 31.928 0.066 6.37 2.3 13.75
1/7/2017 5:45:00 AM -0.04 31.928 0.065 6.37 2.6 13.73
1/7/2017 6:00:00 AM -0.03 31.946 0.065 6.37 2.4 13.7
1/7/2017 6:15:00 AM -0.04 31.928 0.064 6.39 2.7 13.68
1/7/2017 6:30:00 AM -0.04 31.928 0.064 6.39 2.6 13.66
1/7/2017 6:45:00 AM -0.03 31.946 0.064 6.23 2.1 13.71
1/7/2017 7:00:00 AM -0.03 31.946 0.063 6.32 2.4 13.99
1/7/2017 7:15:00 AM -0.03 31.946 0.063 6.35 1.9 14
1/7/2017 7:30:00 AM -0.04 31.928 0.063 6.33 2 14.01
1/7/2017 7:45:00 AM -0.03 31.946 0.063 6.33 2.2 14.03
1/7/2017 8:00:00 AM -0.03 31.946 0.063 6.35 2 14.04
1/7/2017 8:15:00 AM -0.03 31.946 0.063 6.34 1.9 14.07
1/7/2017 8:30:00 AM -0.03 31.946 0.063 6.36 2 14.11
1/7/2017 8:45:00 AM -0.03 31.946 0.063 6.35 1.9 14.16
1/7/2017 9:00:00 AM -0.03 31.946 0.063 6.37 2 14.19
1/7/2017 9:15:00 AM -0.03 31.946 0.064 6.38 2 14.23
1/7/2017 9:30:00 AM -0.03 31.946 0.064 6.39 2.1 14.25
1/7/2017 9:45:00 AM -0.03 31.946 0.064 6.38 1.9 14.27
1/7/2017 10:00:00 AM -0.03 31.946 0.064 6.38 2 14.3
1/7/2017 10:15:00 AM -0.03 31.946 0.064 6.41 2.7 14.31
1/7/2017 10:30:00 AM -0.03 31.946 0.064 6.33 2.2 14.29
1/7/2017 10:45:00 AM -0.03 31.946 0.064 6.39 2 14.3
1/7/2017 11:00:00 AM -0.03 31.946 0.064 6.42 2.2 14.3
1/7/2017 11:15:00 AM -0.03 31.946 0.064 6.48 2.3 14.3
1/7/2017 11:30:00 AM -0.03 31.946 0.064 6.48 2.3 14.31
1/7/2017 11:45:00 AM -0.03 31.946 0.064 6.49 2.3 14.31
1/7/2017 12:00:00 PM -0.03 31.946 0.065 6.49 2.1 14.31
1/7/2017 12:15:00 PM -0.03 31.946 0.065 6.51 2.5 14.3
1/7/2017 12:30:00 PM -0.03 31.946 0.065 6.52 2.7 14.25
1/7/2017 12:45:00 PM -0.03 31.946 0.066 6.47 3 14.12
1/7/2017 1:00:00 PM -0.03 31.946 0.069 6.47 3.3 13.82
1/7/2017 1:15:00 PM 0.06 32.108 0.079 6.47 3.4 14.31
1/7/2017 1:30:00 PM 0.12 32.216 0.087 6.47 2.6 14.31
1/7/2017 1:45:00 PM 0.12 32.216 0.087 6.48 2.5 14.32
1/7/2017 2:00:00 PM 0.09 32.162 0.086 6.48 2.3 14.36
1/7/2017 2:15:00 PM 0.08 32.144 0.086 6.37 2.6 14.34
1/7/2017 2:30:00 PM 0.06 32.108 0.086 6.43 3 14.37
1/7/2017 2:45:00 PM 0.03 32.054 0.086 6.45 2.5 14.39
1/7/2017 3:00:00 PM 0.03 32.054 0.086 6.45 2.5 14.38
1/7/2017 3:15:00 PM 0.02 32.036 0.086 6.46 2.7 14.39
1/7/2017 3:30:00 PM 0.01 32.018 0.086 6.48 2.4 14.37
1/7/2017 3:45:00 PM -0.02 31.964 0.086 6.48 2.6 14.39
1/7/2017 4:00:00 PM -0.03 31.946 0.086 6.48 2.4 14.38
1/7/2017 4:15:00 PM -0.05 31.91 0.085 6.48 2.5 14.37
1/7/2017 4:30:00 PM -0.07 31.874 0.085 6.45 2.6 14.34
1/7/2017 4:45:00 PM -0.06 31.892 0.085 6.45 2.4 14.31
1/7/2017 5:00:00 PM -0.06 31.892 0.085 6.45 3 14.3
1/7/2017 5:15:00 PM -0.06 31.892 0.084 6.43 2.8 14.27
1/7/2017 5:30:00 PM -0.05 31.91 0.081 6.44 3.3 14.26
1/7/2017 5:45:00 PM -0.05 31.91 0.08 6.42 4.1 14.22
1/7/2017 6:00:00 PM -0.04 31.928 0.079 6.26 2.5 14.18
1/7/2017 6:15:00 PM -0.04 31.928 0.078 6.33 2.6 14.16
1/7/2017 6:30:00 PM -0.04 31.928 0.078 6.37 2.5 14.16
1/7/2017 6:45:00 PM -0.04 31.928 0.078 6.35 2.5 14.14
1/7/2017 7:00:00 PM -0.04 31.928 0.077 6.35 3 14.13
1/7/2017 7:15:00 PM -0.04 31.928 0.077 6.35 3.2 14.14
1/7/2017 7:30:00 PM -0.04 31.928 0.075 6.33 4 14.14
1/7/2017 7:45:00 PM -0.04 31.928 0.074 6.34 4.3 14.13
1/7/2017 8:00:00 PM -0.04 31.928 0.073 6.35 4.5 14.15
1/7/2017 8:15:00 PM -0.04 31.928 0.072 6.35 4.5 14.12
1/7/2017 8:30:00 PM -0.04 31.928 0.072 6.34 4.4 14.12
1/7/2017 8:45:00 PM -0.04 31.928 0.071 6.33 5.1 14.11
1/7/2017 9:00:00 PM -0.04 31.928 0.071 6.33 6.2 14.1
1/7/2017 9:15:00 PM -0.04 31.928 0.071 6.36 6.4 14.09
1/7/2017 9:30:00 PM -0.03 31.946 0.072 6.36 6.6 14.08
1/7/2017 9:45:00 PM -0.04 31.928 0.072 6.24 2.5 14.02
1/7/2017 10:00:00 PM -0.03 31.946 0.072 6.31 2.2 14.05
1/7/2017 10:15:00 PM -0.03 31.946 0.072 6.33 2.1 14.05
1/7/2017 10:30:00 PM -0.03 31.946 0.072 6.34 2.2 14.04
1/7/2017 10:45:00 PM -0.03 31.946 0.072 6.38 2.3 14.05
1/7/2017 11:00:00 PM -0.03 31.946 0.073 6.36 2.8 14.06
1/7/2017 11:15:00 PM -0.03 31.946 0.073 6.37 2.4 14.03
1/7/2017 11:30:00 PM -0.03 31.946 0.073 6.33 3 14.03
1/7/2017 11:45:00 PM -0.03 31.946 0.073 6.35 3 14.02
1/8/2017 12:00:00 AM -0.03 31.946 0.073 6.36 3 14.03
1/8/2017 12:15:00 AM -0.03 31.946 0.073 6.36 3 14.02
1/8/2017 12:30:00 AM -0.03 31.946 0.074 6.34 2.9 14.01
1/8/2017 12:45:00 AM -0.03 31.946 0.074 6.37 3 14
1/8/2017 1:00:00 AM -0.03 31.946 0.074 6.38 2.9 14.01
1/8/2017 1:15:00 AM -0.03 31.946 0.074 6.37 2.8 14.01
1/8/2017 1:30:00 AM -0.03 31.946 0.074 6.24 2.9 14
1/8/2017 1:45:00 AM -0.03 31.946 0.075 6.32 2.9 14.01
1/8/2017 2:00:00 AM -0.03 31.946 0.075 6.35 2.9 14.02
1/8/2017 2:15:00 AM -0.03 31.946 0.074 6.34 3 14.01
1/8/2017 2:30:00 AM -0.03 31.946 0.074 6.34 2.9 14.02
1/8/2017 2:45:00 AM -0.03 31.946 0.075 6.34 2.8 14
1/8/2017 3:00:00 AM -0.03 31.946 0.075 6.36 3 13.98
1/8/2017 3:15:00 AM -0.03 31.946 0.075 6.35 2.8 13.98
1/8/2017 3:30:00 AM -0.03 31.946 0.076 6.33 2.6 13.97
1/8/2017 3:45:00 AM -0.03 31.946 0.076 6.33 2.5 13.98
1/8/2017 4:00:00 AM -0.03 31.946 0.077 6.36 2.6 13.98
1/8/2017 4:15:00 AM -0.03 31.946 0.077 6.36 2.6 13.99
1/8/2017 4:30:00 AM -0.03 31.946 0.077 6.37 2.6 13.98
1/8/2017 4:45:00 AM -0.03 31.946 0.077 6.35 2.6 13.98
1/8/2017 5:00:00 AM -0.03 31.946 0.077 6.34 2.5 13.97
1/8/2017 5:15:00 AM -0.03 31.946 0.077 6.22 3 13.94
1/8/2017 5:30:00 AM -0.03 31.946 0.077 6.31 2.8 14
1/8/2017 5:45:00 AM -0.04 31.928 0.078 6.32 2.9 13.97
1/8/2017 6:00:00 AM -0.04 31.928 0.078 6.36 2.7 13.97
1/8/2017 6:15:00 AM -0.04 31.928 0.078 6.37 2.7 13.98
1/8/2017 6:30:00 AM -0.04 31.928 0.078 6.39 2.8 14
1/8/2017 6:45:00 AM -0.04 31.928 0.078 6.35 2.8 13.99
1/8/2017 7:00:00 AM -0.04 31.928 0.078 6.34 2.9 13.98
1/8/2017 7:15:00 AM -0.04 31.928 0.078 6.36 2.8 13.98
1/8/2017 7:30:00 AM -0.04 31.928 0.078 6.36 3 13.97
1/8/2017 7:45:00 AM -0.04 31.928 0.078 6.33 2.2 13.97
1/8/2017 8:00:00 AM -0.03 31.946 0.078 6.32 2 13.99
1/8/2017 8:15:00 AM -0.03 31.946 0.078 6.32 2.3 14.01
1/8/2017 8:30:00 AM -0.03 31.946 0.079 6.35 2.1 14.05
1/8/2017 8:45:00 AM -0.03 31.946 0.079 6.33 1.9 14.09
1/8/2017 9:00:00 AM -0.03 31.946 0.079 6.23 1.9 14.09
1/8/2017 9:15:00 AM -0.03 31.946 0.079 6.33 1.8 14.17
1/8/2017 9:30:00 AM -0.03 31.946 0.079 6.36 2 14.18
1/8/2017 9:45:00 AM -0.03 31.946 0.079 6.38 1.8 14.22
1/8/2017 10:00:00 AM -0.03 31.946 0.08 6.37 1.9 14.24
1/8/2017 10:15:00 AM -0.03 31.946 0.08 6.39 2 14.26
1/8/2017 10:30:00 AM -0.03 31.946 0.08 6.4 1.8 14.27
1/8/2017 10:45:00 AM -0.03 31.946 0.08 6.41 1.7 14.27
1/8/2017 11:00:00 AM -0.03 31.946 0.08 6.41 1.8 14.29
1/8/2017 11:15:00 AM -0.03 31.946 0.08 6.42 8.7 14.29
1/8/2017 11:30:00 AM -0.03 31.946 0.08 6.48 2.2 14.28
1/8/2017 11:45:00 AM -0.03 31.946 0.081 6.5 1.9 14.24
1/8/2017 12:00:00 PM -0.03 31.946 0.082 6.51 1.9 14.21
1/8/2017 12:15:00 PM -0.03 31.946 0.082 6.48 1.7 14.11
1/8/2017 12:30:00 PM -0.03 31.946 0.082 6.48 1.8 14.07
1/8/2017 12:45:00 PM -0.03 31.946 0.083 6.33 2.9 14.07
1/8/2017 1:00:00 PM -0.02 31.964 0.083 6.38 3.1 14.22
1/8/2017 1:15:00 PM -0.02 31.964 0.085 6.43 3.2 14.2
1/8/2017 1:30:00 PM -0.01 31.982 0.085 6.41 3.4 14.18
1/8/2017 1:45:00 PM -0.02 31.964 0.086 6.45 2.4 14.19
1/8/2017 2:00:00 PM 0 32 0.087 6.46 2.2 14.19
1/8/2017 2:15:00 PM 0 32 0.087 6.44 2.3 14.21
1/8/2017 2:30:00 PM 0 32 0.088 6.47 2.4 14.25
1/8/2017 2:45:00 PM 0 32 0.088 6.47 1.9 14.27
1/8/2017 3:00:00 PM -0.02 31.964 0.089 6.43 2.8 14.35
1/8/2017 3:15:00 PM -0.03 31.946 0.089 6.44 2.5 14.37
1/8/2017 3:30:00 PM -0.03 31.946 0.089 6.45 2.5 14.35
1/8/2017 3:45:00 PM -0.03 31.946 0.089 6.47 2.2 14.35
1/8/2017 4:00:00 PM -0.03 31.946 0.089 6.47 2.5 14.36
1/8/2017 4:15:00 PM -0.03 31.946 0.089 6.45 2.2 14.36
1/8/2017 4:30:00 PM -0.03 31.946 0.089 6.35 2.1 14.33
1/8/2017 4:45:00 PM -0.03 31.946 0.089 6.41 2.2 14.35
1/8/2017 5:00:00 PM -0.03 31.946 0.09 6.43 2.3 14.33
1/8/2017 5:15:00 PM -0.03 31.946 0.09 6.42 2.5 14.3
1/8/2017 5:30:00 PM -0.03 31.946 0.09 6.43 2.3 14.26
1/8/2017 5:45:00 PM -0.03 31.946 0.09 6.4 2.4 14.22
1/8/2017 6:00:00 PM -0.03 31.946 0.09 6.41 2.2 14.21
1/8/2017 6:15:00 PM -0.03 31.946 0.09 6.41 2.2 14.15
1/8/2017 6:30:00 PM -0.03 31.946 0.09 6.42 2.1 14.15
1/8/2017 6:45:00 PM -0.03 31.946 0.091 6.42 2.1 14.13
1/8/2017 7:00:00 PM -0.03 31.946 0.091 6.42 2.1 14.16
1/8/2017 7:15:00 PM -0.03 31.946 0.091 6.4 1.9 14.15
1/8/2017 7:30:00 PM -0.03 31.946 0.091 6.42 1.9 14.12
1/8/2017 7:45:00 PM -0.03 31.946 0.092 6.42 1.9 14.09
1/8/2017 8:00:00 PM -0.03 31.946 0.092 6.42 2 14.08
1/8/2017 8:15:00 PM -0.03 31.946 0.092 6.28 1.9 14.04
1/8/2017 8:30:00 PM -0.02 31.964 0.092 6.36 1.9 14.05
1/8/2017 8:45:00 PM -0.02 31.964 0.092 6.41 1.9 14.05
1/8/2017 9:00:00 PM -0.03 31.946 0.092 6.41 1.8 14.05
1/8/2017 9:15:00 PM -0.03 31.946 0.092 6.4 1.8 14.02
1/8/2017 9:30:00 PM -0.03 31.946 0.092 6.4 1.7 13.97
1/8/2017 9:45:00 PM -0.03 31.946 0.092 6.43 1.7 13.91
1/8/2017 10:00:00 PM -0.03 31.946 0.093 6.41 1.7 13.85
1/8/2017 10:15:00 PM -0.03 31.946 0.093 6.42 1.7 13.78
1/8/2017 10:30:00 PM -0.03 31.946 0.093 6.39 1.8 13.77
1/8/2017 10:45:00 PM -0.02 31.964 0.093 6.4 1.6 13.74
1/8/2017 11:00:00 PM -0.02 31.964 0.093 6.35 1.8 13.84
1/8/2017 11:15:00 PM -0.03 31.946 0.094 6.39 1.7 13.92
1/8/2017 11:30:00 PM -0.03 31.946 0.094 6.39 1.7 13.91
1/8/2017 11:45:00 PM -0.02 31.964 0.094 6.23 1.9 13.9
1/9/2017 12:00:00 AM -0.02 31.964 0.094 6.33 1.8 13.96
1/9/2017 12:15:00 AM -0.02 31.964 0.094 6.36 1.7 13.95
1/9/2017 12:30:00 AM -0.02 31.964 0.094 6.37 1.6 13.96
1/9/2017 12:45:00 AM -0.02 31.964 0.094 6.34 1.7 13.93
1/9/2017 1:00:00 AM -0.02 31.964 0.094 6.32 1.5 13.93
1/9/2017 1:15:00 AM -0.02 31.964 0.095 6.33 1.5 13.94
1/9/2017 1:30:00 AM -0.02 31.964 0.095 6.33 1.7 13.97
1/9/2017 1:45:00 AM -0.02 31.964 0.095 6.38 1.6 13.99
1/9/2017 2:00:00 AM -0.02 31.964 0.095 6.42 1.6 13.93
1/9/2017 2:15:00 AM -0.02 31.964 0.095 6.41 1.6 13.85
1/9/2017 2:30:00 AM -0.03 31.946 0.095 6.41 1.5 13.81
1/9/2017 2:45:00 AM -0.02 31.964 0.095 6.37 1.8 13.79
1/9/2017 3:00:00 AM -0.03 31.946 0.095 6.37 1.6 13.76
1/9/2017 3:15:00 AM -0.02 31.964 0.095 6.37 1.7 13.79
1/9/2017 3:30:00 AM -0.02 31.964 0.095 6.23 1.6 13.8
1/9/2017 3:45:00 AM -0.02 31.964 0.096 6.3 1.9 13.85
1/9/2017 4:00:00 AM -0.02 31.964 0.096 6.32 1.6 13.87
1/9/2017 4:15:00 AM -0.03 31.946 0.096 6.37 1.6 13.86
1/9/2017 4:30:00 AM -0.03 31.946 0.096 6.34 1.6 13.83
1/9/2017 4:45:00 AM -0.03 31.946 0.096 6.37 1.8 13.81
1/9/2017 5:00:00 AM -0.02 31.964 0.096 6.37 1.5 13.76
1/9/2017 5:15:00 AM -0.01 31.982 0.096 6.33 1.6 13.72
1/9/2017 5:30:00 AM -0.01 31.982 0.097 6.31 1.5 13.64
1/9/2017 5:45:00 AM -0.01 31.982 0.097 6.3 1.5 13.56
1/9/2017 6:00:00 AM -0.01 31.982 0.098 6.25 1.5 13.48
1/9/2017 6:15:00 AM -0.01 31.982 0.099 6.25 1.4 13.39
1/9/2017 6:30:00 AM -0.01 31.982 0.099 6.2 1.6 12.54
1/9/2017 6:45:00 AM 0 32 0.1 6.17 1.5 12.74
1/9/2017 7:00:00 AM -0.01 31.982 0.1 6.17 1.9 12.99
1/9/2017 7:15:00 AM 0 32 0.101 6.11 1.5 13.18
1/9/2017 7:30:00 AM 0 32 0.101 6.17 1.6 13.32
1/9/2017 7:45:00 AM -0.02 31.964 0.101 6.23 1.5 13.34
1/9/2017 8:00:00 AM -0.02 31.964 0.101 6.24 1.4 13.44
1/9/2017 8:15:00 AM -0.02 31.964 0.101 6.25 1.5 13.48
1/9/2017 8:30:00 AM -0.02 31.964 0.101 6.27 1.5 13.52
1/9/2017 8:45:00 AM -0.02 31.964 0.101 6.27 1.6 13.54
1/9/2017 9:00:00 AM -0.02 31.964 0.1 6.28 1.5 13.59
1/9/2017 9:15:00 AM -0.02 31.964 0.1 6.29 1.5 13.67
1/9/2017 9:30:00 AM -0.02 31.964 0.1 6.3 1.6 13.74
1/9/2017 9:45:00 AM -0.02 31.964 0.1 6.28 1.6 13.76
1/9/2017 10:00:00 AM -0.02 31.964 0.1 6.29 1.4 13.82
1/9/2017 10:15:00 AM -0.02 31.964 0.099 6.32 1.4 13.88
1/9/2017 10:30:00 AM -0.01 31.982 0.099 6.33 1.5 13.95
1/9/2017 10:45:00 AM -0.01 31.982 0.099 6.24 1.4 13.94
1/9/2017 11:00:00 AM -0.01 31.982 0.099 6.33 1.5 13.68
1/9/2017 11:15:00 AM 0.02 32.036 0.098 6.36 1.4 13.59
1/9/2017 11:30:00 AM 0.03 32.054 0.098 6.37 1.5 13.56
1/9/2017 11:45:00 AM 0.02 32.036 0.098 6.36 1.6 13.6
1/9/2017 12:00:00 PM 0.01 32.018 0.098 6.4 1.9 13.66
1/9/2017 12:15:00 PM 0.01 32.018 0.097 6.42 1.7 13.71
1/9/2017 12:30:00 PM 0.01 32.018 0.097 6.4 1.8 13.75
1/9/2017 12:45:00 PM 0.01 32.018 0.097 6.43 1.9 13.79
1/9/2017 1:00:00 PM 0.01 32.018 0.097 6.43 2.2 13.83
1/9/2017 1:15:00 PM 0 32 0.096 6.42 2.5 13.86
1/9/2017 1:30:00 PM 0 32 0.096 6.42 2.1 13.98
1/9/2017 1:45:00 PM 0 32 0.096 6.45 2 13.99
1/9/2017 2:00:00 PM -0.01 31.982 0.096 6.46 2.2 14
1/9/2017 2:15:00 PM -0.01 31.982 0.096 6.44 2.3 14.01
1/9/2017 2:30:00 PM -0.01 31.982 0.095 6.31 2.2 14.15
1/9/2017 2:45:00 PM -0.02 31.964 0.095 6.37 2.3 14.37
1/9/2017 3:00:00 PM -0.02 31.964 0.095 6.42 2.4 14.38
1/9/2017 3:15:00 PM -0.03 31.946 0.095 6.43 2 14.4
1/9/2017 3:30:00 PM -0.03 31.946 0.095 6.43 2.1 14.41
1/9/2017 3:45:00 PM -0.03 31.946 0.095 6.41 2.4 14.41
1/9/2017 4:00:00 PM -0.03 31.946 0.095 6.41 2.2 14.42
1/9/2017 4:15:00 PM -0.03 31.946 0.094 6.43 2.4 14.4
1/9/2017 4:30:00 PM -0.03 31.946 0.094 6.43 2.3 14.38
1/9/2017 4:45:00 PM -0.03 31.946 0.094 6.43 2.3 14.35
1/9/2017 5:00:00 PM -0.03 31.946 0.094 6.4 2.1 14.31
1/9/2017 5:15:00 PM -0.03 31.946 0.094 6.42 2.6 14.28
1/9/2017 5:30:00 PM -0.03 31.946 0.094 6.41 2.2 14.24
1/9/2017 5:45:00 PM -0.03 31.946 0.094 6.41 2.1 14.2
1/9/2017 6:00:00 PM -0.03 31.946 0.094 6.38 2.1 14.18
1/9/2017 6:15:00 PM -0.03 31.946 0.095 6.3 2.1 14.2
1/9/2017 6:30:00 PM -0.03 31.946 0.095 6.38 1.9 13.97
1/9/2017 6:45:00 PM -0.03 31.946 0.095 6.4 1.9 13.96
1/9/2017 7:00:00 PM -0.02 31.964 0.095 6.38 2 13.94
1/9/2017 7:15:00 PM -0.02 31.964 0.095 6.41 1.8 13.94
1/9/2017 7:30:00 PM -0.02 31.964 0.095 6.4 2 13.94
1/9/2017 7:45:00 PM -0.02 31.964 0.095 6.38 2.3 13.91
1/9/2017 8:00:00 PM -0.02 31.964 0.095 6.37 1.9 13.94
1/9/2017 8:15:00 PM -0.02 31.964 0.095 6.4 1.8 13.93
1/9/2017 8:30:00 PM -0.02 31.964 0.095 6.39 2.2 13.94
1/9/2017 8:45:00 PM -0.02 31.964 0.095 6.4 2.2 13.93
1/9/2017 9:00:00 PM -0.02 31.964 0.095 6.37 2 13.94
1/9/2017 9:15:00 PM -0.02 31.964 0.095 6.39 2 13.94
1/9/2017 9:30:00 PM -0.02 31.964 0.095 6.39 1.9 13.93
1/9/2017 9:45:00 PM -0.02 31.964 0.095 6.36 2.1 13.94
1/9/2017 10:00:00 PM -0.02 31.964 0.095 6.24 2 13.9
1/9/2017 10:15:00 PM -0.02 31.964 0.095 6.33 2.1 13.95
1/9/2017 10:30:00 PM -0.02 31.964 0.095 6.32 1.8 13.95
1/9/2017 10:45:00 PM -0.02 31.964 0.095 6.35 1.8 13.95
1/9/2017 11:00:00 PM -0.02 31.964 0.095 6.33 1.9 13.95
1/9/2017 11:15:00 PM -0.02 31.964 0.095 6.35 2.1 13.95
1/9/2017 11:30:00 PM -0.02 31.964 0.095 6.35 1.8 13.93
1/9/2017 11:45:00 PM -0.02 31.964 0.095 6.33 1.8 13.93
1/10/2017 12:00:00 AM -0.02 31.964 0.095 6.35 1.9 13.94
1/10/2017 12:15:00 AM -0.02 31.964 0.096 6.33 1.8 13.93
1/10/2017 12:30:00 AM -0.02 31.964 0.096 6.35 2.1 13.92
1/10/2017 12:45:00 AM -0.02 31.964 0.096 6.35 1.7 13.92
1/10/2017 1:00:00 AM -0.02 31.964 0.096 6.35 2.1 13.92
1/10/2017 1:15:00 AM -0.02 31.964 0.096 6.35 1.8 13.91
1/10/2017 1:30:00 AM -0.02 31.964 0.096 6.35 1.8 13.92
1/10/2017 1:45:00 AM -0.02 31.964 0.096 6.26 1.9 13.99
1/10/2017 2:00:00 AM -0.02 31.964 0.096 6.31 1.9 13.86
1/10/2017 2:15:00 AM -0.02 31.964 0.096 6.34 1.8 13.84
1/10/2017 2:30:00 AM -0.02 31.964 0.096 6.37 2 13.86
1/10/2017 2:45:00 AM -0.02 31.964 0.096 6.37 1.7 13.84
1/10/2017 3:00:00 AM -0.02 31.964 0.096 6.35 1.8 13.83
1/10/2017 3:15:00 AM -0.02 31.964 0.096 6.38 1.7 13.83
1/10/2017 3:30:00 AM -0.02 31.964 0.097 6.38 1.9 13.83
1/10/2017 3:45:00 AM -0.02 31.964 0.097 6.35 1.7 13.83
1/10/2017 4:00:00 AM -0.02 31.964 0.097 6.35 1.7 13.84
1/10/2017 4:15:00 AM -0.02 31.964 0.097 6.37 1.7 13.83
1/10/2017 4:30:00 AM -0.02 31.964 0.097 6.35 1.8 13.84
1/10/2017 4:45:00 AM -0.02 31.964 0.097 6.35 1.6 13.83
1/10/2017 5:00:00 AM -0.02 31.964 0.097 6.35 1.8 13.83
1/10/2017 5:15:00 AM -0.02 31.964 0.097 6.35 1.6 13.83
1/10/2017 5:30:00 AM -0.02 31.964 0.097 6.23 1.8 13.76
1/10/2017 5:45:00 AM -0.02 31.964 0.097 6.32 1.5 13.84
1/10/2017 6:00:00 AM -0.02 31.964 0.098 6.34 1.6 13.83
1/10/2017 6:15:00 AM -0.02 31.964 0.098 6.34 1.7 13.83
1/10/2017 6:30:00 AM -0.02 31.964 0.098 6.32 1.7 13.83
1/10/2017 6:45:00 AM -0.02 31.964 0.098 6.32 1.6 13.82
1/10/2017 7:00:00 AM -0.02 31.964 0.097 6.31 2 13.82
1/10/2017 7:15:00 AM -0.02 31.964 0.098 6.32 1.5 13.82
1/10/2017 7:30:00 AM -0.02 31.964 0.098 6.31 1.6 13.83
1/10/2017 7:45:00 AM -0.02 31.964 0.098 6.34 1.6 13.82
1/10/2017 8:00:00 AM -0.02 31.964 0.097 6.34 1.6 13.83
1/10/2017 8:15:00 AM -0.02 31.964 0.097 6.34 1.7 13.83
1/10/2017 8:30:00 AM -0.01 31.982 0.097 6.32 1.6 13.89
1/10/2017 8:45:00 AM -0.01 31.982 0.097 6.32 1.6 13.94
1/10/2017 9:00:00 AM -0.01 31.982 0.097 6.35 1.9 13.98
1/10/2017 9:15:00 AM -0.01 31.982 0.097 6.27 1.6 14.02
1/10/2017 9:30:00 AM -0.01 31.982 0.097 6.35 1.8 14.04
1/10/2017 9:45:00 AM -0.01 31.982 0.097 6.38 1.6 14.07
1/10/2017 10:00:00 AM -0.01 31.982 0.097 6.37 1.7 14.07
1/10/2017 10:15:00 AM -0.01 31.982 0.096 6.37 1.4 14.1
1/10/2017 10:30:00 AM -0.01 31.982 0.096 6.37 1.5 14.12
1/10/2017 10:45:00 AM -0.01 31.982 0.096 6.38 1.4 14.13
1/10/2017 11:00:00 AM -0.01 31.982 0.096 6.41 1.4 14.14
1/10/2017 11:15:00 AM -0.02 31.964 0.096 6.42 1.5 14.14
1/10/2017 11:30:00 AM -0.02 31.964 0.096 6.39 1.7 14.15
1/10/2017 11:45:00 AM -0.01 31.982 0.096 6.4 1.8 14.17
1/10/2017 12:00:00 PM -0.01 31.982 0.096 6.42 1.5 14.18
1/10/2017 12:15:00 PM -0.01 31.982 0.096 6.4 1.6 14.2
1/10/2017 12:30:00 PM -0.01 31.982 0.096 6.4 1.5 14.2
1/10/2017 12:45:00 PM -0.01 31.982 0.096 6.4 1.7 14.22
1/10/2017 1:00:00 PM -0.01 31.982 0.096 6.3 1.7 14.17
1/10/2017 1:15:00 PM -0.01 31.982 0.095 6.38 1.7 14.21
1/10/2017 1:30:00 PM -0.01 31.982 0.095 6.41 1.7 14.2
1/10/2017 1:45:00 PM -0.02 31.964 0.095 6.4 1.8 14.2
1/10/2017 2:00:00 PM -0.01 31.982 0.095 6.42 1.7 14.16
1/10/2017 2:15:00 PM -0.02 31.964 0.095 6.43 2.1 14.18
1/10/2017 2:30:00 PM -0.02 31.964 0.095 6.42 1.7 14.15
1/10/2017 2:45:00 PM -0.01 31.982 0.095 6.44 1.8 14.13
1/10/2017 3:00:00 PM -0.02 31.964 0.095 6.42 1.9 14.11
1/10/2017 3:15:00 PM -0.02 31.964 0.095 6.43 1.6 14.1
1/10/2017 3:30:00 PM -0.01 31.982 0.095 6.41 1.7 14.09
1/10/2017 3:45:00 PM -0.02 31.964 0.095 6.39 1.6 14.05
1/10/2017 4:00:00 PM -0.02 31.964 0.095 6.42 1.6 14.03
1/10/2017 4:15:00 PM -0.02 31.964 0.095 6.43 1.8 14.03
1/10/2017 4:30:00 PM -0.02 31.964 0.095 6.42 1.6 14.01
1/10/2017 4:45:00 PM -0.02 31.964 0.095 6.3 1.9 13.96
1/10/2017 5:00:00 PM -0.02 31.964 0.095 6.36 1.6 13.96
1/10/2017 5:15:00 PM -0.02 31.964 0.095 6.4 1.7 13.92
1/10/2017 5:30:00 PM -0.02 31.964 0.095 6.38 1.7 13.89
1/10/2017 5:45:00 PM -0.02 31.964 0.095 6.4 1.8 13.86
1/10/2017 6:00:00 PM -0.02 31.964 0.095 6.39 2 13.84
1/10/2017 6:15:00 PM -0.02 31.964 0.095 6.4 1.6 13.81
1/10/2017 6:30:00 PM -0.02 31.964 0.095 6.4 1.7 13.78
1/10/2017 6:45:00 PM -0.02 31.964 0.095 6.39 1.8 13.75
1/10/2017 7:00:00 PM -0.02 31.964 0.095 6.37 1.8 13.74
1/10/2017 7:15:00 PM -0.02 31.964 0.095 6.38 1.7 13.74
1/10/2017 7:30:00 PM -0.02 31.964 0.095 6.38 1.9 13.71
1/10/2017 7:45:00 PM -0.02 31.964 0.095 6.36 1.6 13.7
1/10/2017 8:00:00 PM -0.02 31.964 0.095 6.35 1.6 13.71
1/10/2017 8:15:00 PM -0.02 31.964 0.095 6.37 1.7 13.69
1/10/2017 8:30:00 PM -0.02 31.964 0.094 6.26 1.8 13.69
1/10/2017 8:45:00 PM -0.01 31.982 0.095 6.31 1.8 13.67
1/10/2017 9:00:00 PM -0.02 31.964 0.095 6.33 1.9 13.66
1/10/2017 9:15:00 PM -0.02 31.964 0.094 6.35 1.8 13.65
1/10/2017 9:30:00 PM -0.02 31.964 0.094 6.33 1.8 13.67
1/10/2017 9:45:00 PM -0.02 31.964 0.094 6.34 1.7 13.67
1/10/2017 10:00:00 PM -0.02 31.964 0.094 6.34 2 13.67
1/10/2017 10:15:00 PM -0.02 31.964 0.094 6.37 1.7 13.67
1/10/2017 10:30:00 PM -0.02 31.964 0.094 6.35 1.7 13.68
1/10/2017 10:45:00 PM -0.02 31.964 0.094 6.37 1.9 13.67
1/10/2017 11:00:00 PM -0.02 31.964 0.094 6.37 1.7 13.67
1/10/2017 11:15:00 PM -0.02 31.964 0.094 6.35 1.9 13.67
1/10/2017 11:30:00 PM -0.02 31.964 0.093 6.34 1.7 13.67
1/10/2017 11:45:00 PM -0.02 31.964 0.093 6.34 1.7 13.68
1/11/2017 12:00:00 AM -0.02 31.964 0.093 6.34 1.8 13.68
1/11/2017 12:15:00 AM -0.02 31.964 0.093 6.26 2.1 13.66
1/11/2017 12:30:00 AM -0.02 31.964 0.093 6.35 1.9 13.66
1/11/2017 12:45:00 AM -0.02 31.964 0.093 6.37 2 13.65
1/11/2017 1:00:00 AM -0.01 31.982 0.093 6.37 1.6 13.64
1/11/2017 1:15:00 AM -0.01 31.982 0.093 6.39 1.7 13.64
1/11/2017 1:30:00 AM -0.01 31.982 0.093 6.38 1.7 13.64
1/11/2017 1:45:00 AM -0.01 31.982 0.093 6.36 2 13.63
1/11/2017 2:00:00 AM -0.01 31.982 0.093 6.37 2 13.62
1/11/2017 2:15:00 AM -0.01 31.982 0.093 6.35 2.2 13.63
1/11/2017 2:30:00 AM -0.01 31.982 0.093 6.37 2.1 13.62
1/11/2017 2:45:00 AM -0.01 31.982 0.093 6.35 2.4 13.62
1/11/2017 3:00:00 AM -0.01 31.982 0.093 6.35 7.6 13.62
1/11/2017 3:15:00 AM -0.01 31.982 0.093 6.34 1.9 13.63
1/11/2017 3:30:00 AM -0.01 31.982 0.093 6.33 2.5 13.65
1/11/2017 3:45:00 AM -0.01 31.982 0.093 6.36 2.2 13.65
1/11/2017 4:00:00 AM -0.01 31.982 0.093 6.24 2.4 13.65
1/11/2017 4:15:00 AM -0.01 31.982 0.093 6.31 2.2 13.67
1/11/2017 4:30:00 AM -0.01 31.982 0.093 6.32 2 13.67
1/11/2017 4:45:00 AM -0.01 31.982 0.093 6.32 2 13.67
1/11/2017 5:00:00 AM -0.01 31.982 0.093 6.32 1.9 13.67
1/11/2017 5:15:00 AM -0.01 31.982 0.093 6.32 2.3 13.67
1/11/2017 5:30:00 AM -0.01 31.982 0.093 6.35 2.2 13.7
1/11/2017 5:45:00 AM -0.01 31.982 0.093 6.35 2.5 13.69
1/11/2017 6:00:00 AM -0.01 31.982 0.093 6.33 2 13.7
1/11/2017 6:15:00 AM -0.01 31.982 0.093 6.35 2 13.71
1/11/2017 6:30:00 AM -0.01 31.982 0.093 6.35 2.4 13.71
1/11/2017 6:45:00 AM -0.01 31.982 0.093 6.32 2 13.73
1/11/2017 7:00:00 AM -0.01 31.982 0.093 6.35 1.7 13.74
1/11/2017 7:15:00 AM -0.01 31.982 0.093 6.35 3.2 13.74
1/11/2017 7:30:00 AM -0.01 31.982 0.093 6.35 1.8 13.76
1/11/2017 7:45:00 AM 0 32 0.093 6.23 1.9 13.78
1/11/2017 8:00:00 AM 0 32 0.093 6.29 2.2 13.82
1/11/2017 8:15:00 AM 0 32 0.093 6.34 3.3 13.86
1/11/2017 8:30:00 AM 0.01 32.018 0.093 6.34 1.9 13.91
1/11/2017 8:45:00 AM 0.02 32.036 0.092 6.34 2.1 13.97
1/11/2017 9:00:00 AM 0.03 32.054 0.092 6.35 2.3 14.02
1/11/2017 9:15:00 AM 0.04 32.072 0.092 6.38 1.7 14.07
1/11/2017 9:30:00 AM 0.06 32.108 0.092 6.37 1.8 14.1
1/11/2017 9:45:00 AM 0.08 32.144 0.092 6.41 2 14.13
1/11/2017 10:00:00 AM 0.11 32.198 0.092 6.38 1.9 14.16
1/11/2017 10:15:00 AM 0.14 32.252 0.092 6.42 1.8 14.16
1/11/2017 10:30:00 AM 0.16 32.288 0.092 6.41 2 14.18
1/11/2017 10:45:00 AM 0.19 32.342 0.091 6.41 1.9 14.18
1/11/2017 11:00:00 AM 0.21 32.378 0.091 6.44 2.5 14.18
1/11/2017 11:15:00 AM 0.21 32.378 0.091 6.45 2.4 14.19
1/11/2017 11:30:00 AM 0.2 32.36 0.091 6.32 2.6 14.19
1/11/2017 11:45:00 AM 0.24 32.432 0.091 6.41 2.6 14.19
1/11/2017 12:00:00 PM 0.24 32.432 0.091 6.41 2.7 14.2
1/11/2017 12:15:00 PM 0.24 32.432 0.09 6.42 2.4 14.19
1/11/2017 12:30:00 PM 0.26 32.468 0.09 6.45 3.8 14.2
1/11/2017 12:45:00 PM 0.25 32.45 0.09 6.44 5.1 14.2
1/11/2017 1:00:00 PM 0.25 32.45 0.09 6.44 5.4 14.2
1/11/2017 1:15:00 PM 0.26 32.468 0.09 6.44 5.6 14.21
1/11/2017 1:30:00 PM 0.26 32.468 0.09 6.47 5.2 14.21
1/11/2017 1:45:00 PM 0.25 32.45 0.09 6.48 5 14.22
1/11/2017 2:00:00 PM 0.21 32.378 0.09 6.48 5.8 14.22
1/11/2017 2:15:00 PM 0.2 32.36 0.09 6.48 7 14.24
1/11/2017 2:30:00 PM 0.2 32.36 0.09 6.49 7.4 14.25
1/11/2017 2:45:00 PM 0.19 32.342 0.09 6.46 7.5 14.26
1/11/2017 3:00:00 PM 0.18 32.324 0.09 6.47 6.2 14.26
1/11/2017 3:15:00 PM 0.17 32.306 0.09 6.38 6.7 14.26
1/11/2017 3:30:00 PM 0.16 32.288 0.09 6.44 6 14.25
1/11/2017 3:45:00 PM 0.14 32.252 0.09 6.46 6.1 14.27
1/11/2017 4:00:00 PM 0.13 32.234 0.09 6.46 5.7 14.26
1/11/2017 4:15:00 PM 0.12 32.216 0.09 6.46 4.8 14.23
1/11/2017 4:30:00 PM 0.11 32.198 0.09 6.48 4.9 14.19
1/11/2017 4:45:00 PM 0.1 32.18 0.091 6.45 6.2 14.15
1/11/2017 5:00:00 PM 0.09 32.162 0.091 6.44 5.2 14.1
1/11/2017 5:15:00 PM 0.09 32.162 0.091 6.46 4.9 14.06
1/11/2017 5:30:00 PM 0.08 32.144 0.092 6.46 4.9 14.02
1/11/2017 5:45:00 PM 0.1 32.18 0.092 6.43 4.4 13.98
1/11/2017 6:00:00 PM 0.1 32.18 0.093 6.45 4.5 13.94
1/11/2017 6:15:00 PM 0.11 32.198 0.093 6.45 4.6 13.92
1/11/2017 6:30:00 PM 0.11 32.198 0.094 6.42 4.1 13.89
1/11/2017 6:45:00 PM 0.1 32.18 0.094 6.44 4.8 13.88
1/11/2017 7:00:00 PM 0.1 32.18 0.095 6.32 4.3 13.85
1/11/2017 7:15:00 PM 0.1 32.18 0.095 6.41 4.1 13.85
1/11/2017 7:30:00 PM 0.1 32.18 0.095 6.43 4.6 13.84
1/11/2017 7:45:00 PM 0.11 32.198 0.096 6.41 4.2 13.82
1/11/2017 8:00:00 PM 0.11 32.198 0.096 6.41 4.1 13.82
1/11/2017 8:15:00 PM 0.11 32.198 0.096 6.43 5.1 13.81
1/11/2017 8:30:00 PM 0.11 32.198 0.096 6.44 10.3 13.81
1/11/2017 8:45:00 PM 0.11 32.198 0.096 6.41 5.9 13.81
1/11/2017 9:00:00 PM 0.12 32.216 0.096 6.43 4.4 13.8
1/11/2017 9:15:00 PM 0.14 32.252 0.097 6.4 3.6 13.79
1/11/2017 9:30:00 PM 0.15 32.27 0.097 6.4 3.7 13.8
1/11/2017 9:45:00 PM 0.18 32.324 0.098 6.42 3.8 13.78
1/11/2017 10:00:00 PM 0.2 32.36 0.099 6.42 4.9 13.8
1/11/2017 10:15:00 PM 0.21 32.378 0.1 6.4 6 13.78
1/11/2017 10:30:00 PM 0.21 32.378 0.101 6.39 7.4 13.77
1/11/2017 10:45:00 PM 0.2 32.36 0.102 6.3 7.2 13.77
1/11/2017 11:00:00 PM 0.2 32.36 0.103 6.36 7 13.77
1/11/2017 11:15:00 PM 0.19 32.342 0.104 6.41 6.2 13.77
1/11/2017 11:30:00 PM 0.18 32.324 0.104 6.42 7.2 13.78
1/11/2017 11:45:00 PM 0.18 32.324 0.105 6.42 10.9 13.77
1/12/2017 12:00:00 AM 0.18 32.324 0.106 6.42 10.8 13.76
1/12/2017 12:15:00 AM 0.18 32.324 0.107 6.4 9.7 13.76
1/12/2017 12:30:00 AM 0.19 32.342 0.107 6.39 8.7 13.75
1/12/2017 12:45:00 AM 0.19 32.342 0.106 6.4 7.8 13.76
1/12/2017 1:00:00 AM 0.19 32.342 0.106 6.39 8.7 13.75
1/12/2017 1:15:00 AM 0.19 32.342 0.105 6.4 8.5 13.75
1/12/2017 1:30:00 AM 0.19 32.342 0.105 6.43 8.3 13.74
1/12/2017 1:45:00 AM 0.21 32.378 0.105 6.41 9.3 13.74
1/12/2017 2:00:00 AM 0.22 32.396 0.105 6.44 11 13.73
1/12/2017 2:15:00 AM 0.21 32.378 0.105 6.42 11.9 13.72
1/12/2017 2:30:00 AM 0.21 32.378 0.106 6.33 14.8 13.71
1/12/2017 2:45:00 AM 0.21 32.378 0.106 6.4 14.5 13.71
1/12/2017 3:00:00 AM 0.2 32.36 0.106 6.43 13 13.71
1/12/2017 3:15:00 AM 0.21 32.378 0.107 6.46 16.5 13.71
1/12/2017 3:30:00 AM 0.21 32.378 0.107 6.44 12.9 13.7
1/12/2017 3:45:00 AM 0.21 32.378 0.107 6.44 12.7 13.71
1/12/2017 4:00:00 AM 0.21 32.378 0.107 6.47 14.8 13.71
1/12/2017 4:15:00 AM 0.21 32.378 0.108 6.45 16.7 13.72
1/12/2017 4:30:00 AM 0.2 32.36 0.108 6.44 18.7 13.73
1/12/2017 4:45:00 AM 0.21 32.378 0.109 6.47 18.2 13.71
1/12/2017 5:00:00 AM 0.2 32.36 0.11 6.48 17.4 13.73
1/12/2017 5:15:00 AM 0.19 32.342 0.11 6.46 18.1 13.73
1/12/2017 5:30:00 AM 0.2 32.36 0.112 6.46 22.8 13.73
1/12/2017 5:45:00 AM 0.19 32.342 0.113 6.46 21.4 13.72
1/12/2017 6:00:00 AM 0.18 32.324 0.115 6.47 23.4 13.73
1/12/2017 6:15:00 AM 0.18 32.324 0.116 6.37 22.6 13.72
1/12/2017 6:30:00 AM 0.19 32.342 0.116 6.47 22.2 13.73
1/12/2017 6:45:00 AM 0.19 32.342 0.116 6.5 23.4 13.72
1/12/2017 7:00:00 AM 0.19 32.342 0.115 6.5 24.2 13.73
1/12/2017 7:15:00 AM 0.2 32.36 0.114 6.48 25.2 13.73
1/12/2017 7:30:00 AM 0.21 32.378 0.113 6.47 25.3 13.73
1/12/2017 7:45:00 AM 0.21 32.378 0.113 6.5 23.2 13.74
1/12/2017 8:00:00 AM 0.22 32.396 0.112 6.48 24.3 13.74
1/12/2017 8:15:00 AM 0.24 32.432 0.112 6.5 21.2 13.77
1/12/2017 8:30:00 AM 0.25 32.45 0.112 6.48 27 13.78
1/12/2017 8:45:00 AM 0.27 32.486 0.112 6.48 30.1 13.79
1/12/2017 9:00:00 AM 0.27 32.486 0.112 6.51 29.8 13.83
1/12/2017 9:15:00 AM 0.28 32.504 0.113 6.5 25.4 13.85
1/12/2017 9:30:00 AM 0.29 32.522 0.113 6.53 27.5 13.85
1/12/2017 9:45:00 AM 0.29 32.522 0.112 6.51 30.9 13.86
1/12/2017 10:00:00 AM 0.28 32.504 0.112 6.41 38.7 13.86
1/12/2017 10:15:00 AM 0.29 32.522 0.111 6.5 44.6 13.87
1/12/2017 10:30:00 AM 0.29 32.522 0.111 6.53 43.8 13.89
1/12/2017 10:45:00 AM 0.3 32.54 0.11 6.54 37.4 13.9
1/12/2017 11:00:00 AM 0.34 32.612 0.11 6.52 43.9 13.9
1/12/2017 11:15:00 AM 0.34 32.612 0.109 6.55 60.9 13.89
1/12/2017 11:30:00 AM 0.34 32.612 0.108 6.55 65.1 13.89
1/12/2017 11:45:00 AM 0.34 32.612 0.107 6.55 80.1 13.89
1/12/2017 12:00:00 PM 0.35 32.63 0.106 6.56 57.3 13.92
1/12/2017 12:15:00 PM 0.36 32.648 0.105 6.55 60.4 13.92
1/12/2017 12:30:00 PM 0.38 32.684 0.105 6.53 77.9 13.93
1/12/2017 12:45:00 PM 0.39 32.702 0.105 6.56 55.7 13.93
1/12/2017 1:00:00 PM 0.41 32.738 0.105 6.56 74.1 13.92
1/12/2017 1:15:00 PM 0.4 32.72 0.105 6.57 106.5 13.9
1/12/2017 1:30:00 PM 0.38 32.684 0.104 6.54 103.3 13.88
1/12/2017 1:45:00 PM 0.33 32.594 0.102 6.42 102.6 13.9
1/12/2017 2:00:00 PM 0.32 32.576 0.1 6.52 89.8 13.89
1/12/2017 2:15:00 PM 0.3 32.54 0.099 6.54 100.7 13.88
1/12/2017 2:30:00 PM 0.28 32.504 0.099 6.51 113.3 13.86
1/12/2017 2:45:00 PM 0.27 32.486 0.098 6.51 94.6 13.85
1/12/2017 3:00:00 PM 0.26 32.468 0.097 6.53 127.8 13.84
1/12/2017 3:15:00 PM 0.27 32.486 0.096 6.5 116.7 13.82
1/12/2017 3:30:00 PM 0.28 32.504 0.095 6.48 135.3 13.83
1/12/2017 3:45:00 PM 0.28 32.504 0.094 6.5 144.1 13.82
1/12/2017 4:00:00 PM 0.29 32.522 0.094 6.51 109.5 13.83
1/12/2017 4:15:00 PM 0.26 32.468 0.093 6.49 193.1 13.81
1/12/2017 4:30:00 PM 0.26 32.468 0.093 6.46 183.9 13.81
1/12/2017 4:45:00 PM 0.28 32.504 0.092 6.48 196.1 13.81
1/12/2017 5:00:00 PM 0.33 32.594 0.09 6.45 233 13.8
1/12/2017 5:15:00 PM 0.33 32.594 0.089 6.47 250.9 13.8
1/12/2017 5:30:00 PM 0.32 32.576 0.087 6.37 239.8 13.84
1/12/2017 5:45:00 PM 0.31 32.558 0.086 6.42 249.4 13.77
1/12/2017 6:00:00 PM 0.3 32.54 0.085 6.46 348.2 13.78
1/12/2017 6:15:00 PM 0.31 32.558 0.083 6.43 434.3 13.81
1/12/2017 6:30:00 PM 0.31 32.558 0.082 6.44 497.9 13.82
1/12/2017 6:45:00 PM 0.32 32.576 0.08 6.41 405.3 13.9
1/12/2017 7:00:00 PM 0.31 32.558 0.078 6.41 389.7 13.92
1/12/2017 7:15:00 PM 0.29 32.522 0.077 6.39 448.9 13.96
1/12/2017 7:30:00 PM 0.28 32.504 0.077 6.39 467.5 13.99
1/12/2017 7:45:00 PM 0.27 32.486 0.076 6.38 475.5 13.99
1/12/2017 8:00:00 PM 0.26 32.468 0.075 6.37 318 14.04
1/12/2017 8:15:00 PM 0.25 32.45 0.073 6.35 297.7 14.03
1/12/2017 8:30:00 PM 0.25 32.45 0.072 6.36 279.2 14.03
1/12/2017 8:45:00 PM 0.25 32.45 0.07 6.36 253.7 14.06
1/12/2017 9:00:00 PM 0.26 32.468 0.069 6.32 256.9 14.06
1/12/2017 9:15:00 PM 0.28 32.504 0.068 6.2 208.4 14.02
1/12/2017 9:30:00 PM 0.29 32.522 0.068 6.25 186.8 14.04
1/12/2017 9:45:00 PM 0.31 32.558 0.068 6.29 192.1 14.05
1/12/2017 10:00:00 PM 0.35 32.63 0.068 6.26 162.7 14.03
1/12/2017 10:15:00 PM 0.38 32.684 0.068 6.28 153.5 14.03
1/12/2017 10:30:00 PM 0.4 32.72 0.068 6.31 126.9 14.01
1/12/2017 10:45:00 PM 0.44 32.792 0.068 6.28 118 14.01
1/12/2017 11:00:00 PM 0.48 32.864 0.068 6.27 141.6 14
1/12/2017 11:15:00 PM 0.51 32.918 0.068 6.29 126.2 13.99
1/12/2017 11:30:00 PM 0.53 32.954 0.068 6.27 100.5 13.98
1/12/2017 11:45:00 PM 0.56 33.008 0.068 6.28 113.8 13.97
1/13/2017 12:00:00 AM 0.59 33.062 0.068 6.28 91.8 13.96
1/13/2017 12:15:00 AM 0.61 33.098 0.068 6.27 102.2 13.96
1/13/2017 12:30:00 AM 0.63 33.134 0.068 6.26 95.4 13.94
1/13/2017 12:45:00 AM 0.66 33.188 0.068 6.27 76.9 13.94
1/13/2017 1:00:00 AM 0.68 33.224 0.068 6.23 78.3 13.93
1/13/2017 1:15:00 AM 0.7 33.26 0.068 6.26 97.1 13.92
1/13/2017 1:30:00 AM 0.72 33.296 0.068 6.29 64.4 13.92
1/13/2017 1:45:00 AM 0.73 33.314 0.068 6.29 71.4 13.91
1/13/2017 2:00:00 AM 0.74 33.332 0.068 6.29 78.8 13.91
1/13/2017 2:15:00 AM 0.75 33.35 0.068 6.28 64.4 13.91
1/13/2017 2:30:00 AM 0.76 33.368 0.069 6.28 59 13.9
1/13/2017 2:45:00 AM 0.77 33.386 0.069 6.27 57.1 13.9
1/13/2017 3:00:00 AM 0.77 33.386 0.069 6.28 61.6 13.9
1/13/2017 3:15:00 AM 0.79 33.422 0.069 6.29 54.6 13.9
1/13/2017 3:30:00 AM 0.8 33.44 0.069 6.27 56.1 13.89
1/13/2017 3:45:00 AM 0.81 33.458 0.069 6.28 55.9 13.9
1/13/2017 4:00:00 AM 0.82 33.476 0.069 6.26 54.4 13.89
1/13/2017 4:15:00 AM 0.83 33.494 0.069 6.25 50.2 13.89
1/13/2017 4:30:00 AM 0.83 33.494 0.069 6.27 46.5 13.89
1/13/2017 4:45:00 AM 0.84 33.512 0.069 6.23 47.6 13.88
1/13/2017 5:00:00 AM 0.84 33.512 0.07 6.24 41.1 13.88
1/13/2017 5:15:00 AM 0.83 33.494 0.07 6.26 38 13.88
1/13/2017 5:30:00 AM 0.83 33.494 0.07 6.26 40 13.88
1/13/2017 5:45:00 AM 0.83 33.494 0.07 6.27 38.5 13.89
1/13/2017 6:00:00 AM 0.83 33.494 0.07 6.27 41.2 13.89
1/13/2017 6:15:00 AM 0.82 33.476 0.07 6.27 36.4 13.88
1/13/2017 6:30:00 AM 0.81 33.458 0.07 6.28 31.3 13.89
1/13/2017 6:45:00 AM 0.8 33.44 0.07 6.27 35.9 13.9
1/13/2017 7:00:00 AM 0.79 33.422 0.071 6.28 34.1 13.91
1/13/2017 7:15:00 AM 0.78 33.404 0.071 6.27 30.8 13.91
1/13/2017 7:30:00 AM 0.76 33.368 0.071 6.27 32.6 13.92
1/13/2017 7:45:00 AM 0.73 33.314 0.071 6.27 37.5 13.95
1/13/2017 8:00:00 AM 0.72 33.296 0.071 6.27 36.4 13.94
1/13/2017 8:15:00 AM 0.71 33.278 0.071 6.27 30 13.97
1/13/2017 8:30:00 AM 0.7 33.26 0.071 6.21 28 14.1
1/13/2017 8:45:00 AM 0.7 33.26 0.071 6.26 27.3 13.99
1/13/2017 9:00:00 AM 0.7 33.26 0.071 6.28 29 13.97
1/13/2017 9:15:00 AM 0.69 33.242 0.071 6.3 27.7 13.95
1/13/2017 9:30:00 AM 0.67 33.206 0.071 6.32 26.1 13.94
1/13/2017 9:45:00 AM 0.69 33.242 0.072 6.31 29.6 13.94
1/13/2017 10:00:00 AM 0.75 33.35 0.072 6.32 24.6 13.92
1/13/2017 10:15:00 AM 0.79 33.422 0.072 6.31 20.8 13.93
1/13/2017 10:30:00 AM 0.79 33.422 0.072 6.3 22.3 13.95
1/13/2017 10:45:00 AM 0.9 33.62 0.072 6.33 22.3 13.93
1/13/2017 11:00:00 AM 0.95 33.71 0.072 6.34 24.5 13.94
1/13/2017 11:15:00 AM 0.99 33.782 0.072 6.32 21 13.93
1/13/2017 11:30:00 AM 1.04 33.872 0.072 6.32 20.2 13.93
1/13/2017 11:45:00 AM 1.1 33.98 0.072 6.35 20.2 13.93
1/13/2017 12:00:00 PM 1.15 34.07 0.072 6.34 23.7 13.93
1/13/2017 12:15:00 PM 1.21 34.178 0.072 6.21 19.5 13.89
1/13/2017 12:30:00 PM 1.29 34.322 0.072 6.29 17.8 14.01
1/13/2017 12:45:00 PM 1.34 34.412 0.072 6.31 19.6 13.98
1/13/2017 1:00:00 PM 1.41 34.538 0.072 6.31 20.6 13.97
1/13/2017 1:15:00 PM 1.48 34.664 0.073 6.31 18.5 13.94
1/13/2017 1:30:00 PM 1.5 34.7 0.073 6.33 19 13.93
1/13/2017 1:45:00 PM 1.5 34.7 0.073 6.33 19.4 13.9
1/13/2017 2:00:00 PM 1.5 34.7 0.073 6.34 15.9 13.91
1/13/2017 2:15:00 PM 1.5 34.7 0.073 6.32 16.3 13.89
1/13/2017 2:30:00 PM 1.5 34.7 0.073 6.32 22.4 13.88
1/13/2017 2:45:00 PM 1.49 34.682 0.073 6.33 17.8 13.88
1/13/2017 3:00:00 PM 1.47 34.646 0.073 6.35 19.3 13.87
1/13/2017 3:15:00 PM 1.44 34.592 0.073 6.35 17.2 13.87
1/13/2017 3:30:00 PM 1.38 34.484 0.073 6.33 18.1 13.87
1/13/2017 3:45:00 PM 1.32 34.376 0.073 6.32 18.3 13.89
1/13/2017 4:00:00 PM 1.27 34.286 0.073 6.26 16.9 13.93
1/13/2017 4:15:00 PM 1.23 34.214 0.073 6.31 18.1 13.89
1/13/2017 4:30:00 PM 1.19 34.142 0.073 6.36 19.1 13.88
1/13/2017 4:45:00 PM 1.14 34.052 0.073 6.35 16.4 13.88
1/13/2017 5:00:00 PM 1.07 33.926 0.073 6.33 20.3 13.89
1/13/2017 5:15:00 PM 1 33.8 0.073 6.34 13.9 13.9
1/13/2017 5:30:00 PM 0.92 33.656 0.074 6.33 15.8 13.89
1/13/2017 5:45:00 PM 0.84 33.512 0.074 6.33 13.9 13.92
1/13/2017 6:00:00 PM 0.78 33.404 0.074 6.32 15.9 13.93
1/13/2017 6:15:00 PM 0.71 33.278 0.074 6.35 16.1 13.95
1/13/2017 6:30:00 PM 0.66 33.188 0.074 6.32 15.6 13.95
1/13/2017 6:45:00 PM 0.61 33.098 0.074 6.31 13.9 13.96
1/13/2017 7:00:00 PM 0.56 33.008 0.074 6.33 14.2 13.99
1/13/2017 7:15:00 PM 0.51 32.918 0.074 6.31 13.8 14.01
1/13/2017 7:30:00 PM 0.47 32.846 0.074 6.18 14.1 14
1/13/2017 7:45:00 PM 0.42 32.756 0.074 6.26 15.1 14.09
1/13/2017 8:00:00 PM 0.38 32.684 0.074 6.29 13.5 14.11
1/13/2017 8:15:00 PM 0.34 32.612 0.074 6.27 16.1 14.13
1/13/2017 8:30:00 PM 0.3 32.54 0.074 6.28 14.4 14.15
1/13/2017 8:45:00 PM 0.26 32.468 0.074 6.27 13.9 14.16
1/13/2017 9:00:00 PM 0.23 32.414 0.074 6.26 13.1 14.18
1/13/2017 9:15:00 PM 0.2 32.36 0.074 6.27 12.2 14.2
1/13/2017 9:30:00 PM 0.18 32.324 0.074 6.27 12.1 14.2
1/13/2017 9:45:00 PM 0.15 32.27 0.074 6.26 12.2 14.22
1/13/2017 10:00:00 PM 0.13 32.234 0.075 6.29 13.2 14.22
1/13/2017 10:15:00 PM 0.11 32.198 0.075 6.27 10.6 14.25
1/13/2017 10:30:00 PM 0.09 32.162 0.075 6.29 11.5 14.24
1/13/2017 10:45:00 PM 0.06 32.108 0.075 6.29 11.3 14.25
1/13/2017 11:00:00 PM 0.04 32.072 0.075 6.29 13.1 14.26
1/13/2017 11:15:00 PM 0.02 32.036 0.075 6.2 13.6 14.25
1/13/2017 11:30:00 PM 0.01 32.018 0.075 6.27 11.9 14.27
1/13/2017 11:45:00 PM 0 32 0.075 6.26 9.9 14.24
1/14/2017 12:00:00 AM 0.01 32.018 0.075 6.29 9.9 14.25
1/14/2017 12:15:00 AM 0.01 32.018 0.075 6.3 11 14.25
1/14/2017 12:30:00 AM 0.02 32.036 0.075 6.29 11.7 14.27
1/14/2017 12:45:00 AM 0.02 32.036 0.075 6.26 11.4 14.27
1/14/2017 1:00:00 AM 0.01 32.018 0.075 6.3 10.6 14.27
1/14/2017 1:15:00 AM 0.01 32.018 0.075 6.26 12 14.27
1/14/2017 1:30:00 AM 0.01 32.018 0.075 6.29 9.7 14.26
1/14/2017 1:45:00 AM 0 32 0.076 6.27 10.3 14.28
1/14/2017 2:00:00 AM -0.01 31.982 0.076 6.3 11.6 14.28
1/14/2017 2:15:00 AM -0.03 31.946 0.076 6.3 9.4 14.29
1/14/2017 2:30:00 AM -0.04 31.928 0.076 6.31 11 14.28
1/14/2017 2:45:00 AM -0.05 31.91 0.076 6.28 10.2 14.28
1/14/2017 3:00:00 AM -0.06 31.892 0.076 6.19 9.1 14.28
1/14/2017 3:15:00 AM -0.06 31.892 0.076 6.26 9.2 14.32
1/14/2017 3:30:00 AM -0.06 31.892 0.076 6.28 10.3 14.31
1/14/2017 3:45:00 AM -0.05 31.91 0.076 6.28 10.1 14.33
1/14/2017 4:00:00 AM -0.05 31.91 0.076 6.3 12.1 14.33
1/14/2017 4:15:00 AM -0.05 31.91 0.075 6.28 10.2 14.32
1/14/2017 4:30:00 AM -0.04 31.928 0.075 6.3 11.8 14.31
1/14/2017 4:45:00 AM -0.04 31.928 0.075 6.3 14.3 14.3
1/14/2017 5:00:00 AM -0.03 31.946 0.075 6.3 12.9 14.29
1/14/2017 5:15:00 AM -0.03 31.946 0.075 6.28 11.4 14.29
1/14/2017 5:30:00 AM -0.04 31.928 0.076 6.28 11.1 14.27
1/14/2017 5:45:00 AM -0.03 31.946 0.075 6.3 12.3 14.29
1/14/2017 6:00:00 AM -0.03 31.946 0.076 6.29 10.4 14.27
1/14/2017 6:15:00 AM -0.03 31.946 0.076 6.29 14 14.28
1/14/2017 6:30:00 AM -0.03 31.946 0.076 6.29 12.9 14.27
1/14/2017 6:45:00 AM -0.03 31.946 0.076 6.19 8.4 14.25
1/14/2017 7:00:00 AM -0.03 31.946 0.076 6.25 8.1 14.26
1/14/2017 7:15:00 AM -0.04 31.928 0.076 6.3 8.7 14.26
1/14/2017 7:30:00 AM -0.04 31.928 0.076 6.28 7.7 14.27
1/14/2017 7:45:00 AM -0.04 31.928 0.076 6.29 8.8 14.27
1/14/2017 8:00:00 AM -0.03 31.946 0.075 6.3 7.4 14.29
1/14/2017 8:15:00 AM -0.02 31.964 0.075 6.32 11.3 14.29
1/14/2017 8:30:00 AM 0 32 0.076 6.33 8.7 14.3
1/14/2017 8:45:00 AM 0.05 32.09 0.077 6.31 7.4 14.32
1/14/2017 9:00:00 AM 0.09 32.162 0.077 6.3 8.3 14.32
1/14/2017 9:15:00 AM 0.13 32.234 0.077 6.33 8.1 14.33
1/14/2017 9:30:00 AM 0.18 32.324 0.077 6.33 9 14.33
1/14/2017 9:45:00 AM 0.22 32.396 0.077 6.32 8.1 14.35
1/14/2017 10:00:00 AM 0.26 32.468 0.077 6.33 7.6 14.33
1/14/2017 10:15:00 AM 0.29 32.522 0.077 6.33 7.5 14.33
1/14/2017 10:30:00 AM 0.33 32.594 0.077 6.25 7.4 14.31
1/14/2017 10:45:00 AM 0.36 32.648 0.077 6.31 8.6 14.32
1/14/2017 11:00:00 AM 0.37 32.666 0.077 6.33 6.8 14.31
1/14/2017 11:15:00 AM 0.4 32.72 0.077 6.34 7.1 14.3
1/14/2017 11:30:00 AM 0.42 32.756 0.077 6.36 6.9 14.29
1/14/2017 11:45:00 AM 0.43 32.774 0.077 6.37 8.4 14.26
1/14/2017 12:00:00 PM 0.46 32.828 0.077 6.36 7.3 14.25
1/14/2017 12:15:00 PM 0.49 32.882 0.077 6.37 6.5 14.24
1/14/2017 12:30:00 PM 0.52 32.936 0.077 6.36 7.2 14.22
1/14/2017 12:45:00 PM 0.56 33.008 0.077 6.36 6.6 14.2
1/14/2017 1:00:00 PM 0.59 33.062 0.077 6.37 7 14.19
1/14/2017 1:15:00 PM 0.64 33.152 0.077 6.39 7.7 14.18
1/14/2017 1:30:00 PM 0.67 33.206 0.077 6.36 6.5 14.16
1/14/2017 1:45:00 PM 0.7 33.26 0.077 6.36 6 14.15
1/14/2017 2:00:00 PM 0.72 33.296 0.077 6.39 6.4 14.12
1/14/2017 2:15:00 PM 0.75 33.35 0.077 6.27 7.3 14.1
1/14/2017 2:30:00 PM 0.77 33.386 0.077 6.36 6.9 14.08
1/14/2017 2:45:00 PM 0.78 33.404 0.077 6.39 6.4 14.08
1/14/2017 3:00:00 PM 0.8 33.44 0.077 6.39 7.4 14.07
1/14/2017 3:15:00 PM 0.81 33.458 0.077 6.37 6.8 14.05
1/14/2017 3:30:00 PM 0.81 33.458 0.077 6.36 6.4 14.03
1/14/2017 3:45:00 PM 0.82 33.476 0.077 6.36 7 14.01
1/14/2017 4:00:00 PM 0.82 33.476 0.077 6.39 7.1 14.01
1/14/2017 4:15:00 PM 0.81 33.458 0.077 6.36 8.2 13.98
1/14/2017 4:30:00 PM 0.81 33.458 0.077 6.36 6.2 13.98
1/14/2017 4:45:00 PM 0.81 33.458 0.077 6.38 6.5 13.94
1/14/2017 5:00:00 PM 0.8 33.44 0.077 6.35 6.3 13.93
1/14/2017 5:15:00 PM 0.79 33.422 0.077 6.37 6.7 13.91
1/14/2017 5:30:00 PM 0.78 33.404 0.077 6.37 7.1 13.91
1/14/2017 5:45:00 PM 0.79 33.422 0.077 6.35 6.8 13.88
1/14/2017 6:00:00 PM 0.78 33.404 0.077 6.3 6.4 13.89
1/14/2017 6:15:00 PM 0.77 33.386 0.077 6.35 6.4 13.87
1/14/2017 6:30:00 PM 0.77 33.386 0.077 6.34 7.1 13.87
1/14/2017 6:45:00 PM 0.76 33.368 0.077 6.35 7 13.86
1/14/2017 7:00:00 PM 0.76 33.368 0.077 6.36 6.5 13.88
1/14/2017 7:15:00 PM 0.76 33.368 0.077 6.35 7.4 13.87
1/14/2017 7:30:00 PM 0.75 33.35 0.077 6.33 6.4 13.86
1/14/2017 7:45:00 PM 0.75 33.35 0.077 6.33 6.1 13.86
1/14/2017 8:00:00 PM 0.74 33.332 0.077 6.36 6.3 13.85
1/14/2017 8:15:00 PM 0.74 33.332 0.077 6.33 6.8 13.85
1/14/2017 8:30:00 PM 0.73 33.314 0.077 6.33 7 13.86
1/14/2017 8:45:00 PM 0.73 33.314 0.077 6.34 7 13.86
1/14/2017 9:00:00 PM 0.72 33.296 0.077 6.33 6.3 13.88
1/14/2017 9:15:00 PM 0.7 33.26 0.077 6.36 6.4 13.85
1/14/2017 9:30:00 PM 0.7 33.26 0.077 6.35 7.4 13.86
1/14/2017 9:45:00 PM 0.68 33.224 0.077 6.3 6.4 13.87
1/14/2017 10:00:00 PM 0.66 33.188 0.077 6.35 6.7 13.88
1/14/2017 10:15:00 PM 0.66 33.188 0.077 6.33 6.4 13.88
1/14/2017 10:30:00 PM 0.64 33.152 0.077 6.34 6.3 13.89
1/14/2017 10:45:00 PM 0.61 33.098 0.077 6.34 7.3 13.89
1/14/2017 11:00:00 PM 0.57 33.026 0.077 6.32 6.1 13.89
1/14/2017 11:15:00 PM 0.54 32.972 0.077 6.35 6.3 13.9
1/14/2017 11:30:00 PM 0.5 32.9 0.077 6.35 6.7 13.91
1/14/2017 11:45:00 PM 0.46 32.828 0.077 6.34 6.1 13.93
1/15/2017 12:00:00 AM 0.42 32.756 0.077 6.34 6.4 13.93
1/15/2017 12:15:00 AM 0.38 32.684 0.077 6.32 6.5 13.93
1/15/2017 12:30:00 AM 0.34 32.612 0.077 6.34 6.5 13.95
1/15/2017 12:45:00 AM 0.3 32.54 0.077 6.34 6.9 13.95
1/15/2017 1:00:00 AM 0.26 32.468 0.078 6.35 8 13.97
1/15/2017 1:15:00 AM 0.22 32.396 0.078 6.34 5.8 14.01
1/15/2017 1:30:00 AM 0.18 32.324 0.078 6.24 6.2 13.99
1/15/2017 1:45:00 AM 0.15 32.27 0.078 6.31 5.9 14.01
1/15/2017 2:00:00 AM 0.12 32.216 0.078 6.3 6.1 14.02
1/15/2017 2:15:00 AM 0.08 32.144 0.078 6.3 6 14.03
1/15/2017 2:30:00 AM 0.05 32.09 0.078 6.32 6 14.05
1/15/2017 2:45:00 AM 0.02 32.036 0.078 6.33 6 14.07
1/15/2017 3:00:00 AM -0.01 31.982 0.078 6.31 5.6 14.07
1/15/2017 3:15:00 AM -0.04 31.928 0.078 6.3 6.8 14.08
1/15/2017 3:30:00 AM -0.07 31.874 0.078 6.3 5.9 14.1
1/15/2017 3:45:00 AM -0.07 31.874 0.077 6.33 6.6 14.16
1/15/2017 4:00:00 AM -0.05 31.91 0.076 6.31 6.1 14.18
1/15/2017 4:15:00 AM -0.05 31.91 0.076 6.3 6.3 14.16
1/15/2017 4:30:00 AM -0.05 31.91 0.076 6.3 6.2 14.16
1/15/2017 4:45:00 AM -0.05 31.91 0.077 6.32 5.8 14.17
1/15/2017 5:00:00 AM -0.04 31.928 0.075 6.32 6.6 14.17
1/15/2017 5:15:00 AM -0.04 31.928 0.074 6.2 6.4 14.15
1/15/2017 5:30:00 AM -0.04 31.928 0.076 6.25 6.2 14.16
1/15/2017 5:45:00 AM -0.04 31.928 0.076 6.29 5.9 14.15
1/15/2017 6:00:00 AM -0.04 31.928 0.076 6.29 7.1 14.17
1/15/2017 6:15:00 AM -0.04 31.928 0.075 6.31 5.3 14.16
1/15/2017 6:30:00 AM -0.04 31.928 0.076 6.29 6.1 14.15
1/15/2017 6:45:00 AM -0.04 31.928 0.076 6.28 5.3 14.16
1/15/2017 7:00:00 AM -0.04 31.928 0.076 6.25 6.1 14.15
1/15/2017 7:15:00 AM -0.04 31.928 0.076 6.27 6.4 14.16
1/15/2017 7:30:00 AM -0.04 31.928 0.075 6.26 5.4 14.16
1/15/2017 7:45:00 AM -0.04 31.928 0.075 6.25 6.1 14.18
1/15/2017 8:00:00 AM -0.04 31.928 0.074 6.25 5.5 14.19
1/15/2017 8:15:00 AM -0.04 31.928 0.073 6.26 5.6 14.2
1/15/2017 8:30:00 AM -0.04 31.928 0.073 6.26 6.2 14.2
1/15/2017 8:45:00 AM -0.03 31.946 0.073 6.25 4.9 14.2
1/15/2017 9:00:00 AM -0.03 31.946 0.073 6.18 5.8 14.21
1/15/2017 9:15:00 AM -0.03 31.946 0.074 6.26 5.8 14.23
1/15/2017 9:30:00 AM -0.03 31.946 0.074 6.33 5.5 14.24
1/15/2017 9:45:00 AM -0.03 31.946 0.075 6.32 6.3 14.25
1/15/2017 10:00:00 AM -0.02 31.964 0.076 6.31 6.4 14.26
1/15/2017 10:15:00 AM 0.02 32.036 0.077 6.36 5.5 14.26
1/15/2017 10:30:00 AM 0.08 32.144 0.079 6.33 5.8 14.27
1/15/2017 10:45:00 AM 0.1 32.18 0.08 6.34 5.5 14.28
1/15/2017 11:00:00 AM 0.15 32.27 0.08 6.38 5.2 14.28
1/15/2017 11:15:00 AM 0.2 32.36 0.08 6.39 5.1 14.28
1/15/2017 11:30:00 AM 0.22 32.396 0.08 6.37 5.7 14.28
1/15/2017 11:45:00 AM 0.23 32.414 0.08 6.39 5.9 14.28
1/15/2017 12:00:00 PM 0.23 32.414 0.08 6.38 5.7 14.29
1/15/2017 12:15:00 PM 0.24 32.432 0.079 6.4 5.8 14.3
1/15/2017 12:30:00 PM 0.25 32.45 0.079 6.4 5.9 14.28
1/15/2017 12:45:00 PM 0.27 32.486 0.079 6.3 5.9 14.27
1/15/2017 1:00:00 PM 0.31 32.558 0.079 6.35 5.2 14.26
1/15/2017 1:15:00 PM 0.33 32.594 0.079 6.38 6.1 14.27
1/15/2017 1:30:00 PM 0.39 32.702 0.079 6.41 5.6 14.25
1/15/2017 1:45:00 PM 0.43 32.774 0.079 6.39 5.2 14.24
1/15/2017 2:00:00 PM 0.48 32.864 0.079 6.4 5.1 14.22
1/15/2017 2:15:00 PM 0.52 32.936 0.079 6.4 5.7 14.2
1/15/2017 2:30:00 PM 0.58 33.044 0.079 6.42 5.9 14.17
1/15/2017 2:45:00 PM 0.63 33.134 0.079 6.42 5.2 14.14
1/15/2017 3:00:00 PM 0.67 33.206 0.079 6.4 5.7 14.12
1/15/2017 3:15:00 PM 0.7 33.26 0.079 6.43 5.9 14.11
1/15/2017 3:30:00 PM 0.72 33.296 0.079 6.4 5.4 14.07
1/15/2017 3:45:00 PM 0.75 33.35 0.079 6.4 5.1 14.06
1/15/2017 4:00:00 PM 0.76 33.368 0.079 6.4 5.4 14.04
1/15/2017 4:15:00 PM 0.78 33.404 0.079 6.39 5.7 14.03
1/15/2017 4:30:00 PM 0.79 33.422 0.079 6.31 5.5 13.99
1/15/2017 4:45:00 PM 0.78 33.404 0.079 6.38 5.4 13.98
1/15/2017 5:00:00 PM 0.77 33.386 0.079 6.38 5.3 13.97
1/15/2017 5:15:00 PM 0.76 33.368 0.079 6.4 5.1 13.95
1/15/2017 5:30:00 PM 0.74 33.332 0.079 6.4 5.2 13.92
1/15/2017 5:45:00 PM 0.71 33.278 0.079 6.38 5.5 13.92
1/15/2017 6:00:00 PM 0.67 33.206 0.079 6.37 5.1 13.9
1/15/2017 6:15:00 PM 0.62 33.116 0.079 6.39 5.1 13.9
1/15/2017 6:30:00 PM 0.57 33.026 0.079 6.36 5.3 13.9
1/15/2017 6:45:00 PM 0.52 32.936 0.079 6.38 4.8 13.9
1/15/2017 7:00:00 PM 0.47 32.846 0.079 6.35 4.8 13.92
1/15/2017 7:15:00 PM 0.42 32.756 0.079 6.34 5.1 13.94
1/15/2017 7:30:00 PM 0.37 32.666 0.079 6.37 4.6 13.95
1/15/2017 7:45:00 PM 0.32 32.576 0.079 6.34 6.1 13.96
1/15/2017 8:00:00 PM 0.27 32.486 0.079 6.36 5 13.98
1/15/2017 8:15:00 PM 0.23 32.414 0.079 6.26 5.2 13.99
1/15/2017 8:30:00 PM 0.18 32.324 0.079 6.33 5.1 14.02
1/15/2017 8:45:00 PM 0.13 32.234 0.079 6.35 5.9 14.03
1/15/2017 9:00:00 PM 0.08 32.144 0.079 6.33 5.1 14.06
1/15/2017 9:15:00 PM 0.04 32.072 0.079 6.33 5 14.07
1/15/2017 9:30:00 PM 0 32 0.079 6.34 5.1 14.09
1/15/2017 9:45:00 PM -0.04 31.928 0.079 6.33 5.1 14.11
1/15/2017 10:00:00 PM -0.07 31.874 0.079 6.34 5 14.15
1/15/2017 10:15:00 PM -0.07 31.874 0.079 6.36 5.3 14.15
1/15/2017 10:30:00 PM -0.05 31.91 0.077 6.32 5.7 14.18
1/15/2017 10:45:00 PM -0.04 31.928 0.077 6.36 6.5 14.2
1/15/2017 11:00:00 PM -0.04 31.928 0.077 6.36 5.9 14.22
1/15/2017 11:15:00 PM -0.04 31.928 0.077 6.36 6.3 14.23
1/15/2017 11:30:00 PM -0.04 31.928 0.078 6.33 5.3 14.23
1/15/2017 11:45:00 PM -0.04 31.928 0.077 6.34 5 14.21
1/16/2017 12:00:00 AM -0.04 31.928 0.077 6.24 5.6 14.19
1/16/2017 12:15:00 AM -0.04 31.928 0.077 6.27 5 14.19
1/16/2017 12:30:00 AM -0.04 31.928 0.077 6.32 5.4 14.2
1/16/2017 12:45:00 AM -0.04 31.928 0.077 6.31 5.2 14.19
1/16/2017 1:00:00 AM -0.04 31.928 0.077 6.34 5 14.18
1/16/2017 1:15:00 AM -0.04 31.928 0.077 6.36 5 14.19
1/16/2017 1:30:00 AM -0.04 31.928 0.077 6.34 5.6 14.17
1/16/2017 1:45:00 AM -0.04 31.928 0.077 6.37 5.1 14.17
1/16/2017 2:00:00 AM -0.04 31.928 0.077 6.34 4.2 14.16
1/16/2017 2:15:00 AM -0.04 31.928 0.077 6.35 4.6 14.15
1/16/2017 2:30:00 AM -0.04 31.928 0.078 6.34 4.3 14.13
1/16/2017 2:45:00 AM -0.04 31.928 0.078 6.32 4.3 14.13
1/16/2017 3:00:00 AM -0.04 31.928 0.078 6.34 4.8 14.14
1/16/2017 3:15:00 AM -0.03 31.946 0.078 6.34 4.5 14.12
1/16/2017 3:30:00 AM -0.03 31.946 0.078 6.34 4.6 14.12
1/16/2017 3:45:00 AM -0.04 31.928 0.078 6.23 4.3 14.1
1/16/2017 4:00:00 AM -0.03 31.946 0.079 6.27 4.2 14.1
1/16/2017 4:15:00 AM -0.04 31.928 0.079 6.3 4.4 14.09
1/16/2017 4:30:00 AM -0.04 31.928 0.079 6.32 4.8 14.11
1/16/2017 4:45:00 AM -0.03 31.946 0.079 6.31 4.4 14.11
1/16/2017 5:00:00 AM -0.03 31.946 0.079 6.33 5 14.12
1/16/2017 5:15:00 AM -0.03 31.946 0.079 6.31 4.9 14.11
1/16/2017 5:30:00 AM -0.03 31.946 0.079 6.32 4.9 14.12
1/16/2017 5:45:00 AM -0.04 31.928 0.08 6.32 4.8 14.1
1/16/2017 6:00:00 AM -0.03 31.946 0.081 6.31 4.9 14.1
1/16/2017 6:15:00 AM -0.03 31.946 0.081 6.31 4.5 14.11
1/16/2017 6:30:00 AM -0.03 31.946 0.08 6.34 4.6 14.1
1/16/2017 6:45:00 AM -0.03 31.946 0.081 6.34 4.4 14.11
1/16/2017 7:00:00 AM -0.03 31.946 0.081 6.32 5.1 14.1
1/16/2017 7:15:00 AM -0.03 31.946 0.081 6.32 4.5 14.11
1/16/2017 7:30:00 AM -0.03 31.946 0.081 6.25 4.5 14.08
1/16/2017 7:45:00 AM -0.03 31.946 0.081 6.31 4.6 14.11
1/16/2017 8:00:00 AM -0.03 31.946 0.081 6.32 4.5 14.11
1/16/2017 8:15:00 AM -0.03 31.946 0.082 6.35 4 14.11
1/16/2017 8:30:00 AM -0.03 31.946 0.082 6.34 4 14.12
1/16/2017 8:45:00 AM -0.03 31.946 0.082 6.34 4.2 14.11
1/16/2017 9:00:00 AM -0.03 31.946 0.082 6.38 4.1 14.06
1/16/2017 9:15:00 AM -0.03 31.946 0.082 6.37 4.1 14.07
1/16/2017 9:30:00 AM -0.03 31.946 0.083 6.35 4.1 14.07
1/16/2017 9:45:00 AM -0.02 31.964 0.083 6.38 4.3 14.08
1/16/2017 10:00:00 AM -0.02 31.964 0.083 6.36 4.7 14.13
1/16/2017 10:15:00 AM -0.03 31.946 0.083 6.36 3.9 14.13
1/16/2017 10:30:00 AM -0.03 31.946 0.083 6.38 4.3 14.17
1/16/2017 10:45:00 AM -0.02 31.964 0.083 6.36 5.7 14.17
1/16/2017 11:00:00 AM -0.02 31.964 0.083 6.37 6.1 14.15
1/16/2017 11:15:00 AM -0.02 31.964 0.084 6.27 4.3 14.16
1/16/2017 11:30:00 AM -0.02 31.964 0.085 6.33 5.2 14.15
1/16/2017 11:45:00 AM -0.01 31.982 0.085 6.36 5.1 14.13
1/16/2017 12:00:00 PM 0 32 0.085 6.33 5.7 14.12
1/16/2017 12:15:00 PM 0.14 32.252 0.085 6.37 6.2 14.14
1/16/2017 12:30:00 PM 0.18 32.324 0.085 6.36 7.2 14.14
1/16/2017 12:45:00 PM 0.22 32.396 0.085 6.4 7.3 14.15
1/16/2017 1:00:00 PM 0.27 32.486 0.084 6.39 8.9 14.17
1/16/2017 1:15:00 PM 0.27 32.486 0.084 6.42 7.9 14.19
1/16/2017 1:30:00 PM 0.27 32.486 0.084 6.42 7.6 14.19
1/16/2017 1:45:00 PM 0.28 32.504 0.084 6.43 7.6 14.21
1/16/2017 2:00:00 PM 0.28 32.504 0.084 6.41 5.9 14.22
1/16/2017 2:15:00 PM 0.25 32.45 0.083 6.44 5.8 14.23
1/16/2017 2:30:00 PM 0.27 32.486 0.083 6.45 5.5 14.23
1/16/2017 2:45:00 PM 0.29 32.522 0.083 6.44 5.5 14.24
1/16/2017 3:00:00 PM 0.3 32.54 0.083 6.38 5.9 14.22
1/16/2017 3:15:00 PM 0.34 32.612 0.082 6.46 7 14.11
1/16/2017 3:30:00 PM 0.34 32.612 0.082 6.48 7.5 14.12
1/16/2017 3:45:00 PM 0.32 32.576 0.082 6.48 7.1 14.11
1/16/2017 4:00:00 PM 0.31 32.558 0.082 6.46 7.1 14.12
1/16/2017 4:15:00 PM 0.29 32.522 0.082 6.45 6.1 14.12
1/16/2017 4:30:00 PM 0.26 32.468 0.082 6.47 6 14.13
1/16/2017 4:45:00 PM 0.24 32.432 0.081 6.44 4.9 14.12
1/16/2017 5:00:00 PM 0.22 32.396 0.082 6.46 5.9 14.11
1/16/2017 5:15:00 PM 0.2 32.36 0.082 6.46 5.7 14.1
1/16/2017 5:30:00 PM 0.19 32.342 0.081 6.45 5.5 14.08
1/16/2017 5:45:00 PM 0.19 32.342 0.08 6.41 6.1 14.06
1/16/2017 6:00:00 PM 0.21 32.378 0.08 6.42 5.7 14.04
1/16/2017 6:15:00 PM 0.22 32.396 0.08 6.41 5.5 14.03
1/16/2017 6:30:00 PM 0.26 32.468 0.08 6.43 5.6 14.02
1/16/2017 6:45:00 PM 0.3 32.54 0.08 6.31 5.3 13.98
1/16/2017 7:00:00 PM 0.34 32.612 0.08 6.36 6 13.98
1/16/2017 7:15:00 PM 0.37 32.666 0.08 6.36 4.9 13.96
1/16/2017 7:30:00 PM 0.41 32.738 0.08 6.35 5.6 13.95
1/16/2017 7:45:00 PM 0.44 32.792 0.08 6.38 5.7 13.95
1/16/2017 8:00:00 PM 0.47 32.846 0.08 6.38 5.1 13.92
1/16/2017 8:15:00 PM 0.49 32.882 0.08 6.35 5.1 13.91
1/16/2017 8:30:00 PM 0.51 32.918 0.08 6.38 4.9 13.91
1/16/2017 8:45:00 PM 0.54 32.972 0.08 6.35 5.1 13.9
1/16/2017 9:00:00 PM 0.55 32.99 0.08 6.37 4.8 13.89
1/16/2017 9:15:00 PM 0.56 33.008 0.08 6.38 4.6 13.88
1/16/2017 9:30:00 PM 0.58 33.044 0.08 6.35 4.6 13.88
1/16/2017 9:45:00 PM 0.6 33.08 0.08 6.34 4.7 13.87
1/16/2017 10:00:00 PM 0.62 33.116 0.08 6.37 4.7 13.86
1/16/2017 10:15:00 PM 0.64 33.152 0.08 6.35 4.5 13.85
1/16/2017 10:30:00 PM 0.66 33.188 0.08 6.31 4.5 13.93
1/16/2017 10:45:00 PM 0.69 33.242 0.081 6.37 4.5 13.79
1/16/2017 11:00:00 PM 0.71 33.278 0.081 6.37 5 13.78
1/16/2017 11:15:00 PM 0.74 33.332 0.081 6.4 4.8 13.78
1/16/2017 11:30:00 PM 0.76 33.368 0.081 6.38 4.5 13.78
1/16/2017 11:45:00 PM 0.78 33.404 0.081 6.4 4.7 13.77
1/17/2017 12:00:00 AM 0.81 33.458 0.081 6.38 4.4 13.77
1/17/2017 12:15:00 AM 0.83 33.494 0.081 6.4 4.3 13.76
1/17/2017 12:30:00 AM 0.85 33.53 0.081 6.4 4.5 13.75
1/17/2017 12:45:00 AM 0.87 33.566 0.081 6.38 4.5 13.75
1/17/2017 1:00:00 AM 0.89 33.602 0.081 6.4 4.3 13.75
1/17/2017 1:15:00 AM 0.91 33.638 0.081 6.38 4.6 13.74
1/17/2017 1:30:00 AM 0.93 33.674 0.081 6.4 4.6 13.73
1/17/2017 1:45:00 AM 0.94 33.692 0.081 6.38 4.5 13.73
1/17/2017 2:00:00 AM 0.94 33.692 0.081 6.38 4.6 13.73
1/17/2017 2:15:00 AM 0.95 33.71 0.081 6.29 4.3 13.64
1/17/2017 2:30:00 AM 0.95 33.71 0.081 6.34 4.6 13.69
1/17/2017 2:45:00 AM 0.95 33.71 0.081 6.37 4.3 13.69
1/17/2017 3:00:00 AM 0.95 33.71 0.081 6.37 4.2 13.69
1/17/2017 3:15:00 AM 0.94 33.692 0.081 6.35 4.6 13.68
1/17/2017 3:30:00 AM 0.95 33.71 0.081 6.35 4.4 13.69
1/17/2017 3:45:00 AM 0.95 33.71 0.081 6.38 4.3 13.67
1/17/2017 4:00:00 AM 0.96 33.728 0.081 6.37 4.6 13.69
1/17/2017 4:15:00 AM 0.97 33.746 0.081 6.37 4.8 13.68
1/17/2017 4:30:00 AM 0.99 33.782 0.081 6.35 4.5 13.67
1/17/2017 4:45:00 AM 1 33.8 0.081 6.37 4.2 13.66
1/17/2017 5:00:00 AM 1.02 33.836 0.081 6.38 4.3 13.66
1/17/2017 5:15:00 AM 1.03 33.854 0.081 6.37 4.3 13.65
1/17/2017 5:30:00 AM 1.04 33.872 0.081 6.37 4.8 13.66
1/17/2017 5:45:00 AM 1.06 33.908 0.082 6.35 4 13.64
1/17/2017 6:00:00 AM 1.07 33.926 0.082 6.32 4.3 13.76
1/17/2017 6:15:00 AM 1.08 33.944 0.082 6.35 5.6 13.68
1/17/2017 6:30:00 AM 1.1 33.98 0.082 6.37 4 13.68
1/17/2017 6:45:00 AM 1.11 33.998 0.082 6.4 3.8 13.66
1/17/2017 7:00:00 AM 1.12 34.016 0.082 6.4 4.5 13.67
1/17/2017 7:15:00 AM 1.13 34.034 0.082 6.38 4.4 13.65
1/17/2017 7:30:00 AM 1.14 34.052 0.082 6.38 4.2 13.67
1/17/2017 7:45:00 AM 1.15 34.07 0.082 6.37 4.6 13.65
1/17/2017 8:00:00 AM 1.17 34.106 0.082 6.4 4.4 13.65
1/17/2017 8:15:00 AM 1.19 34.142 0.082 6.38 4.6 13.64
1/17/2017 8:30:00 AM 1.21 34.178 0.082 6.41 4.9 13.64
1/17/2017 8:45:00 AM 1.24 34.232 0.082 6.39 4.9 13.65
1/17/2017 9:00:00 AM 1.27 34.286 0.082 6.39 4.6 13.64
1/17/2017 9:15:00 AM 1.29 34.322 0.082 6.39 4.7 13.65
1/17/2017 9:30:00 AM 1.32 34.376 0.082 6.42 4.7 13.64
1/17/2017 9:45:00 AM 1.34 34.412 0.082 6.3 4.6 13.58
1/17/2017 10:00:00 AM 1.36 34.448 0.082 6.36 4.2 13.65
1/17/2017 10:15:00 AM 1.38 34.484 0.082 6.38 4.5 13.67
1/17/2017 10:30:00 AM 1.41 34.538 0.082 6.38 4.5 13.66
1/17/2017 10:45:00 AM 1.45 34.61 0.081 6.38 4.2 13.65
1/17/2017 11:00:00 AM 1.47 34.646 0.081 6.42 4.7 13.64
1/17/2017 11:15:00 AM 1.5 34.7 0.081 6.41 4.2 13.65
1/17/2017 11:30:00 AM 1.54 34.772 0.081 6.4 4.5 13.66
1/17/2017 11:45:00 AM 1.56 34.808 0.081 6.42 4.3 13.63
1/17/2017 12:00:00 PM 1.61 34.898 0.081 6.41 4.6 13.62
1/17/2017 12:15:00 PM 1.65 34.97 0.081 6.4 5.8 13.61
1/17/2017 12:30:00 PM 1.68 35.024 0.081 6.43 5.1 13.6
1/17/2017 12:45:00 PM 1.71 35.078 0.081 6.43 5.5 13.59
1/17/2017 1:00:00 PM 1.72 35.096 0.081 6.41 6.8 13.58
1/17/2017 1:15:00 PM 1.74 35.132 0.081 6.38 6.9 13.55
1/17/2017 1:30:00 PM 1.74 35.132 0.081 6.43 6.2 13.52
1/17/2017 1:45:00 PM 1.77 35.186 0.081 6.43 5.9 13.52
1/17/2017 2:00:00 PM 1.8 35.24 0.081 6.44 7.7 13.53
1/17/2017 2:15:00 PM 1.83 35.294 0.081 6.42 10.9 13.49
1/17/2017 2:30:00 PM 1.84 35.312 0.081 6.42 11.4 13.49
1/17/2017 2:45:00 PM 1.85 35.33 0.08 6.43 11.8 13.47
1/17/2017 3:00:00 PM 1.88 35.384 0.08 6.44 10 13.47
1/17/2017 3:15:00 PM 1.87 35.366 0.08 6.44 12.6 13.45
1/17/2017 3:30:00 PM 1.87 35.366 0.08 6.42 15.7 13.43
1/17/2017 3:45:00 PM 1.86 35.348 0.08 6.45 19.6 13.41
1/17/2017 4:00:00 PM 1.85 35.33 0.08 6.44 20 13.4
1/17/2017 4:15:00 PM 1.84 35.312 0.08 6.45 26.3 13.4
1/17/2017 4:30:00 PM 1.82 35.276 0.08 6.45 22.1 13.39
1/17/2017 4:45:00 PM 1.8 35.24 0.081 6.45 23.1 13.37
1/17/2017 5:00:00 PM 1.77 35.186 0.081 6.4 26.8 13.36
1/17/2017 5:15:00 PM 1.73 35.114 0.081 6.44 40.5 13.36
1/17/2017 5:30:00 PM 1.69 35.042 0.08 6.47 35.1 13.36
1/17/2017 5:45:00 PM 1.66 34.988 0.08 6.44 30.2 13.36
1/17/2017 6:00:00 PM 1.63 34.934 0.08 6.45 26 13.38
1/17/2017 6:15:00 PM 1.59 34.862 0.08 6.43 29 13.39
1/17/2017 6:30:00 PM 1.55 34.79 0.08 6.45 31.8 13.41
1/17/2017 6:45:00 PM 1.5 34.7 0.08 6.46 32.5 13.41
1/17/2017 7:00:00 PM 1.47 34.646 0.08 6.48 31.8 13.43
1/17/2017 7:15:00 PM 1.43 34.574 0.08 6.48 31.6 13.44
1/17/2017 7:30:00 PM 1.37 34.466 0.08 6.49 37.7 13.46
1/17/2017 7:45:00 PM 1.31 34.358 0.081 6.46 36 13.5
1/17/2017 8:00:00 PM 1.26 34.268 0.081 6.48 37.3 13.53
1/17/2017 8:15:00 PM 1.23 34.214 0.08 6.48 34.7 13.54
1/17/2017 8:30:00 PM 1.21 34.178 0.08 6.46 31.8 13.57
1/17/2017 8:45:00 PM 1.2 34.16 0.081 6.42 41.4 13.62
1/17/2017 9:00:00 PM 1.19 34.142 0.082 6.47 39.8 13.53
1/17/2017 9:15:00 PM 1.18 34.124 0.085 6.51 42 13.52
1/17/2017 9:30:00 PM 1.18 34.124 0.086 6.52 41.2 13.52
1/17/2017 9:45:00 PM 1.19 34.142 0.086 6.5 43.7 13.51
1/17/2017 10:00:00 PM 1.19 34.142 0.086 6.5 40.6 13.51
1/17/2017 10:15:00 PM 1.2 34.16 0.086 6.52 38.3 13.5
1/17/2017 10:30:00 PM 1.21 34.178 0.086 6.52 37.5 13.51
1/17/2017 10:45:00 PM 1.21 34.178 0.085 6.52 38 13.5
1/17/2017 11:00:00 PM 1.22 34.196 0.085 6.49 35.7 13.51
1/17/2017 11:15:00 PM 1.23 34.214 0.084 6.51 29.2 13.5
1/17/2017 11:30:00 PM 1.24 34.232 0.083 6.47 34.1 13.49
1/17/2017 11:45:00 PM 1.25 34.25 0.083 6.5 28.4 13.5
1/18/2017 12:00:00 AM 1.27 34.286 0.082 6.48 31.1 13.49
1/18/2017 12:15:00 AM 1.28 34.304 0.082 6.47 29 13.48
1/18/2017 12:30:00 AM 1.29 34.322 0.081 6.38 29.6 13.44
1/18/2017 12:45:00 AM 1.29 34.322 0.081 6.45 25.7 13.49
1/18/2017 1:00:00 AM 1.3 34.34 0.081 6.43 24.4 13.51
1/18/2017 1:15:00 AM 1.31 34.358 0.081 6.43 27.1 13.5
1/18/2017 1:30:00 AM 1.33 34.394 0.08 6.45 24.9 13.47
1/18/2017 1:45:00 AM 1.34 34.412 0.08 6.44 21.3 13.47
1/18/2017 2:00:00 AM 1.35 34.43 0.08 6.45 21.9 13.46
1/18/2017 2:15:00 AM 1.36 34.448 0.08 6.42 18 13.46
1/18/2017 2:30:00 AM 1.37 34.466 0.08 6.42 23.5 13.45
1/18/2017 2:45:00 AM 1.38 34.484 0.08 6.42 21.2 13.46
1/18/2017 3:00:00 AM 1.39 34.502 0.08 6.43 19.9 13.44
1/18/2017 3:15:00 AM 1.4 34.52 0.08 6.43 21.1 13.45
1/18/2017 3:30:00 AM 1.41 34.538 0.08 6.4 18.6 13.43
1/18/2017 3:45:00 AM 1.42 34.556 0.079 6.41 21.4 13.41
1/18/2017 4:00:00 AM 1.43 34.574 0.079 6.41 16.7 13.43
1/18/2017 4:15:00 AM 1.44 34.592 0.079 6.36 20.9 13.44
1/18/2017 4:30:00 AM 1.45 34.61 0.079 6.4 19.9 13.4
1/18/2017 4:45:00 AM 1.46 34.628 0.079 6.41 15.5 13.4
1/18/2017 5:00:00 AM 1.47 34.646 0.079 6.43 16.5 13.38
1/18/2017 5:15:00 AM 1.48 34.664 0.079 6.42 15.3 13.41
1/18/2017 5:30:00 AM 1.49 34.682 0.079 6.44 17.1 13.39
1/18/2017 5:45:00 AM 1.5 34.7 0.079 6.44 14.4 13.38
1/18/2017 6:00:00 AM 1.5 34.7 0.079 6.41 15.4 13.39
1/18/2017 6:15:00 AM 1.51 34.718 0.079 6.41 17.1 13.4
1/18/2017 6:30:00 AM 1.52 34.736 0.079 6.39 14.8 13.39
1/18/2017 6:45:00 AM 1.53 34.754 0.079 6.39 13.1 13.39
1/18/2017 7:00:00 AM 1.53 34.754 0.078 6.39 14.8 13.37
1/18/2017 7:15:00 AM 1.54 34.772 0.078 6.43 15.4 13.37
1/18/2017 7:30:00 AM 1.55 34.79 0.078 6.42 13.8 13.37
1/18/2017 7:45:00 AM 1.55 34.79 0.078 6.39 15.3 13.39
1/18/2017 8:00:00 AM 1.56 34.808 0.078 6.3 14.5 13.35
1/18/2017 8:15:00 AM 1.57 34.826 0.078 6.34 14.7 13.37
1/18/2017 8:30:00 AM 1.58 34.844 0.078 6.36 15.5 13.38
1/18/2017 8:45:00 AM 1.58 34.844 0.078 6.38 15.5 13.39
1/18/2017 9:00:00 AM 1.6 34.88 0.078 6.35 13.3 13.4
1/18/2017 9:15:00 AM 1.61 34.898 0.078 6.38 12.9 13.41
1/18/2017 9:30:00 AM 1.62 34.916 0.078 6.36 11.4 13.44
1/18/2017 9:45:00 AM 1.63 34.934 0.078 6.37 11.9 13.43
1/18/2017 10:00:00 AM 1.64 34.952 0.078 6.38 12.8 13.43
1/18/2017 10:15:00 AM 1.67 35.006 0.078 6.39 13 13.45
1/18/2017 10:30:00 AM 1.69 35.042 0.078 6.39 13.2 13.47
1/18/2017 10:45:00 AM 1.71 35.078 0.078 6.39 12.8 13.46
1/18/2017 11:00:00 AM 1.72 35.096 0.078 6.37 12.3 13.46
1/18/2017 11:15:00 AM 1.74 35.132 0.078 6.39 10.5 13.47
1/18/2017 11:30:00 AM 1.75 35.15 0.078 6.37 12 13.45
1/18/2017 11:45:00 AM 1.77 35.186 0.078 6.34 12.9 13.46
1/18/2017 12:00:00 PM 1.79 35.222 0.078 6.37 13.8 13.43
1/18/2017 12:15:00 PM 1.8 35.24 0.077 6.42 12.6 13.44
1/18/2017 12:30:00 PM 1.82 35.276 0.077 6.44 11.1 13.44
1/18/2017 12:45:00 PM 1.83 35.294 0.077 6.44 11.3 13.44
1/18/2017 1:00:00 PM 1.84 35.312 0.077 6.41 13.2 13.42
1/18/2017 1:15:00 PM 1.86 35.348 0.078 6.44 11.8 13.44
1/18/2017 1:30:00 PM 1.88 35.384 0.078 6.43 11.9 13.44
1/18/2017 1:45:00 PM 1.9 35.42 0.078 6.41 12.8 13.43
1/18/2017 2:00:00 PM 1.92 35.456 0.078 6.43 12.7 13.42
1/18/2017 2:15:00 PM 1.94 35.492 0.077 6.44 12.1 13.46
1/18/2017 2:30:00 PM 1.96 35.528 0.077 6.42 12.5 13.42
1/18/2017 2:45:00 PM 1.97 35.546 0.077 6.44 12.8 13.41
1/18/2017 3:00:00 PM 1.97 35.546 0.077 6.45 11.9 13.41
1/18/2017 3:15:00 PM 1.98 35.564 0.077 6.45 12.2 13.42
1/18/2017 3:30:00 PM 1.98 35.564 0.077 6.32 14.2 13.37
1/18/2017 3:45:00 PM 1.98 35.564 0.077 6.37 12.4 13.38
1/18/2017 4:00:00 PM 1.98 35.564 0.077 6.39 13.4 13.36
1/18/2017 4:15:00 PM 1.98 35.564 0.077 6.41 13.1 13.35
1/18/2017 4:30:00 PM 1.97 35.546 0.077 6.42 13.8 13.36
1/18/2017 4:45:00 PM 1.97 35.546 0.077 6.41 13.6 13.36
1/18/2017 5:00:00 PM 1.96 35.528 0.077 6.4 13.8 13.35
1/18/2017 5:15:00 PM 1.96 35.528 0.077 6.39 14 13.32
1/18/2017 5:30:00 PM 1.95 35.51 0.077 6.39 13.8 13.31
1/18/2017 5:45:00 PM 1.95 35.51 0.077 6.39 12.6 13.31
1/18/2017 6:00:00 PM 1.94 35.492 0.077 6.38 15.9 13.3
1/18/2017 6:15:00 PM 1.93 35.474 0.078 6.39 11.9 13.31
1/18/2017 6:30:00 PM 1.93 35.474 0.078 6.37 12.5 13.34
1/18/2017 6:45:00 PM 1.92 35.456 0.078 6.36 13.9 13.31
1/18/2017 7:00:00 PM 1.91 35.438 0.078 6.38 13.1 13.32
1/18/2017 7:15:00 PM 1.9 35.42 0.078 6.28 12.1 13.3
1/18/2017 7:30:00 PM 1.9 35.42 0.078 6.34 14.3 13.31
1/18/2017 7:45:00 PM 1.89 35.402 0.078 6.37 12.2 13.31
1/18/2017 8:00:00 PM 1.89 35.402 0.078 6.37 10.7 13.31
1/18/2017 8:15:00 PM 1.88 35.384 0.078 6.35 12.5 13.31
1/18/2017 8:30:00 PM 1.87 35.366 0.078 6.34 11.3 13.32
1/18/2017 8:45:00 PM 1.87 35.366 0.078 6.37 12 13.31
1/18/2017 9:00:00 PM 1.86 35.348 0.078 6.37 12.6 13.32
1/18/2017 9:15:00 PM 1.85 35.33 0.078 6.38 12.4 13.33
1/18/2017 9:30:00 PM 1.85 35.33 0.078 6.37 12.2 13.31
1/18/2017 9:45:00 PM 1.84 35.312 0.078 6.36 13.9 13.34
1/18/2017 10:00:00 PM 1.83 35.294 0.078 6.37 11.5 13.33
1/18/2017 10:15:00 PM 1.83 35.294 0.078 6.37 11.2 13.32
1/18/2017 10:30:00 PM 1.82 35.276 0.078 6.35 12.2 13.31
1/18/2017 10:45:00 PM 1.82 35.276 0.078 6.36 10.6 13.31
1/18/2017 11:00:00 PM 1.82 35.276 0.078 6.28 11.5 13.32
1/18/2017 11:15:00 PM 1.81 35.258 0.078 6.32 12.2 13.32
1/18/2017 11:30:00 PM 1.81 35.258 0.078 6.36 11.1 13.34
1/18/2017 11:45:00 PM 1.81 35.258 0.078 6.36 10.8 13.32
1/19/2017 12:00:00 AM 1.81 35.258 0.078 6.35 10.1 13.32
1/19/2017 12:15:00 AM 1.81 35.258 0.078 6.36 13.2 13.34
1/19/2017 12:30:00 AM 1.81 35.258 0.078 6.36 10.7 13.32
1/19/2017 12:45:00 AM 1.81 35.258 0.078 6.35 10.2 13.34
1/19/2017 1:00:00 AM 1.81 35.258 0.078 6.33 11.3 13.33
1/19/2017 1:15:00 AM 1.81 35.258 0.078 6.33 10.5 13.32
1/19/2017 1:30:00 AM 1.81 35.258 0.078 6.35 10.8 13.32
1/19/2017 1:45:00 AM 1.81 35.258 0.078 6.34 9.8 13.33
1/19/2017 2:00:00 AM 1.8 35.24 0.078 6.35 9.8 13.32
1/19/2017 2:15:00 AM 1.8 35.24 0.078 6.35 9.4 13.31
1/19/2017 2:30:00 AM 1.81 35.258 0.078 6.33 10.3 13.32
1/19/2017 2:45:00 AM 1.81 35.258 0.078 6.28 10.1 13.32
1/19/2017 3:00:00 AM 1.81 35.258 0.078 6.32 8.9 13.31
1/19/2017 3:15:00 AM 1.81 35.258 0.078 6.35 9.1 13.33
1/19/2017 3:30:00 AM 1.8 35.24 0.078 6.36 9.5 13.32
1/19/2017 3:45:00 AM 1.79 35.222 0.078 6.35 8.8 13.33
1/19/2017 4:00:00 AM 1.79 35.222 0.078 6.33 9.3 13.32
1/19/2017 4:15:00 AM 1.79 35.222 0.078 6.36 10.1 13.33
1/19/2017 4:30:00 AM 1.79 35.222 0.078 6.34 9.3 13.32
1/19/2017 4:45:00 AM 1.79 35.222 0.078 6.33 10 13.34
1/19/2017 5:00:00 AM 1.8 35.24 0.078 6.33 8.6 13.32
1/19/2017 5:15:00 AM 1.8 35.24 0.078 6.33 8.8 13.33
1/19/2017 5:30:00 AM 1.8 35.24 0.078 6.34 9 13.32
1/19/2017 5:45:00 AM 1.81 35.258 0.078 6.35 7.7 13.31
1/19/2017 6:00:00 AM 1.81 35.258 0.078 6.34 8.8 13.35
1/19/2017 6:15:00 AM 1.81 35.258 0.078 6.28 9.5 13.3
1/19/2017 6:30:00 AM 1.81 35.258 0.078 6.35 8.9 13.31
1/19/2017 6:45:00 AM 1.82 35.276 0.078 6.34 7.9 13.31
1/19/2017 7:00:00 AM 1.82 35.276 0.078 6.34 8.2 13.32
1/19/2017 7:15:00 AM 1.82 35.276 0.078 6.36 8.5 13.31
1/19/2017 7:30:00 AM 1.83 35.294 0.078 6.34 9.1 13.32
1/19/2017 7:45:00 AM 1.83 35.294 0.078 6.34 9.1 13.32
1/19/2017 8:00:00 AM 1.84 35.312 0.078 6.34 7.6 13.34
1/19/2017 8:15:00 AM 1.84 35.312 0.078 6.36 9 13.33
1/19/2017 8:30:00 AM 1.85 35.33 0.078 6.37 7.5 13.35
1/19/2017 8:45:00 AM 1.86 35.348 0.078 6.37 7.7 13.35
1/19/2017 9:00:00 AM 1.88 35.384 0.078 6.36 9.6 13.38
1/19/2017 9:15:00 AM 1.9 35.42 0.078 6.35 8.3 13.41
1/19/2017 9:30:00 AM 1.93 35.474 0.078 6.38 7.7 13.45
1/19/2017 9:45:00 AM 1.96 35.528 0.078 6.39 7.4 13.43
1/19/2017 10:00:00 AM 1.99 35.582 0.078 6.31 8 13.44
1/19/2017 10:15:00 AM 2.03 35.654 0.078 6.38 7.9 13.45
1/19/2017 10:30:00 AM 2.06 35.708 0.078 6.41 8.3 13.45
1/19/2017 10:45:00 AM 2.09 35.762 0.078 6.39 8.1 13.47
1/19/2017 11:00:00 AM 2.12 35.816 0.077 6.39 8.2 13.46
1/19/2017 11:15:00 AM 2.16 35.888 0.077 6.4 7.8 13.45
1/19/2017 11:30:00 AM 2.21 35.978 0.077 6.4 8.6 13.46
1/19/2017 11:45:00 AM 2.26 36.068 0.077 6.43 9.3 13.45
1/19/2017 12:00:00 PM 2.31 36.158 0.077 6.44 7.8 13.46
1/19/2017 12:15:00 PM 2.36 36.248 0.077 6.42 8.7 13.43
1/19/2017 12:30:00 PM 2.41 36.338 0.077 6.44 8.1 13.43
1/19/2017 12:45:00 PM 2.47 36.446 0.077 6.43 8.3 13.41
1/19/2017 1:00:00 PM 2.51 36.518 0.077 6.43 8.3 13.4
1/19/2017 1:15:00 PM 2.54 36.572 0.077 6.43 10.4 13.37
1/19/2017 1:30:00 PM 2.56 36.608 0.077 6.46 10.3 13.34
1/19/2017 1:45:00 PM 2.58 36.644 0.077 6.36 9.8 13.34
1/19/2017 2:00:00 PM 2.6 36.68 0.077 6.42 10.2 13.33
1/19/2017 2:15:00 PM 2.61 36.698 0.077 6.43 10.1 13.34
1/19/2017 2:30:00 PM 2.62 36.716 0.077 6.43 9.7 13.3
1/19/2017 2:45:00 PM 2.63 36.734 0.077 6.44 10.4 13.3
1/19/2017 3:00:00 PM 2.64 36.752 0.077 6.45 12.8 13.28
1/19/2017 3:15:00 PM 2.64 36.752 0.077 6.43 11 13.26
1/19/2017 3:30:00 PM 2.65 36.77 0.077 6.45 11.6 13.25
1/19/2017 3:45:00 PM 2.66 36.788 0.077 6.42 9.8 13.25
1/19/2017 4:00:00 PM 2.66 36.788 0.077 6.43 10.7 13.23
1/19/2017 4:15:00 PM 2.65 36.77 0.077 6.43 11.2 13.2
1/19/2017 4:30:00 PM 2.64 36.752 0.077 6.45 12 13.2
1/19/2017 4:45:00 PM 2.62 36.716 0.077 6.44 11.2 13.16
1/19/2017 5:00:00 PM 2.6 36.68 0.077 6.42 9.8 13.15
1/19/2017 5:15:00 PM 2.58 36.644 0.078 6.41 10.3 13.13
1/19/2017 5:30:00 PM 2.55 36.59 0.078 6.34 12.8 13.12
1/19/2017 5:45:00 PM 2.53 36.554 0.078 6.39 9.8 13.11
1/19/2017 6:00:00 PM 2.51 36.518 0.078 6.39 11.7 13.1
1/19/2017 6:15:00 PM 2.49 36.482 0.078 6.39 11.2 13.1
1/19/2017 6:30:00 PM 2.46 36.428 0.078 6.41 9.8 13.1
1/19/2017 6:45:00 PM 2.44 36.392 0.078 6.41 9.7 13.1
1/19/2017 7:00:00 PM 2.43 36.374 0.078 6.4 10.7 13.1
1/19/2017 7:15:00 PM 2.41 36.338 0.078 6.38 10.4 13.11
1/19/2017 7:30:00 PM 2.39 36.302 0.078 6.37 10.1 13.11
1/19/2017 7:45:00 PM 2.37 36.266 0.078 6.37 8.7 13.12
1/19/2017 8:00:00 PM 2.35 36.23 0.078 6.38 10.6 13.15
1/19/2017 8:15:00 PM 2.33 36.194 0.078 6.37 10.3 13.13
1/19/2017 8:30:00 PM 2.32 36.176 0.078 6.37 8.9 13.15
1/19/2017 8:45:00 PM 2.3 36.14 0.078 6.39 9.4 13.14
1/19/2017 9:00:00 PM 2.28 36.104 0.078 6.39 10.4 13.15
1/19/2017 9:15:00 PM 2.26 36.068 0.078 6.3 10.1 13.14
1/19/2017 9:30:00 PM 2.24 36.032 0.078 6.37 12.6 13.15
1/19/2017 9:45:00 PM 2.22 35.996 0.078 6.35 11 13.17
1/19/2017 10:00:00 PM 2.2 35.96 0.078 6.35 11.4 13.16
1/19/2017 10:15:00 PM 2.17 35.906 0.078 6.38 10.3 13.16
1/19/2017 10:30:00 PM 2.15 35.87 0.078 6.38 10.4 13.18
1/19/2017 10:45:00 PM 2.14 35.852 0.078 6.38 12.9 13.17
1/19/2017 11:00:00 PM 2.12 35.816 0.078 6.35 11.6 13.17
1/19/2017 11:15:00 PM 2.11 35.798 0.078 6.38 10.8 13.18
1/19/2017 11:30:00 PM 2.1 35.78 0.078 6.38 10.7 13.19
1/19/2017 11:45:00 PM 2.09 35.762 0.078 6.37 10 13.19
1/20/2017 12:00:00 AM 2.08 35.744 0.078 6.37 9.1 13.2
1/20/2017 12:15:00 AM 2.08 35.744 0.078 6.38 9.2 13.19
1/20/2017 12:30:00 AM 2.07 35.726 0.078 6.37 8.6 13.22
1/20/2017 12:45:00 AM 2.06 35.708 0.078 6.37 8.3 13.21
1/20/2017 1:00:00 AM 2.06 35.708 0.078 6.27 9.3 13.2
1/20/2017 1:15:00 AM 2.05 35.69 0.078 6.34 9.6 13.21
1/20/2017 1:30:00 AM 2.04 35.672 0.078 6.36 10.4 13.2
1/20/2017 1:45:00 AM 2.04 35.672 0.078 6.38 9.6 13.2
1/20/2017 2:00:00 AM 2.03 35.654 0.078 6.37 9.1 13.22
1/20/2017 2:15:00 AM 2.03 35.654 0.078 6.38 8.7 13.2
1/20/2017 2:30:00 AM 2.02 35.636 0.078 6.37 9 13.22
1/20/2017 2:45:00 AM 2.01 35.618 0.078 6.37 8.1 13.2
1/20/2017 3:00:00 AM 2 35.6 0.078 6.38 8.3 13.23
1/20/2017 3:15:00 AM 2 35.6 0.078 6.37 8.7 13.22
1/20/2017 3:30:00 AM 1.99 35.582 0.078 6.38 8.3 13.21
1/20/2017 3:45:00 AM 1.99 35.582 0.078 6.36 9.4 13.2
1/20/2017 4:00:00 AM 1.99 35.582 0.078 6.36 8.2 13.24
1/20/2017 4:15:00 AM 1.99 35.582 0.079 6.35 8.6 13.21
1/20/2017 4:30:00 AM 1.98 35.564 0.079 6.37 8 13.23
1/20/2017 4:45:00 AM 1.98 35.564 0.079 6.3 10.4 13.2
1/20/2017 5:00:00 AM 1.98 35.564 0.079 6.37 10.1 13.21
1/20/2017 5:15:00 AM 1.98 35.564 0.079 6.38 9.4 13.2
1/20/2017 5:30:00 AM 1.98 35.564 0.079 6.38 9.2 13.21
1/20/2017 5:45:00 AM 1.97 35.546 0.079 6.38 10.2 13.22
1/20/2017 6:00:00 AM 1.97 35.546 0.079 6.37 9.3 13.2
1/20/2017 6:15:00 AM 1.96 35.528 0.079 6.36 8.4 13.2
1/20/2017 6:30:00 AM 1.94 35.492 0.079 6.39 9 13.21
1/20/2017 6:45:00 AM 1.92 35.456 0.079 6.37 8.9 13.21
1/20/2017 7:00:00 AM 1.92 35.456 0.079 6.36 8.9 13.22
1/20/2017 7:15:00 AM 1.91 35.438 0.079 6.39 9.4 13.21
1/20/2017 7:30:00 AM 1.91 35.438 0.079 6.37 9 13.22
1/20/2017 7:45:00 AM 1.92 35.456 0.079 6.37 9.5 13.21
1/20/2017 8:00:00 AM 1.93 35.474 0.079 6.39 8.6 13.24
1/20/2017 8:15:00 AM 1.94 35.492 0.079 6.38 8.3 13.25
1/20/2017 8:30:00 AM 1.95 35.51 0.079 6.34 8.2 13.27
1/20/2017 8:45:00 AM 1.98 35.564 0.079 6.37 7.7 13.28
1/20/2017 9:00:00 AM 2.01 35.618 0.079 6.39 7.4 13.31
1/20/2017 9:15:00 AM 2.04 35.672 0.079 6.39 8.5 13.34
1/20/2017 9:30:00 AM 2.09 35.762 0.079 6.39 8.1 13.36
1/20/2017 9:45:00 AM 2.13 35.834 0.079 6.43 9.5 13.37
1/20/2017 10:00:00 AM 2.19 35.942 0.078 6.44 7.4 13.39
1/20/2017 10:15:00 AM 2.24 36.032 0.078 6.41 7.8 13.39
1/20/2017 10:30:00 AM 2.3 36.14 0.078 6.45 10.1 13.4
1/20/2017 10:45:00 AM 2.35 36.23 0.078 6.45 8.6 13.39
1/20/2017 11:00:00 AM 2.39 36.302 0.078 6.46 9.5 13.39
1/20/2017 11:15:00 AM 2.43 36.374 0.078 6.44 8.8 13.36
1/20/2017 11:30:00 AM 2.47 36.446 0.078 6.44 8.8 13.35
1/20/2017 11:45:00 AM 2.51 36.518 0.078 6.44 11.3 13.35
1/20/2017 12:00:00 PM 2.56 36.608 0.078 6.47 10.1 13.32
1/20/2017 12:15:00 PM 2.59 36.662 0.078 6.41 10.3 13.31
1/20/2017 12:30:00 PM 2.63 36.734 0.078 6.47 9.4 13.29
1/20/2017 12:45:00 PM 2.67 36.806 0.078 6.46 8.4 13.29
1/20/2017 1:00:00 PM 2.72 36.896 0.078 6.45 8.4 13.25
1/20/2017 1:15:00 PM 2.75 36.95 0.078 6.46 9 13.25
1/20/2017 1:30:00 PM 2.76 36.968 0.078 6.46 7.9 13.24
1/20/2017 1:45:00 PM 2.77 36.986 0.078 6.46 11.8 13.21
1/20/2017 2:00:00 PM 2.79 37.022 0.078 6.46 10.8 13.17
1/20/2017 2:15:00 PM 2.8 37.04 0.078 6.45 11 13.15
1/20/2017 2:30:00 PM 2.81 37.058 0.078 6.48 10.9 13.14
1/20/2017 2:45:00 PM 2.82 37.076 0.078 6.45 10.4 13.12
1/20/2017 3:00:00 PM 2.82 37.076 0.078 6.47 11.4 13.12
1/20/2017 3:15:00 PM 2.82 37.076 0.078 6.45 15.3 13.08
1/20/2017 3:30:00 PM 2.81 37.058 0.078 6.45 14.9 13.07
1/20/2017 3:45:00 PM 2.81 37.058 0.078 6.46 15.7 13.05
1/20/2017 4:00:00 PM 2.8 37.04 0.078 6.37 14 13.05
1/20/2017 4:15:00 PM 2.79 37.022 0.078 6.42 13 13.03
1/20/2017 4:30:00 PM 2.78 37.004 0.078 6.44 17.6 13.01
1/20/2017 4:45:00 PM 2.77 36.986 0.078 6.43 21.6 12.99
1/20/2017 5:00:00 PM 2.76 36.968 0.078 6.44 26 12.99
1/20/2017 5:15:00 PM 2.74 36.932 0.078 6.42 26.7 12.95
1/20/2017 5:30:00 PM 2.73 36.914 0.078 6.44 33 12.94
1/20/2017 5:45:00 PM 2.71 36.878 0.078 6.44 28.6 12.94
1/20/2017 6:00:00 PM 2.69 36.842 0.078 6.41 24.2 12.95
1/20/2017 6:15:00 PM 2.68 36.824 0.078 6.4 22.1 12.93
1/20/2017 6:30:00 PM 2.66 36.788 0.078 6.42 23.7 12.94
1/20/2017 6:45:00 PM 2.65 36.77 0.078 6.4 22.6 12.93
1/20/2017 7:00:00 PM 2.64 36.752 0.079 6.42 20.6 12.93
1/20/2017 7:15:00 PM 2.63 36.734 0.079 6.42 22.6 12.93
1/20/2017 7:30:00 PM 2.61 36.698 0.079 6.42 19.6 12.95
1/20/2017 7:45:00 PM 2.6 36.68 0.079 6.33 21.2 12.93
1/20/2017 8:00:00 PM 2.6 36.68 0.079 6.39 16.5 12.94
1/20/2017 8:15:00 PM 2.59 36.662 0.079 6.41 16 12.95
1/20/2017 8:30:00 PM 2.58 36.644 0.079 6.39 18.9 12.97
1/20/2017 8:45:00 PM 2.58 36.644 0.078 6.41 16.2 12.96
1/20/2017 9:00:00 PM 2.57 36.626 0.078 6.38 14.2 12.98
1/20/2017 9:15:00 PM 2.56 36.608 0.078 6.38 17.7 12.96
1/20/2017 9:30:00 PM 2.56 36.608 0.078 6.38 17.5 12.99
1/20/2017 9:45:00 PM 2.56 36.608 0.078 6.41 21.9 12.99
1/20/2017 10:00:00 PM 2.55 36.59 0.078 6.38 17 12.99
1/20/2017 10:15:00 PM 2.55 36.59 0.078 6.37 19.9 12.98
1/20/2017 10:30:00 PM 2.54 36.572 0.078 6.38 17.2 13
1/20/2017 10:45:00 PM 2.54 36.572 0.078 6.38 14.1 12.98
1/20/2017 11:00:00 PM 2.54 36.572 0.079 6.38 16 12.99
1/20/2017 11:15:00 PM 2.54 36.572 0.079 6.4 15 12.98
1/20/2017 11:30:00 PM 2.54 36.572 0.079 6.32 13.9 12.99
1/20/2017 11:45:00 PM 2.53 36.554 0.079 6.35 14.4 12.98
1/21/2017 12:00:00 AM 2.54 36.572 0.079 6.39 12.9 12.98
1/21/2017 12:15:00 AM 2.53 36.554 0.079 6.41 16 12.99
1/21/2017 12:30:00 AM 2.53 36.554 0.079 6.37 12.4 12.98
1/21/2017 12:45:00 AM 2.53 36.554 0.079 6.39 14.4 12.98
1/21/2017 1:00:00 AM 2.53 36.554 0.079 6.39 13.3 12.99
1/21/2017 1:15:00 AM 2.54 36.572 0.079 6.38 14.9 13
1/21/2017 1:30:00 AM 2.54 36.572 0.079 6.37 14.4 12.98
1/21/2017 1:45:00 AM 2.54 36.572 0.079 6.39 13 13.01
1/21/2017 2:00:00 AM 2.55 36.59 0.079 6.37 13.6 12.99
1/21/2017 2:15:00 AM 2.55 36.59 0.079 6.37 13.1 12.98
1/21/2017 2:30:00 AM 2.56 36.608 0.079 6.4 12.7 12.98
1/21/2017 2:45:00 AM 2.56 36.608 0.079 6.38 13.3 12.99
1/21/2017 3:00:00 AM 2.56 36.608 0.079 6.4 13.2 13
1/21/2017 3:15:00 AM 2.56 36.608 0.079 6.31 13.1 12.98
1/21/2017 3:30:00 AM 2.56 36.608 0.079 6.37 13.1 12.98
1/21/2017 3:45:00 AM 2.56 36.608 0.079 6.38 11.6 12.98
1/21/2017 4:00:00 AM 2.56 36.608 0.079 6.4 15 12.98
1/21/2017 4:15:00 AM 2.56 36.608 0.079 6.38 13.5 12.99
1/21/2017 4:30:00 AM 2.56 36.608 0.079 6.4 13.4 12.99
1/21/2017 4:45:00 AM 2.56 36.608 0.08 6.38 11.6 12.98
1/21/2017 5:00:00 AM 2.56 36.608 0.08 6.4 12.1 12.97
1/21/2017 5:15:00 AM 2.56 36.608 0.08 6.38 14.1 12.98
1/21/2017 5:30:00 AM 2.56 36.608 0.08 6.39 15.2 12.97
1/21/2017 5:45:00 AM 2.56 36.608 0.08 6.38 12.6 12.99
1/21/2017 6:00:00 AM 2.56 36.608 0.08 6.38 13.7 12.98
1/21/2017 6:15:00 AM 2.56 36.608 0.08 6.38 11 12.97
1/21/2017 6:30:00 AM 2.56 36.608 0.08 6.39 13.3 12.97
1/21/2017 6:45:00 AM 2.56 36.608 0.08 6.4 11.5 12.96
1/21/2017 7:00:00 AM 2.56 36.608 0.08 6.31 12.2 12.96
1/21/2017 7:15:00 AM 2.56 36.608 0.08 6.35 11.4 12.97
1/21/2017 7:30:00 AM 2.57 36.626 0.08 6.39 12.3 12.97
1/21/2017 7:45:00 AM 2.57 36.626 0.08 6.38 11.3 13
1/21/2017 8:00:00 AM 2.59 36.662 0.08 6.38 15 12.99
1/21/2017 8:15:00 AM 2.61 36.698 0.08 6.39 11.9 13.03
1/21/2017 8:30:00 AM 2.63 36.734 0.08 6.41 13.2 13.03
1/21/2017 8:45:00 AM 2.65 36.77 0.08 6.4 11.2 13.05
1/21/2017 9:00:00 AM 2.68 36.824 0.08 6.41 11 13.08
1/21/2017 9:15:00 AM 2.71 36.878 0.08 6.43 13.3 13.07
1/21/2017 9:30:00 AM 2.73 36.914 0.08 6.44 14.7 13.09
1/21/2017 9:45:00 AM 2.76 36.968 0.08 6.42 12.4 13.09
1/21/2017 10:00:00 AM 2.8 37.04 0.08 6.43 13.6 13.12
1/21/2017 10:15:00 AM 2.88 37.184 0.08 6.43 12 13.13
1/21/2017 10:30:00 AM 2.99 37.382 0.08 6.44 13.4 13.12
1/21/2017 10:45:00 AM 3.13 37.634 0.08 6.38 12.1 13.12
1/21/2017 11:00:00 AM 3.22 37.796 0.08 6.44 11.5 13.13
1/21/2017 11:15:00 AM 3.28 37.904 0.08 6.47 13.8 13.13
1/21/2017 11:30:00 AM 3.35 38.03 0.08 6.49 15.6 13.1
1/21/2017 11:45:00 AM 3.45 38.21 0.08 6.5 14.3 13.09
1/21/2017 12:00:00 PM 3.52 38.336 0.08 6.51 15.8 13.06
1/21/2017 12:15:00 PM 3.61 38.498 0.08 6.49 16.3 13.03
1/21/2017 12:30:00 PM 3.7 38.66 0.08 6.49 13.5 13.03
1/21/2017 12:45:00 PM 3.81 38.858 0.08 6.52 19.1 12.99
1/21/2017 1:00:00 PM 3.89 39.002 0.08 6.51 15.5 12.96
1/21/2017 1:15:00 PM 3.97 39.146 0.08 6.53 18.5 12.93
1/21/2017 1:30:00 PM 4.04 39.272 0.08 6.53 20.9 12.91
1/21/2017 1:45:00 PM 4.15 39.47 0.08 6.53 17.2 12.87
1/21/2017 2:00:00 PM 4.22 39.596 0.08 6.52 18 12.85
1/21/2017 2:15:00 PM 4.33 39.794 0.08 6.53 18.9 12.81
1/21/2017 2:30:00 PM 4.42 39.956 0.08 6.45 23.3 12.78
1/21/2017 2:45:00 PM 4.45 40.01 0.08 6.5 25.7 12.76
1/21/2017 3:00:00 PM 4.48 40.064 0.08 6.54 22.9 12.73
1/21/2017 3:15:00 PM 4.45 40.01 0.08 6.51 24.7 12.69
1/21/2017 3:30:00 PM 4.44 39.992 0.08 6.54 23.5 12.67
1/21/2017 3:45:00 PM 4.43 39.974 0.08 6.51 19.2 12.63
1/21/2017 4:00:00 PM 4.4 39.92 0.08 6.51 23.9 12.61
1/21/2017 4:15:00 PM 4.37 39.866 0.08 6.51 22 12.57
1/21/2017 4:30:00 PM 4.35 39.83 0.08 6.5 28 12.53
1/21/2017 4:45:00 PM 4.32 39.776 0.08 6.5 24.6 12.52
1/21/2017 5:00:00 PM 4.25 39.65 0.08 6.5 24.4 12.49
1/21/2017 5:15:00 PM 4.19 39.542 0.08 6.48 23.8 12.48
1/21/2017 5:30:00 PM 4.12 39.416 0.08 6.46 26.1 12.47
1/21/2017 5:45:00 PM 4.05 39.29 0.08 6.45 23.7 12.45
1/21/2017 6:00:00 PM 3.99 39.182 0.08 6.46 23 12.45
1/21/2017 6:15:00 PM 3.93 39.074 0.08 6.38 21.2 12.46
1/21/2017 6:30:00 PM 3.9 39.02 0.08 6.4 28.1 12.46
1/21/2017 6:45:00 PM 3.87 38.966 0.08 6.45 20.8 12.48
1/21/2017 7:00:00 PM 3.85 38.93 0.08 6.45 22.5 12.5
1/21/2017 7:15:00 PM 3.82 38.876 0.08 6.43 21 12.52
1/21/2017 7:30:00 PM 3.79 38.822 0.08 6.42 18.8 12.51
1/21/2017 7:45:00 PM 3.76 38.768 0.08 6.43 21.6 12.52
1/21/2017 8:00:00 PM 3.71 38.678 0.08 6.41 22.3 12.54
1/21/2017 8:15:00 PM 3.65 38.57 0.08 6.41 23.3 12.56
1/21/2017 8:30:00 PM 3.59 38.462 0.081 6.43 19.4 12.57
1/21/2017 8:45:00 PM 3.55 38.39 0.081 6.43 19 12.59
1/21/2017 9:00:00 PM 3.51 38.318 0.081 6.42 17.5 12.59
1/21/2017 9:15:00 PM 3.47 38.246 0.081 6.41 25.5 12.62
1/21/2017 9:30:00 PM 3.44 38.192 0.081 6.42 17.8 12.62
1/21/2017 9:45:00 PM 3.41 38.138 0.081 6.42 24.3 12.63
1/21/2017 10:00:00 PM 3.39 38.102 0.081 6.36 19.4 12.64
1/21/2017 10:15:00 PM 3.36 38.048 0.081 6.41 18 12.64
1/21/2017 10:30:00 PM 3.33 37.994 0.081 6.39 16.7 12.65
1/21/2017 10:45:00 PM 3.3 37.94 0.081 6.41 17.3 12.66
1/21/2017 11:00:00 PM 3.27 37.886 0.081 6.39 17.8 12.66
1/21/2017 11:15:00 PM 3.25 37.85 0.081 6.39 18.1 12.69
1/21/2017 11:30:00 PM 3.22 37.796 0.081 6.39 17.6 12.68
1/21/2017 11:45:00 PM 3.21 37.778 0.081 6.4 17.5 12.7
1/22/2017 12:00:00 AM 3.19 37.742 0.081 6.41 13.9 12.69
1/22/2017 12:15:00 AM 3.18 37.724 0.081 6.41 27.2 12.71
1/22/2017 12:30:00 AM 3.17 37.706 0.081 6.39 18 12.7
1/22/2017 12:45:00 AM 3.16 37.688 0.081 6.41 18.2 12.7
1/22/2017 1:00:00 AM 3.14 37.652 0.081 6.4 20.5 12.69
1/22/2017 1:15:00 AM 3.13 37.634 0.081 6.41 15.4 12.71
1/22/2017 1:30:00 AM 3.12 37.616 0.081 6.4 15.7 12.71
1/22/2017 1:45:00 AM 3.11 37.598 0.081 6.35 15.4 12.72
1/22/2017 2:00:00 AM 3.1 37.58 0.081 6.4 15.1 12.71
1/22/2017 2:15:00 AM 3.09 37.562 0.081 6.39 13.4 12.71
1/22/2017 2:30:00 AM 3.07 37.526 0.081 6.39 15.2 12.71
1/22/2017 2:45:00 AM 3.05 37.49 0.081 6.4 15.7 12.7
1/22/2017 3:00:00 AM 3.02 37.436 0.082 6.41 15.5 12.72
1/22/2017 3:15:00 AM 3 37.4 0.081 6.41 15.1 12.74
1/22/2017 3:30:00 AM 2.96 37.328 0.081 6.4 17.7 12.74
1/22/2017 3:45:00 AM 2.93 37.274 0.081 6.38 14.3 12.75
1/22/2017 4:00:00 AM 2.91 37.238 0.081 6.38 15.7 12.75
1/22/2017 4:15:00 AM 2.89 37.202 0.081 6.4 14.9 12.77
1/22/2017 4:30:00 AM 2.88 37.184 0.081 6.38 15.7 12.76
1/22/2017 4:45:00 AM 2.87 37.166 0.081 6.38 15.2 12.77
1/22/2017 5:00:00 AM 2.86 37.148 0.082 6.4 12.3 12.78
1/22/2017 5:15:00 AM 2.85 37.13 0.081 6.38 12.9 12.79
1/22/2017 5:30:00 AM 2.85 37.13 0.082 6.32 12.3 12.78
1/22/2017 5:45:00 AM 2.84 37.112 0.082 6.36 19 12.79
1/22/2017 6:00:00 AM 2.84 37.112 0.081 6.39 15.1 12.8
1/22/2017 6:15:00 AM 2.83 37.094 0.082 6.38 13.5 12.79
1/22/2017 6:30:00 AM 2.83 37.094 0.082 6.4 12 12.79
1/22/2017 6:45:00 AM 2.83 37.094 0.081 6.41 16 12.8
1/22/2017 7:00:00 AM 2.82 37.076 0.081 6.39 14.6 12.79
1/22/2017 7:15:00 AM 2.82 37.076 0.082 6.39 12.5 12.8
1/22/2017 7:30:00 AM 2.8 37.04 0.082 6.41 11.9 12.8
1/22/2017 7:45:00 AM 2.8 37.04 0.082 6.39 13.7 12.81
1/22/2017 8:00:00 AM 2.81 37.058 0.082 6.39 18.5 12.83
1/22/2017 8:15:00 AM 2.81 37.058 0.082 6.41 13.4 12.85
1/22/2017 8:30:00 AM 2.83 37.094 0.082 6.4 11.3 12.87
1/22/2017 8:45:00 AM 2.85 37.13 0.082 6.41 10.7 12.92
1/22/2017 9:00:00 AM 2.89 37.202 0.081 6.35 11.6 12.94
1/22/2017 9:15:00 AM 2.92 37.256 0.081 6.4 11.8 12.98
1/22/2017 9:30:00 AM 2.97 37.346 0.081 6.45 10.1 13.01
1/22/2017 9:45:00 AM 3.02 37.436 0.081 6.46 13.1 13.01
1/22/2017 10:00:00 AM 3.06 37.508 0.081 6.48 10 13.04
1/22/2017 10:15:00 AM 3.1 37.58 0.081 6.46 10.6 13.04
1/22/2017 10:30:00 AM 3.15 37.67 0.081 6.46 11.5 13.04
1/22/2017 10:45:00 AM 3.2 37.76 0.081 6.49 10.3 13.04
1/22/2017 11:00:00 AM 3.28 37.904 0.081 6.5 9.9 13.04
1/22/2017 11:15:00 AM 3.37 38.066 0.081 6.48 10.7 13.05
1/22/2017 11:30:00 AM 3.46 38.228 0.081 6.49 11.8 13.03
1/22/2017 11:45:00 AM 3.56 38.408 0.081 6.52 11.1 13.03
1/22/2017 12:00:00 PM 3.64 38.552 0.081 6.52 11.3 13.01
1/22/2017 12:15:00 PM 3.8 38.84 0.081 6.51 14.8 13
1/22/2017 12:30:00 PM 3.86 38.948 0.081 6.51 12.7 12.94
1/22/2017 12:45:00 PM 3.91 39.038 0.081 6.44 14.4 12.91
1/22/2017 1:00:00 PM 3.97 39.146 0.081 6.51 15 12.9
1/22/2017 1:15:00 PM 4.02 39.236 0.081 6.53 14.2 12.88
1/22/2017 1:30:00 PM 4.09 39.362 0.081 6.55 14 12.86
1/22/2017 1:45:00 PM 4.17 39.506 0.081 6.53 14.4 12.81
1/22/2017 2:00:00 PM 4.27 39.686 0.081 6.55 15.2 12.81
1/22/2017 2:15:00 PM 4.36 39.848 0.081 6.56 14.8 12.77
1/22/2017 2:30:00 PM 4.45 40.01 0.081 6.54 15 12.74
1/22/2017 2:45:00 PM 4.52 40.136 0.081 6.54 14.7 12.71
1/22/2017 3:00:00 PM 4.54 40.172 0.081 6.56 15.1 12.68
1/22/2017 3:15:00 PM 4.54 40.172 0.081 6.54 18.8 12.65
1/22/2017 3:30:00 PM 4.55 40.19 0.081 6.55 16.7 12.61
1/22/2017 3:45:00 PM 4.55 40.19 0.081 6.55 16 12.56
1/22/2017 4:00:00 PM 4.53 40.154 0.081 6.53 20.1 12.54
1/22/2017 4:15:00 PM 4.51 40.118 0.081 6.54 17.7 12.51
1/22/2017 4:30:00 PM 4.47 40.046 0.081 6.44 20.7 12.46
1/22/2017 4:45:00 PM 4.45 40.01 0.081 6.5 16.5 12.44
1/22/2017 5:00:00 PM 4.43 39.974 0.081 6.51 22.9 12.41
1/22/2017 5:15:00 PM 4.43 39.974 0.081 6.5 18.9 12.38
1/22/2017 5:30:00 PM 4.44 39.992 0.081 6.49 19 12.35
1/22/2017 5:45:00 PM 4.45 40.01 0.081 6.46 18.8 12.33
1/22/2017 6:00:00 PM 4.47 40.046 0.081 6.45 17.6 12.28
1/22/2017 6:15:00 PM 4.48 40.064 0.081 6.46 18.7 12.27
1/22/2017 6:30:00 PM 4.46 40.028 0.082 6.45 20.1 12.26
1/22/2017 6:45:00 PM 4.42 39.956 0.081 6.46 22.1 12.26
1/22/2017 7:00:00 PM 4.37 39.866 0.082 6.44 22.5 12.27
1/22/2017 7:15:00 PM 4.33 39.794 0.082 6.45 20 12.27
1/22/2017 7:30:00 PM 4.29 39.722 0.082 6.44 17 12.29
1/22/2017 7:45:00 PM 4.26 39.668 0.082 6.43 19.3 12.29
1/22/2017 8:00:00 PM 4.24 39.632 0.082 6.44 22.1 12.3
1/22/2017 8:15:00 PM 4.22 39.596 0.082 6.35 21.5 12.31
1/22/2017 8:30:00 PM 4.2 39.56 0.082 6.41 17.4 12.32
1/22/2017 8:45:00 PM 4.18 39.524 0.082 6.42 20.1 12.33
1/22/2017 9:00:00 PM 4.17 39.506 0.082 6.43 17.2 12.34
1/22/2017 9:15:00 PM 4.16 39.488 0.082 6.44 17.2 12.34
1/22/2017 9:30:00 PM 4.15 39.47 0.082 6.44 16.9 12.35
1/22/2017 9:45:00 PM 4.14 39.452 0.082 6.44 19.3 12.35
1/22/2017 10:00:00 PM 4.13 39.434 0.082 6.44 19.9 12.34
1/22/2017 10:15:00 PM 4.13 39.434 0.082 6.42 16 12.36
1/22/2017 10:30:00 PM 4.13 39.434 0.082 6.44 19.4 12.36
1/22/2017 10:45:00 PM 4.14 39.452 0.082 6.44 19.8 12.36
1/22/2017 11:00:00 PM 4.16 39.488 0.082 6.44 19.6 12.37
1/22/2017 11:15:00 PM 4.18 39.524 0.082 6.42 18.3 12.36
1/22/2017 11:30:00 PM 4.2 39.56 0.082 6.45 20.2 12.36
1/22/2017 11:45:00 PM 4.22 39.596 0.082 6.44 19.4 12.35
1/23/2017 12:00:00 AM 4.22 39.596 0.082 6.35 19.2 12.34
1/23/2017 12:15:00 AM 4.23 39.614 0.082 6.39 20.7 12.34
1/23/2017 12:30:00 AM 4.24 39.632 0.082 6.43 21.5 12.35
1/23/2017 12:45:00 AM 4.24 39.632 0.082 6.42 16.9 12.33
1/23/2017 1:00:00 AM 4.25 39.65 0.082 6.44 18.7 12.34
1/23/2017 1:15:00 AM 4.26 39.668 0.082 6.44 23.6 12.33
1/23/2017 1:30:00 AM 4.27 39.686 0.082 6.44 17.5 12.32
1/23/2017 1:45:00 AM 4.27 39.686 0.082 6.43 22.8 12.32
1/23/2017 2:00:00 AM 4.27 39.686 0.082 6.43 18.1 12.32
1/23/2017 2:15:00 AM 4.27 39.686 0.082 6.43 19.6 12.33
1/23/2017 2:30:00 AM 4.26 39.668 0.083 6.42 20.7 12.34
1/23/2017 2:45:00 AM 4.26 39.668 0.082 6.45 19.3 12.32
1/23/2017 3:00:00 AM 4.25 39.65 0.082 6.43 18.2 12.33
1/23/2017 3:15:00 AM 4.24 39.632 0.082 6.43 18.5 12.33
1/23/2017 3:30:00 AM 4.23 39.614 0.082 6.45 15.9 12.33
1/23/2017 3:45:00 AM 4.21 39.578 0.082 6.36 17.4 12.33
1/23/2017 4:00:00 AM 4.2 39.56 0.082 6.42 18.5 12.34
1/23/2017 4:15:00 AM 4.18 39.524 0.082 6.44 18.2 12.35
1/23/2017 4:30:00 AM 4.17 39.506 0.082 6.45 17.2 12.34
1/23/2017 4:45:00 AM 4.14 39.452 0.082 6.44 19.8 12.35
1/23/2017 5:00:00 AM 4.12 39.416 0.082 6.46 17.4 12.35
1/23/2017 5:15:00 AM 4.1 39.38 0.082 6.43 21 12.36
1/23/2017 5:30:00 AM 4.07 39.326 0.083 6.45 18.7 12.38
1/23/2017 5:45:00 AM 4.05 39.29 0.083 6.46 16.5 12.39
1/23/2017 6:00:00 AM 4.03 39.254 0.083 6.45 19.3 12.39
1/23/2017 6:15:00 AM 4.01 39.218 0.083 6.43 16.7 12.39
1/23/2017 6:30:00 AM 3.98 39.164 0.083 6.45 18.4 12.41
1/23/2017 6:45:00 AM 3.96 39.128 0.082 6.45 17.6 12.41
1/23/2017 7:00:00 AM 3.93 39.074 0.082 6.45 21.9 12.42
1/23/2017 7:15:00 AM 3.91 39.038 0.082 6.43 18.1 12.43
1/23/2017 7:30:00 AM 3.88 38.984 0.082 6.36 15.6 12.42
1/23/2017 7:45:00 AM 3.86 38.948 0.082 6.43 16 12.45
1/23/2017 8:00:00 AM 3.84 38.912 0.083 6.42 14.9 12.47
1/23/2017 8:15:00 AM 3.83 38.894 0.083 6.43 13.9 12.49
1/23/2017 8:30:00 AM 3.82 38.876 0.083 6.45 14.6 12.51
1/23/2017 8:45:00 AM 3.81 38.858 0.082 6.44 14.4 12.54
1/23/2017 9:00:00 AM 3.8 38.84 0.082 6.46 15.8 12.57
1/23/2017 9:15:00 AM 3.79 38.822 0.082 6.47 16.2 12.6
1/23/2017 9:30:00 AM 3.8 38.84 0.082 6.45 13.2 12.67
1/23/2017 9:45:00 AM 3.8 38.84 0.083 6.48 13.1 12.69
1/23/2017 10:00:00 AM 3.82 38.876 0.082 6.49 13.8 12.73
1/23/2017 10:15:00 AM 3.83 38.894 0.082 6.5 12.9 12.77
1/23/2017 10:30:00 AM 3.83 38.894 0.082 6.51 13.1 12.79
1/23/2017 10:45:00 AM 3.83 38.894 0.082 6.49 13.1 12.78
1/23/2017 11:00:00 AM 3.83 38.894 0.082 6.51 12.4 12.8
1/23/2017 11:15:00 AM 3.84 38.912 0.082 6.43 12.7 12.8
1/23/2017 11:30:00 AM 3.85 38.93 0.082 6.49